| time (UTC) | temp F | wind direction | speed MPH | gust MPH | rain 1hr in | rain 24hr in | rain mn in | humidity % | barometer mb |
| 20260903235305 | 68 | 122 | 0.0 | 2.0 | 0.12 | 1.26 | 1.26 | 98 | 1016.4 |
| 20260903235224 | 69 | 121 | 0.0 | 2.0 | 0.12 | 1.26 | 1.26 | 98 | 1016.7 |
| 20260903235104 | 69 | 118 | 0.0 | 2.0 | 0.13 | 1.26 | 1.26 | 98 | 1016.5 |
| 20260903235004 | 69 | 118 | 0.0 | 2.0 | 0.13 | 1.26 | 1.26 | 98 | 1016.5 |
| 20260903234924 | 69 | 118 | 0.0 | 2.0 | 0.13 | 1.26 | 1.26 | 98 | 1016.5 |
| 20260903234803 | 69 | 118 | 0.0 | 2.0 | 0.13 | 1.26 | 1.26 | 98 | 1016.7 |
| 20260903234703 | 69 | 117 | 0.0 | 2.0 | 0.14 | 1.26 | 1.26 | 98 | 1016.8 |
| 20260903234603 | 69 | 117 | 0.0 | 2.0 | 0.14 | 1.26 | 1.26 | 98 | 1017.0 |
| 20260903234503 | 69 | 117 | 0.0 | 2.0 | 0.15 | 1.26 | 1.26 | 98 | 1017.2 |
| 20260903234403 | 69 | 117 | 0.0 | 2.0 | 0.16 | 1.26 | 1.26 | 98 | 1017.2 |
| 20260903234303 | 69 | 110 | 0.0 | 2.0 | 0.17 | 1.26 | 1.26 | 98 | 1016.9 |
| 20260903234204 | 69 | 116 | 0.0 | 2.0 | 0.18 | 1.26 | 1.26 | 98 | 1017.1 |
| 20260903234103 | 69 | 114 | 0.0 | 1.0 | 0.19 | 1.25 | 1.25 | 98 | 1017.1 |
| 20260903234003 | 69 | 114 | 0.0 | 1.0 | 0.20 | 1.25 | 1.25 | 97 | 1017.2 |
| 20260903233903 | 69 | 114 | 0.0 | 1.0 | 0.23 | 1.25 | 1.25 | 98 | 1017.2 |
| 20260903233803 | 69 | 114 | 0.0 | 1.0 | 0.26 | 1.25 | 1.25 | 97 | 1017.4 |
| 20260903233704 | 69 | 0 | 0.0 | 0.0 | 0.30 | 1.25 | 1.25 | 97 | 1017.4 |
| 20260903233603 | 69 | 0 | 0.0 | 0.0 | 0.33 | 1.25 | 1.25 | 97 | 1017.3 |
| 20260903233503 | 69 | 0 | 0.0 | 0.0 | 0.36 | 1.24 | 1.24 | 97 | 1017.5 |
| 20260903233404 | 69 | 0 | 0.0 | 0.0 | 0.40 | 1.24 | 1.24 | 97 | 1017.5 |
| 20260903233324 | 69 | 0 | 0.0 | 0.0 | 0.41 | 1.24 | 1.24 | 97 | 1017.6 |
| 20260903233203 | 68 | 0 | 0.0 | 0.0 | 0.43 | 1.24 | 1.24 | 97 | 1017.7 |
| 20260903233125 | 68 | 0 | 0.0 | 0.0 | 0.45 | 1.24 | 1.24 | 97 | 1017.7 |
| 20260903233003 | 68 | 0 | 0.0 | 0.0 | 0.47 | 1.23 | 1.23 | 97 | 1017.8 |
| 20260903232903 | 69 | 0 | 0.0 | 0.0 | 0.49 | 1.23 | 1.23 | 97 | 1017.9 |
| 20260903232804 | 69 | 0 | 0.0 | 0.0 | 0.51 | 1.23 | 1.23 | 97 | 1017.7 |
| 20260903232704 | 69 | 0 | 0.0 | 0.0 | 0.55 | 1.23 | 1.23 | 97 | 1018.1 |
| 20260903232603 | 69 | 103 | 0.0 | 1.0 | 0.59 | 1.23 | 1.23 | 97 | 1017.8 |
| 20260903232504 | 69 | 110 | 0.0 | 1.0 | 0.67 | 1.23 | 1.23 | 97 | 1018.1 |
| 20260903232403 | 68 | 179 | 0.0 | 2.0 | 0.71 | 1.23 | 1.23 | 97 | 1018.0 |
| 20260903232306 | 68 | 150 | 0.0 | 2.0 | 0.73 | 1.22 | 1.22 | 97 | 1018.1 |
| 20260903232203 | 68 | 147 | 0.0 | 2.0 | 0.74 | 1.22 | 1.22 | 97 | 1018.1 |
| 20260903232103 | 68 | 158 | 0.0 | 3.0 | 0.75 | 1.22 | 1.22 | 97 | 1018.2 |
| 20260903232003 | 68 | 201 | 1.0 | 3.0 | 0.76 | 1.22 | 1.22 | 97 | 1018.4 |
| 20260903231925 | 68 | 205 | 1.0 | 3.0 | 0.76 | 1.22 | 1.22 | 97 | 1018.4 |
| 20260903231803 | 68 | 183 | 1.0 | 3.0 | 0.76 | 1.22 | 1.22 | 97 | 1018.4 |
| 20260903231704 | 68 | 134 | 1.0 | 3.0 | 0.76 | 1.21 | 1.21 | 97 | 1018.4 |
| 20260903231625 | 68 | 122 | 1.0 | 3.0 | 0.78 | 1.21 | 1.21 | 97 | 1018.4 |
| 20260903231503 | 68 | 29 | 1.0 | 3.0 | 0.80 | 1.21 | 1.21 | 97 | 1018.4 |
| 20260903231403 | 68 | 4 | 2.0 | 7.0 | 0.81 | 1.21 | 1.21 | 97 | 1018.4 |
| 20260903231303 | 68 | 357 | 2.0 | 7.0 | 0.81 | 1.20 | 1.20 | 97 | 1018.6 |
| 20260903231224 | 68 | 10 | 2.0 | 7.0 | 0.81 | 1.20 | 1.20 | 97 | 1018.6 |
| 20260903231103 | 68 | 18 | 2.0 | 7.0 | 0.81 | 1.20 | 1.20 | 97 | 1018.5 |
| 20260903231004 | 68 | 37 | 2.0 | 7.0 | 0.82 | 1.20 | 1.20 | 97 | 1018.5 |
| 20260903230904 | 68 | 48 | 2.0 | 7.0 | 0.82 | 1.20 | 1.20 | 97 | 1018.6 |
| 20260903230803 | 68 | 51 | 2.0 | 7.0 | 0.82 | 1.20 | 1.20 | 97 | 1018.4 |
| 20260903230704 | 68 | 43 | 2.0 | 7.0 | 0.81 | 1.19 | 1.19 | 97 | 1018.4 |
| 20260903230603 | 68 | 49 | 2.0 | 7.0 | 0.82 | 1.19 | 1.19 | 97 | 1018.3 |
| 20260903230503 | 68 | 48 | 2.0 | 7.0 | 0.82 | 1.19 | 1.19 | 97 | 1018.3 |
| 20260903230404 | 68 | 43 | 3.0 | 7.0 | 0.82 | 1.19 | 1.19 | 97 | 1018.4 |
| 20260903230303 | 68 | 42 | 3.0 | 7.0 | 0.81 | 1.18 | 1.18 | 97 | 1018.1 |
| 20260903230203 | 68 | 33 | 3.0 | 7.0 | 0.81 | 1.18 | 1.18 | 97 | 1018.0 |
| 20260903230104 | 68 | 27 | 3.0 | 8.0 | 0.81 | 1.18 | 1.18 | 97 | 1018.0 |
| 20260903230025 | 68 | 32 | 3.0 | 8.0 | 0.80 | 1.17 | 1.18 | 97 | 1018.2 |
| 20260903225903 | 68 | 20 | 3.0 | 8.0 | 0.80 | 1.17 | 1.17 | 97 | 1018.0 |
| 20260903225803 | 68 | 22 | 3.0 | 8.0 | 0.81 | 1.17 | 1.17 | 97 | 1018.3 |
| 20260903225704 | 68 | 29 | 3.0 | 8.0 | 0.80 | 1.16 | 1.16 | 97 | 1018.0 |
| 20260903225603 | 68 | 29 | 3.0 | 8.0 | 0.80 | 1.16 | 1.16 | 97 | 1018.0 |
| 20260903225503 | 68 | 40 | 3.0 | 8.0 | 0.79 | 1.15 | 1.15 | 97 | 1018.1 |
| 20260903225404 | 68 | 43 | 3.0 | 8.0 | 0.80 | 1.15 | 1.15 | 97 | 1017.9 |
| 20260903225306 | 68 | 51 | 3.0 | 8.0 | 0.81 | 1.14 | 1.14 | 97 | 1018.0 |
| 20260903225203 | 68 | 50 | 3.0 | 8.0 | 0.81 | 1.14 | 1.14 | 97 | 1017.9 |
| 20260903225103 | 68 | 48 | 3.0 | 8.0 | 0.80 | 1.13 | 1.13 | 97 | 1017.7 |
| 20260903225004 | 68 | 49 | 3.0 | 8.0 | 0.80 | 1.13 | 1.13 | 97 | 1017.7 |
| 20260903224904 | 68 | 55 | 3.0 | 8.0 | 0.80 | 1.13 | 1.13 | 97 | 1017.7 |
| 20260903224804 | 68 | 46 | 3.0 | 8.0 | 0.80 | 1.13 | 1.13 | 97 | 1017.5 |
| 20260903224703 | 68 | 42 | 3.0 | 8.0 | 0.79 | 1.12 | 1.12 | 96 | 1017.5 |
| 20260903224603 | 68 | 40 | 3.0 | 8.0 | 0.79 | 1.12 | 1.12 | 96 | 1017.6 |
| 20260903224524 | 68 | 34 | 3.0 | 8.0 | 0.78 | 1.11 | 1.11 | 96 | 1017.4 |
| 20260903224404 | 68 | 35 | 3.0 | 8.0 | 0.77 | 1.10 | 1.10 | 96 | 1017.7 |
| 20260903224304 | 68 | 30 | 3.0 | 8.0 | 0.76 | 1.09 | 1.09 | 96 | 1017.8 |
| 20260903224203 | 68 | 30 | 3.0 | 8.0 | 0.75 | 1.08 | 1.08 | 96 | 1017.9 |
| 20260903224104 | 68 | 30 | 3.0 | 7.0 | 0.73 | 1.06 | 1.06 | 96 | 1017.6 |
| 20260903224003 | 69 | 22 | 3.0 | 7.0 | 0.72 | 1.05 | 1.05 | 96 | 1017.6 |
| 20260903223903 | 69 | 16 | 3.0 | 8.0 | 0.69 | 1.02 | 1.02 | 96 | 1017.7 |
| 20260903223803 | 69 | 21 | 3.0 | 8.0 | 0.66 | 0.99 | 0.99 | 96 | 1017.9 |
| 20260903223704 | 69 | 22 | 3.0 | 8.0 | 0.62 | 0.95 | 0.95 | 96 | 1018.0 |
| 20260903223603 | 69 | 11 | 4.0 | 8.0 | 0.59 | 0.92 | 0.92 | 96 | 1018.2 |
| 20260903223504 | 69 | 10 | 4.0 | 14.0 | 0.55 | 0.88 | 0.88 | 95 | 1018.4 |
| 20260903223403 | 69 | 3 | 4.0 | 14.0 | 0.51 | 0.84 | 0.84 | 95 | 1018.7 |
| 20260903223304 | 69 | 4 | 4.0 | 17.0 | 0.50 | 0.83 | 0.83 | 95 | 1018.9 |
| 20260903223224 | 69 | 340 | 5.0 | 17.0 | 0.48 | 0.81 | 0.82 | 95 | 1019.0 |
| 20260903223125 | 69 | 351 | 5.0 | 17.0 | 0.46 | 0.79 | 0.79 | 95 | 1019.0 |
| 20260903223024 | 69 | 2 | 6.0 | 23.0 | 0.43 | 0.76 | 0.76 | 95 | 1019.0 |
| 20260903222903 | 69 | 8 | 6.0 | 23.0 | 0.41 | 0.74 | 0.74 | 94 | 1018.9 |
| 20260903222824 | 69 | 9 | 6.0 | 23.0 | 0.39 | 0.72 | 0.73 | 94 | 1019.2 |
| 20260903222703 | 69 | 7 | 6.0 | 23.0 | 0.35 | 0.68 | 0.68 | 94 | 1019.0 |
| 20260903222603 | 70 | 8 | 6.0 | 23.0 | 0.31 | 0.64 | 0.64 | 93 | 1018.6 |
| 20260903222503 | 70 | 10 | 6.0 | 23.0 | 0.23 | 0.56 | 0.56 | 93 | 1018.2 |
| 20260903222424 | 71 | 15 | 6.0 | 23.0 | 0.19 | 0.52 | 0.53 | 92 | 1018.2 |
| 20260903222305 | 71 | 16 | 5.0 | 23.0 | 0.16 | 0.49 | 0.49 | 92 | 1017.3 |
| 20260903222203 | 72 | 30 | 5.0 | 23.0 | 0.15 | 0.48 | 0.48 | 91 | 1016.9 |
| 20260903222103 | 73 | 33 | 4.0 | 23.0 | 0.14 | 0.47 | 0.47 | 91 | 1016.5 |
| 20260903222003 | 73 | 30 | 3.0 | 11.0 | 0.13 | 0.46 | 0.46 | 92 | 1015.9 |
| 20260903221903 | 73 | 34 | 3.0 | 11.0 | 0.13 | 0.46 | 0.46 | 92 | 1015.4 |
| 20260903221824 | 73 | 34 | 3.0 | 11.0 | 0.13 | 0.46 | 0.46 | 92 | 1015.4 |
| 20260903221704 | 74 | 41 | 2.0 | 11.0 | 0.12 | 0.45 | 0.45 | 92 | 1015.3 |
| 20260903221625 | 76 | 60 | 2.0 | 10.0 | 0.10 | 0.43 | 0.44 | 93 | 1015.3 |
| 20260903221504 | 76 | 74 | 1.0 | 8.0 | 0.08 | 0.41 | 0.41 | 94 | 1015.7 |
| 20260903221403 | 76 | 81 | 1.0 | 3.0 | 0.07 | 0.40 | 0.40 | 94 | 1016.1 |
| 20260903221324 | 77 | 82 | 1.0 | 3.0 | 0.06 | 0.39 | 0.39 | 94 | 1016.1 |
| 20260903221203 | 77 | 96 | 0.0 | 2.0 | 0.06 | 0.39 | 0.39 | 94 | 1016.0 |
| 20260903221103 | 77 | 98 | 0.0 | 2.0 | 0.06 | 0.39 | 0.39 | 94 | 1016.2 |
| 20260903221004 | 77 | 94 | 0.0 | 2.0 | 0.05 | 0.38 | 0.38 | 94 | 1016.2 |
| 20260903220903 | 77 | 94 | 0.0 | 2.0 | 0.05 | 0.38 | 0.38 | 93 | 1015.9 |
| 20260903220803 | 77 | 91 | 0.0 | 2.0 | 0.05 | 0.38 | 0.38 | 93 | 1015.6 |
| 20260903220703 | 77 | 0 | 0.0 | 0.0 | 0.05 | 0.38 | 0.38 | 93 | 1015.6 |
| 20260903220624 | 77 | 0 | 0.0 | 0.0 | 0.04 | 0.37 | 0.38 | 93 | 1015.4 |
| 20260903220525 | 77 | 0 | 0.0 | 0.0 | 0.04 | 0.37 | 0.37 | 93 | 1015.3 |
| 20260903220404 | 77 | 0 | 0.0 | 0.0 | 0.04 | 0.37 | 0.37 | 93 | 1015.4 |
| 20260903220303 | 77 | 0 | 0.0 | 0.0 | 0.04 | 0.37 | 0.37 | 92 | 1015.3 |
| 20260903220204 | 77 | 0 | 0.0 | 0.0 | 0.04 | 0.37 | 0.37 | 92 | 1015.4 |
| 20260903220104 | 77 | 0 | 0.0 | 0.0 | 0.04 | 0.37 | 0.37 | 92 | 1015.3 |
| 20260903220024 | 78 | 0 | 0.0 | 0.0 | 0.04 | 0.37 | 0.37 | 92 | 1015.0 |
| 20260903215903 | 78 | 0 | 0.0 | 0.0 | 0.04 | 0.37 | 0.37 | 92 | 1015.1 |
| 20260903215803 | 78 | 0 | 0.0 | 0.0 | 0.03 | 0.36 | 0.36 | 92 | 1015.1 |
| 20260903215704 | 78 | 0 | 0.0 | 0.0 | 0.03 | 0.36 | 0.36 | 91 | 1015.0 |
| 20260903215604 | 78 | 0 | 0.0 | 0.0 | 0.03 | 0.36 | 0.36 | 91 | 1014.9 |
| 20260903215503 | 78 | 0 | 0.0 | 0.0 | 0.03 | 0.36 | 0.36 | 91 | 1014.9 |
| 20260903215404 | 78 | 0 | 0.0 | 0.0 | 0.02 | 0.35 | 0.35 | 90 | 1015.1 |
| 20260903215306 | 78 | 0 | 0.0 | 0.0 | 0.00 | 0.33 | 0.34 | 90 | 1014.8 |
| 20260903215225 | 78 | 0 | 0.0 | 0.0 | 0.00 | 0.33 | 0.33 | 90 | 1014.9 |
| 20260903215103 | 79 | 0 | 0.0 | 0.0 | 0.00 | 0.33 | 0.33 | 90 | 1014.8 |
| 20260903215003 | 78 | 0 | 0.0 | 0.0 | 0.00 | 0.33 | 0.33 | 90 | 1015.0 |
| 20260903214903 | 78 | 0 | 0.0 | 0.0 | 0.00 | 0.33 | 0.33 | 89 | 1014.8 |
| 20260903214803 | 78 | 0 | 0.0 | 0.0 | 0.00 | 0.33 | 0.33 | 89 | 1014.9 |
| 20260903214703 | 78 | 0 | 0.0 | 0.0 | 0.00 | 0.33 | 0.33 | 89 | 1014.9 |
| 20260903214603 | 78 | 0 | 0.0 | 0.0 | 0.00 | 0.33 | 0.33 | 89 | 1014.8 |
| 20260903214503 | 78 | 0 | 0.0 | 0.0 | 0.00 | 0.33 | 0.33 | 89 | 1015.0 |
| 20260903214404 | 78 | 0 | 0.0 | 0.0 | 0.00 | 0.33 | 0.33 | 90 | 1014.7 |
| 20260903214303 | 78 | 0 | 0.0 | 0.0 | 0.00 | 0.33 | 0.33 | 89 | 1014.8 |
| 20260903214203 | 78 | 0 | 0.0 | 0.0 | 0.00 | 0.33 | 0.33 | 90 | 1015.0 |
| 20260903214103 | 78 | 0 | 0.0 | 0.0 | 0.00 | 0.33 | 0.33 | 89 | 1014.8 |
| 20260903214003 | 78 | 0 | 0.0 | 0.0 | 0.00 | 0.33 | 0.33 | 89 | 1014.9 |
| 20260903213903 | 78 | 0 | 0.0 | 0.0 | 0.00 | 0.33 | 0.33 | 89 | 1015.1 |
| 20260903213803 | 78 | 0 | 0.0 | 0.0 | 0.00 | 0.33 | 0.33 | 89 | 1015.1 |
| 20260903213704 | 78 | 100 | 0.0 | 1.0 | 0.00 | 0.33 | 0.33 | 89 | 1015.1 |
| 20260903213604 | 78 | 100 | 0.0 | 1.0 | 0.00 | 0.33 | 0.33 | 89 | 1015.1 |
| 20260903213504 | 78 | 100 | 0.0 | 1.0 | 0.00 | 0.33 | 0.33 | 89 | 1015.0 |
| 20260903213404 | 78 | 100 | 0.0 | 1.0 | 0.00 | 0.33 | 0.33 | 89 | 1015.1 |
| 20260903213303 | 78 | 100 | 0.0 | 1.0 | 0.00 | 0.33 | 0.33 | 89 | 1014.9 |
| 20260903213203 | 78 | 100 | 0.0 | 1.0 | 0.00 | 0.33 | 0.33 | 89 | 1015.0 |
| 20260903213104 | 78 | 100 | 0.0 | 1.0 | 0.00 | 0.33 | 0.33 | 89 | 1014.9 |
| 20260903213003 | 78 | 100 | 0.0 | 1.0 | 0.00 | 0.33 | 0.33 | 89 | 1014.9 |
| 20260903212903 | 79 | 100 | 0.0 | 1.0 | 0.00 | 0.33 | 0.33 | 89 | 1014.6 |
| 20260903212804 | 79 | 100 | 0.0 | 1.0 | 0.00 | 0.33 | 0.33 | 88 | 1014.8 |
| 20260903212704 | 79 | 0 | 0.0 | 0.0 | 0.00 | 0.33 | 0.33 | 88 | 1014.7 |
| 20260903212624 | 79 | 0 | 0.0 | 0.0 | 0.00 | 0.33 | 0.33 | 88 | 1014.8 |
| 20260903212503 | 79 | 102 | 0.0 | 1.0 | 0.00 | 0.33 | 0.33 | 87 | 1014.6 |
| 20260903212403 | 79 | 113 | 0.0 | 2.0 | 0.00 | 0.33 | 0.33 | 87 | 1014.6 |
| 20260903212324 | 79 | 108 | 0.0 | 3.0 | 0.00 | 0.33 | 0.33 | 87 | 1014.9 |
| 20260903212203 | 79 | 108 | 0.0 | 3.0 | 0.00 | 0.33 | 0.33 | 87 | 1014.7 |
| 20260903212104 | 80 | 108 | 0.0 | 3.0 | 0.00 | 0.33 | 0.33 | 87 | 1014.7 |
| 20260903212004 | 80 | 109 | 0.0 | 3.0 | 0.00 | 0.33 | 0.33 | 86 | 1014.8 |
| 20260903211924 | 80 | 109 | 0.0 | 3.0 | 0.00 | 0.33 | 0.33 | 86 | 1014.8 |
| 20260903211803 | 80 | 109 | 0.0 | 3.0 | 0.00 | 0.33 | 0.33 | 87 | 1014.7 |
| 20260903211703 | 80 | 109 | 0.0 | 3.0 | 0.00 | 0.33 | 0.33 | 87 | 1014.8 |
| 20260903211603 | 80 | 109 | 0.0 | 3.0 | 0.00 | 0.33 | 0.33 | 86 | 1014.7 |
| 20260903211504 | 80 | 109 | 0.0 | 3.0 | 0.00 | 0.33 | 0.33 | 86 | 1014.6 |
| 20260903211403 | 80 | 107 | 0.0 | 3.0 | 0.00 | 0.33 | 0.33 | 85 | 1014.6 |
| 20260903211303 | 80 | 110 | 0.0 | 1.0 | 0.00 | 0.33 | 0.33 | 86 | 1014.5 |
| 20260903211203 | 80 | 110 | 0.0 | 1.0 | 0.00 | 0.33 | 0.33 | 85 | 1014.5 |
| 20260903211104 | 80 | 111 | 0.0 | 1.0 | 0.00 | 0.33 | 0.33 | 86 | 1014.4 |
| 20260903211004 | 80 | 110 | 0.0 | 1.0 | 0.00 | 0.33 | 0.33 | 85 | 1014.4 |
| 20260903210904 | 80 | 109 | 0.0 | 1.0 | 0.00 | 0.33 | 0.33 | 85 | 1014.3 |
| 20260903210803 | 81 | 107 | 0.0 | 1.0 | 0.00 | 0.33 | 0.33 | 84 | 1014.2 |
| 20260903210704 | 81 | 107 | 0.0 | 1.0 | 0.00 | 0.33 | 0.33 | 86 | 1014.2 |
| 20260903210603 | 81 | 107 | 0.0 | 1.0 | 0.00 | 0.33 | 0.33 | 86 | 1014.2 |
| 20260903210503 | 81 | 107 | 0.0 | 1.0 | 0.00 | 0.33 | 0.33 | 86 | 1014.1 |
| 20260903210403 | 81 | 107 | 0.0 | 1.0 | 0.00 | 0.33 | 0.33 | 85 | 1014.1 |
| 20260903210324 | 81 | 107 | 0.0 | 1.0 | 0.00 | 0.33 | 0.33 | 85 | 1014.1 |
| 20260903210204 | 81 | 107 | 0.0 | 1.0 | 0.00 | 0.33 | 0.33 | 85 | 1014.1 |
| 20260903210024 | 81 | 107 | 0.0 | 1.0 | 0.00 | 0.33 | 0.33 | 85 | 1013.9 |
| 20260903205904 | 82 | 107 | 0.0 | 1.0 | 0.00 | 0.33 | 0.33 | 84 | 1013.8 |
| 20260903205824 | 82 | 107 | 0.0 | 1.0 | 0.00 | 0.33 | 0.33 | 83 | 1013.6 |
| 20260903205704 | 82 | 0 | 0.0 | 0.0 | 0.00 | 0.33 | 0.33 | 83 | 1013.7 |
| 20260903205603 | 82 | 0 | 0.0 | 0.0 | 0.00 | 0.33 | 0.33 | 84 | 1013.5 |
| 20260903205504 | 82 | 0 | 0.0 | 0.0 | 0.00 | 0.33 | 0.33 | 83 | 1013.5 |
| 20260903205403 | 82 | 0 | 0.0 | 0.0 | 0.00 | 0.33 | 0.33 | 83 | 1013.7 |
| 20260903205306 | 82 | 0 | 0.0 | 0.0 | 0.00 | 0.33 | 0.33 | 83 | 1013.6 |
| 20260903205225 | 82 | 0 | 0.0 | 0.0 | 0.00 | 0.33 | 0.33 | 83 | 1013.5 |
| 20260903205103 | 82 | 0 | 0.0 | 0.0 | 0.00 | 0.33 | 0.33 | 81 | 1013.6 |
| 20260903205003 | 82 | 0 | 0.0 | 0.0 | 0.00 | 0.33 | 0.33 | 81 | 1013.6 |
| 20260903204903 | 82 | 0 | 0.0 | 0.0 | 0.00 | 0.33 | 0.33 | 81 | 1013.6 |
| 20260903204803 | 82 | 0 | 0.0 | 0.0 | 0.00 | 0.33 | 0.33 | 83 | 1013.7 |
| 20260903204703 | 83 | 0 | 0.0 | 0.0 | 0.00 | 0.33 | 0.33 | 82 | 1013.9 |
| 20260903204603 | 83 | 0 | 0.0 | 0.0 | 0.00 | 0.33 | 0.33 | 81 | 1013.9 |
| 20260903204524 | 83 | 0 | 0.0 | 0.0 | 0.01 | 0.33 | 0.33 | 82 | 1014.0 |
| 20260903204403 | 83 | 113 | 0.0 | 1.0 | 0.02 | 0.33 | 0.33 | 81 | 1013.8 |
| 20260903204304 | 83 | 113 | 0.0 | 1.0 | 0.03 | 0.33 | 0.33 | 82 | 1013.8 |
| 20260903204203 | 83 | 113 | 0.0 | 1.0 | 0.05 | 0.33 | 0.33 | 81 | 1014.0 |
| 20260903204104 | 83 | 113 | 0.0 | 1.0 | 0.05 | 0.33 | 0.33 | 79 | 1013.9 |
| 20260903204024 | 83 | 109 | 0.0 | 1.0 | 0.05 | 0.33 | 0.33 | 78 | 1014.2 |
| 20260903203924 | 83 | 109 | 0.0 | 1.0 | 0.06 | 0.33 | 0.33 | 79 | 1014.1 |
| 20260903203825 | 83 | 109 | 0.0 | 1.0 | 0.06 | 0.33 | 0.33 | 80 | 1014.2 |
| 20260903203703 | 83 | 104 | 0.0 | 1.0 | 0.06 | 0.33 | 0.33 | 80 | 1014.0 |
| 20260903203603 | 83 | 108 | 0.0 | 1.0 | 0.06 | 0.33 | 0.33 | 82 | 1014.0 |
| 20260903203504 | 83 | 138 | 0.0 | 2.0 | 0.07 | 0.33 | 0.33 | 83 | 1014.1 |
| 20260903203403 | 83 | 135 | 0.0 | 2.0 | 0.07 | 0.33 | 0.33 | 81 | 1014.0 |
| 20260903203303 | 83 | 134 | 0.0 | 2.0 | 0.07 | 0.33 | 0.33 | 83 | 1013.9 |
| 20260903203204 | 82 | 134 | 0.0 | 2.0 | 0.07 | 0.33 | 0.33 | 82 | 1013.9 |
| 20260903203125 | 82 | 134 | 0.0 | 2.0 | 0.07 | 0.33 | 0.33 | 80 | 1013.9 |
| 20260903203003 | 82 | 136 | 0.0 | 2.0 | 0.07 | 0.33 | 0.33 | 77 | 1014.0 |
| 20260903202904 | 82 | 137 | 0.0 | 2.0 | 0.07 | 0.33 | 0.33 | 78 | 1013.9 |
| 20260903202803 | 83 | 137 | 0.0 | 2.0 | 0.07 | 0.33 | 0.33 | 77 | 1013.7 |
| 20260903202724 | 83 | 138 | 0.0 | 2.0 | 0.07 | 0.33 | 0.33 | 77 | 1014.0 |
| 20260903202603 | 82 | 128 | 0.0 | 2.0 | 0.07 | 0.33 | 0.33 | 76 | 1013.7 |
| 20260903202503 | 82 | 90 | 0.0 | 2.0 | 0.07 | 0.33 | 0.33 | 79 | 1013.7 |
| 20260903202404 | 82 | 87 | 0.0 | 2.0 | 0.07 | 0.33 | 0.33 | 79 | 1013.7 |
| 20260903202306 | 82 | 76 | 0.0 | 2.0 | 0.07 | 0.33 | 0.33 | 80 | 1013.6 |
| 20260903202224 | 82 | 76 | 0.0 | 2.0 | 0.07 | 0.33 | 0.33 | 81 | 1013.5 |
| 20260903202104 | 82 | 79 | 0.0 | 2.0 | 0.07 | 0.33 | 0.33 | 80 | 1013.6 |
| 20260903202004 | 82 | 81 | 0.0 | 2.0 | 0.07 | 0.33 | 0.33 | 82 | 1013.7 |
| 20260903201903 | 81 | 86 | 0.0 | 3.0 | 0.07 | 0.33 | 0.33 | 83 | 1013.5 |
| 20260903201803 | 81 | 88 | 0.0 | 3.0 | 0.07 | 0.33 | 0.33 | 82 | 1013.5 |
| 20260903201704 | 82 | 90 | 0.0 | 3.0 | 0.07 | 0.33 | 0.33 | 81 | 1013.7 |
| 20260903201603 | 82 | 95 | 0.0 | 3.0 | 0.07 | 0.33 | 0.33 | 80 | 1013.5 |
| 20260903201503 | 81 | 100 | 0.0 | 3.0 | 0.07 | 0.33 | 0.33 | 82 | 1013.7 |
| 20260903201403 | 81 | 102 | 1.0 | 3.0 | 0.07 | 0.33 | 0.33 | 85 | 1013.4 |
| 20260903201303 | 80 | 102 | 1.0 | 3.0 | 0.07 | 0.33 | 0.33 | 87 | 1013.6 |
| 20260903201203 | 80 | 102 | 1.0 | 3.0 | 0.07 | 0.33 | 0.33 | 87 | 1013.7 |
| 20260903201103 | 80 | 103 | 1.0 | 3.0 | 0.07 | 0.33 | 0.33 | 87 | 1013.6 |
| 20260903201004 | 80 | 105 | 1.0 | 3.0 | 0.07 | 0.33 | 0.33 | 88 | 1013.6 |
| 20260903200903 | 80 | 108 | 1.0 | 2.0 | 0.07 | 0.33 | 0.33 | 88 | 1013.8 |
| 20260903200803 | 79 | 108 | 0.0 | 2.0 | 0.07 | 0.33 | 0.33 | 89 | 1013.6 |
| 20260903200703 | 79 | 109 | 0.0 | 2.0 | 0.07 | 0.33 | 0.33 | 87 | 1013.6 |
| 20260903200625 | 80 | 109 | 0.0 | 2.0 | 0.07 | 0.33 | 0.33 | 88 | 1013.6 |
| 20260903200503 | 79 | 111 | 0.0 | 2.0 | 0.07 | 0.33 | 0.33 | 89 | 1013.6 |
| 20260903200404 | 79 | 111 | 0.0 | 2.0 | 0.07 | 0.33 | 0.33 | 89 | 1013.6 |
| 20260903200303 | 79 | 113 | 0.0 | 2.0 | 0.07 | 0.33 | 0.33 | 88 | 1013.7 |
| 20260903200204 | 78 | 113 | 0.0 | 2.0 | 0.07 | 0.33 | 0.33 | 90 | 1014.0 |
| 20260903200125 | 78 | 111 | 0.0 | 2.0 | 0.07 | 0.33 | 0.33 | 90 | 1014.0 |
| 20260903200004 | 77 | 101 | 0.0 | 2.0 | 0.07 | 0.33 | 0.33 | 90 | 1013.9 |
| 20260903195904 | 77 | 101 | 0.0 | 2.0 | 0.07 | 0.33 | 0.33 | 90 | 1013.7 |
| 20260903195803 | 77 | 93 | 1.0 | 3.0 | 0.07 | 0.33 | 0.33 | 90 | 1013.9 |
| 20260903195704 | 77 | 87 | 1.0 | 3.0 | 0.07 | 0.33 | 0.33 | 92 | 1013.8 |
| 20260903195603 | 77 | 89 | 1.0 | 3.0 | 0.07 | 0.33 | 0.33 | 92 | 1013.9 |
| 20260903195503 | 76 | 86 | 1.0 | 3.0 | 0.07 | 0.33 | 0.33 | 92 | 1013.9 |
| 20260903195403 | 76 | 91 | 1.0 | 6.0 | 0.07 | 0.33 | 0.33 | 92 | 1013.9 |
| 20260903195306 | 75 | 86 | 1.0 | 7.0 | 0.07 | 0.33 | 0.33 | 92 | 1013.9 |
| 20260903195204 | 75 | 89 | 1.0 | 7.0 | 0.07 | 0.33 | 0.33 | 92 | 1013.9 |
| 20260903195124 | 75 | 86 | 2.0 | 7.0 | 0.07 | 0.33 | 0.33 | 92 | 1014.3 |
| 20260903195003 | 75 | 90 | 2.0 | 7.0 | 0.07 | 0.33 | 0.33 | 92 | 1014.4 |
| 20260903194903 | 75 | 90 | 2.0 | 7.0 | 0.07 | 0.33 | 0.33 | 92 | 1014.7 |
| 20260903194803 | 75 | 92 | 2.0 | 7.0 | 0.07 | 0.33 | 0.33 | 92 | 1014.6 |
| 20260903194704 | 75 | 91 | 2.0 | 7.0 | 0.07 | 0.33 | 0.33 | 92 | 1014.6 |
| 20260903194603 | 75 | 89 | 2.0 | 7.0 | 0.07 | 0.33 | 0.33 | 92 | 1014.5 |
| 20260903194525 | 75 | 91 | 2.0 | 7.0 | 0.06 | 0.32 | 0.33 | 91 | 1014.5 |
| 20260903194404 | 75 | 82 | 2.0 | 7.0 | 0.05 | 0.31 | 0.31 | 91 | 1014.8 |
| 20260903194303 | 75 | 72 | 2.0 | 9.0 | 0.04 | 0.30 | 0.30 | 91 | 1014.5 |
| 20260903194203 | 76 | 58 | 2.0 | 10.0 | 0.02 | 0.28 | 0.28 | 90 | 1014.7 |
| 20260903194104 | 76 | 63 | 2.0 | 10.0 | 0.02 | 0.28 | 0.28 | 90 | 1014.5 |
| 20260903194004 | 76 | 60 | 3.0 | 10.0 | 0.02 | 0.28 | 0.28 | 90 | 1014.6 |
| 20260903193903 | 76 | 52 | 3.0 | 10.0 | 0.01 | 0.27 | 0.27 | 90 | 1014.7 |
| 20260903193803 | 76 | 52 | 3.0 | 10.0 | 0.01 | 0.27 | 0.27 | 89 | 1015.0 |
| 20260903193704 | 77 | 52 | 3.0 | 10.0 | 0.01 | 0.27 | 0.27 | 89 | 1014.9 |
| 20260903193603 | 77 | 47 | 3.0 | 10.0 | 0.01 | 0.27 | 0.27 | 88 | 1015.0 |
| 20260903193503 | 78 | 34 | 4.0 | 10.0 | 0.00 | 0.26 | 0.26 | 86 | 1014.9 |
| 20260903193403 | 78 | 27 | 4.0 | 13.0 | 0.00 | 0.26 | 0.26 | 85 | 1014.7 |
| 20260903193304 | 78 | 12 | 4.0 | 13.0 | 0.00 | 0.26 | 0.26 | 84 | 1014.8 |
| 20260903193203 | 79 | 19 | 4.0 | 13.0 | 0.00 | 0.26 | 0.26 | 83 | 1014.9 |
| 20260903193103 | 79 | 19 | 4.0 | 13.0 | 0.00 | 0.26 | 0.26 | 81 | 1014.8 |
| 20260903193024 | 79 | 17 | 4.0 | 13.0 | 0.00 | 0.26 | 0.26 | 81 | 1014.9 |
| 20260903192903 | 79 | 16 | 4.0 | 13.0 | 0.00 | 0.26 | 0.26 | 83 | 1014.8 |
| 20260903192804 | 79 | 21 | 4.0 | 13.0 | 0.00 | 0.26 | 0.26 | 83 | 1014.9 |
| 20260903192704 | 80 | 16 | 4.0 | 13.0 | 0.00 | 0.26 | 0.26 | 83 | 1014.8 |
| 20260903192603 | 80 | 6 | 5.0 | 13.0 | 0.00 | 0.26 | 0.26 | 83 | 1014.8 |
| 20260903192503 | 80 | 359 | 5.0 | 13.0 | 0.00 | 0.26 | 0.26 | 82 | 1014.7 |
| 20260903192403 | 81 | 348 | 5.0 | 24.0 | 0.00 | 0.26 | 0.26 | 82 | 1014.8 |
| 20260903192306 | 82 | 335 | 6.0 | 25.0 | 0.00 | 0.26 | 0.26 | 82 | 1014.8 |
| 20260903192203 | 82 | 326 | 6.0 | 25.0 | 0.00 | 0.26 | 0.26 | 81 | 1014.9 |
| 20260903192103 | 83 | 311 | 6.0 | 25.0 | 0.00 | 0.26 | 0.26 | 80 | 1014.8 |
| 20260903192024 | 83 | 305 | 6.0 | 25.0 | 0.00 | 0.26 | 0.26 | 80 | 1015.1 |
| 20260903191903 | 83 | 298 | 6.0 | 25.0 | 0.00 | 0.26 | 0.26 | 79 | 1015.0 |
| 20260903191803 | 84 | 298 | 6.0 | 25.0 | 0.00 | 0.26 | 0.26 | 78 | 1015.0 |
| 20260903191703 | 86 | 290 | 5.0 | 25.0 | 0.00 | 0.26 | 0.26 | 76 | 1014.8 |
| 20260903191603 | 87 | 290 | 5.0 | 25.0 | 0.00 | 0.26 | 0.26 | 75 | 1014.7 |
| 20260903191503 | 90 | 286 | 5.0 | 25.0 | 0.00 | 0.26 | 0.26 | 72 | 1014.6 |
| 20260903191404 | 91 | 278 | 4.0 | 25.0 | 0.00 | 0.26 | 0.26 | 67 | 1014.2 |
| 20260903191304 | 91 | 265 | 4.0 | 8.0 | 0.00 | 0.26 | 0.26 | 64 | 1014.1 |
| 20260903191204 | 91 | 267 | 3.0 | 8.0 | 0.00 | 0.26 | 0.26 | 64 | 1013.9 |
| 20260903191124 | 91 | 257 | 3.0 | 8.0 | 0.00 | 0.26 | 0.26 | 63 | 1013.8 |
| 20260903191024 | 91 | 264 | 3.0 | 8.0 | 0.00 | 0.26 | 0.26 | 63 | 1013.7 |
| 20260903190903 | 91 | 270 | 3.0 | 8.0 | 0.00 | 0.26 | 0.26 | 63 | 1013.5 |
| 20260903190803 | 91 | 266 | 3.0 | 8.0 | 0.00 | 0.26 | 0.26 | 63 | 1013.6 |
| 20260903190703 | 91 | 266 | 3.0 | 8.0 | 0.00 | 0.26 | 0.26 | 62 | 1013.8 |
| 20260903190624 | 91 | 257 | 3.0 | 8.0 | 0.00 | 0.26 | 0.26 | 62 | 1013.8 |
| 20260903190503 | 92 | 233 | 3.0 | 8.0 | 0.00 | 0.26 | 0.26 | 61 | 1013.9 |
| 20260903190425 | 92 | 214 | 3.0 | 6.0 | 0.00 | 0.26 | 0.26 | 61 | 1013.7 |
| 20260903190304 | 92 | 203 | 3.0 | 6.0 | 0.00 | 0.26 | 0.26 | 60 | 1014.0 |
| 20260903190203 | 93 | 218 | 3.0 | 6.0 | 0.00 | 0.26 | 0.26 | 62 | 1014.1 |
| 20260903190124 | 93 | 236 | 3.0 | 7.0 | 0.00 | 0.26 | 0.26 | 59 | 1013.9 |
| 20260903190003 | 93 | 219 | 3.0 | 7.0 | 0.00 | 0.26 | 0.26 | 60 | 1014.0 |
| 20260903185903 | 93 | 216 | 3.0 | 7.0 | 0.00 | 0.26 | 0.26 | 60 | 1014.2 |
| 20260903185825 | 93 | 210 | 3.0 | 7.0 | 0.00 | 0.26 | 0.26 | 60 | 1014.2 |
| 20260903185725 | 93 | 197 | 3.0 | 7.0 | 0.00 | 0.26 | 0.26 | 61 | 1014.1 |
| 20260903185603 | 93 | 205 | 3.0 | 7.0 | 0.00 | 0.26 | 0.26 | 62 | 1014.1 |
| 20260903185503 | 93 | 229 | 3.0 | 7.0 | 0.00 | 0.26 | 0.26 | 61 | 1014.1 |
| 20260903185403 | 93 | 237 | 3.0 | 7.0 | 0.00 | 0.26 | 0.26 | 60 | 1014.3 |
| 20260903185306 | 92 | 239 | 3.0 | 7.0 | 0.00 | 0.26 | 0.26 | 59 | 1014.5 |
| 20260903185204 | 93 | 218 | 3.0 | 7.0 | 0.00 | 0.26 | 0.26 | 60 | 1014.5 |
| 20260903185125 | 93 | 203 | 2.0 | 6.0 | 0.00 | 0.26 | 0.26 | 61 | 1014.5 |
| 20260903185003 | 93 | 210 | 2.0 | 6.0 | 0.00 | 0.26 | 0.26 | 59 | 1014.5 |
| 20260903184904 | 92 | 221 | 2.0 | 6.0 | 0.00 | 0.26 | 0.26 | 62 | 1014.5 |
| 20260903184804 | 92 | 227 | 3.0 | 7.0 | 0.00 | 0.26 | 0.26 | 61 | 1014.7 |
| 20260903184704 | 92 | 236 | 3.0 | 7.0 | 0.00 | 0.26 | 0.26 | 61 | 1014.5 |
| 20260903184603 | 92 | 244 | 3.0 | 8.0 | 0.00 | 0.26 | 0.26 | 60 | 1014.7 |
| 20260903184504 | 92 | 253 | 4.0 | 9.0 | 0.00 | 0.26 | 0.26 | 60 | 1014.7 |
| 20260903184403 | 92 | 262 | 4.0 | 9.0 | 0.00 | 0.26 | 0.26 | 62 | 1014.8 |
| 20260903184304 | 92 | 258 | 4.0 | 9.0 | 0.00 | 0.26 | 0.26 | 61 | 1014.8 |
| 20260903184224 | 92 | 261 | 4.0 | 9.0 | 0.00 | 0.26 | 0.26 | 63 | 1014.5 |
| 20260903184103 | 92 | 258 | 4.0 | 9.0 | 0.00 | 0.26 | 0.26 | 63 | 1014.9 |
| 20260903184004 | 91 | 249 | 4.0 | 9.0 | 0.00 | 0.26 | 0.26 | 62 | 1014.7 |
| 20260903183904 | 91 | 250 | 4.0 | 9.0 | 0.00 | 0.26 | 0.26 | 62 | 1014.6 |
| 20260903183803 | 91 | 257 | 4.0 | 9.0 | 0.00 | 0.26 | 0.26 | 63 | 1014.8 |
| 20260903183704 | 91 | 255 | 4.0 | 9.0 | 0.00 | 0.26 | 0.26 | 63 | 1014.6 |
| 20260903183603 | 91 | 246 | 4.0 | 9.0 | 0.00 | 0.26 | 0.26 | 64 | 1014.9 |
| 20260903183505 | 92 | 233 | 3.0 | 8.0 | 0.00 | 0.26 | 0.26 | 63 | 1014.9 |
| 20260903183403 | 92 | 224 | 3.0 | 8.0 | 0.00 | 0.26 | 0.26 | 63 | 1014.7 |
| 20260903183303 | 92 | 217 | 3.0 | 8.0 | 0.00 | 0.26 | 0.26 | 62 | 1014.8 |
| 20260903183203 | 91 | 210 | 3.0 | 8.0 | 0.00 | 0.26 | 0.26 | 62 | 1014.7 |
| 20260903183103 | 91 | 210 | 3.0 | 8.0 | 0.00 | 0.26 | 0.26 | 62 | 1014.7 |
| 20260903183003 | 91 | 206 | 2.0 | 8.0 | 0.00 | 0.26 | 0.26 | 64 | 1014.9 |
| 20260903182903 | 91 | 194 | 2.0 | 7.0 | 0.00 | 0.26 | 0.26 | 66 | 1014.8 |
| 20260903182803 | 92 | 191 | 2.0 | 7.0 | 0.00 | 0.26 | 0.26 | 63 | 1014.8 |
| 20260903182704 | 93 | 186 | 2.0 | 7.0 | 0.00 | 0.26 | 0.26 | 62 | 1014.7 |
| 20260903182624 | 93 | 163 | 1.0 | 6.0 | 0.00 | 0.26 | 0.26 | 61 | 1014.9 |
| 20260903182524 | 93 | 133 | 1.0 | 4.0 | 0.00 | 0.26 | 0.26 | 62 | 1014.7 |
| 20260903182403 | 93 | 129 | 1.0 | 4.0 | 0.00 | 0.26 | 0.26 | 60 | 1014.9 |
| 20260903182306 | 93 | 133 | 1.0 | 4.0 | 0.00 | 0.26 | 0.26 | 60 | 1014.7 |
| 20260903182224 | 92 | 138 | 1.0 | 4.0 | 0.00 | 0.26 | 0.26 | 60 | 1014.7 |
| 20260903182125 | 92 | 154 | 2.0 | 4.0 | 0.00 | 0.26 | 0.26 | 62 | 1014.8 |
| 20260903182004 | 92 | 175 | 2.0 | 4.0 | 0.00 | 0.26 | 0.26 | 64 | 1014.8 |
| 20260903181904 | 91 | 189 | 2.0 | 6.0 | 0.00 | 0.26 | 0.26 | 63 | 1014.8 |
| 20260903181803 | 91 | 193 | 2.0 | 6.0 | 0.00 | 0.26 | 0.26 | 66 | 1014.8 |
| 20260903181724 | 91 | 194 | 2.0 | 6.0 | 0.00 | 0.26 | 0.26 | 64 | 1014.9 |
| 20260903181603 | 91 | 195 | 2.0 | 6.0 | 0.00 | 0.26 | 0.26 | 63 | 1014.9 |
| 20260903181504 | 91 | 191 | 2.0 | 6.0 | 0.00 | 0.26 | 0.26 | 63 | 1015.1 |
| 20260903181403 | 91 | 190 | 3.0 | 6.0 | 0.00 | 0.26 | 0.26 | 63 | 1015.0 |
| 20260903181304 | 91 | 186 | 3.0 | 6.0 | 0.00 | 0.26 | 0.26 | 65 | 1015.2 |
| 20260903181203 | 91 | 180 | 2.0 | 6.0 | 0.00 | 0.26 | 0.26 | 64 | 1015.0 |
| 20260903181103 | 91 | 174 | 2.0 | 6.0 | 0.00 | 0.26 | 0.26 | 64 | 1015.0 |
| 20260903181025 | 91 | 170 | 2.0 | 6.0 | 0.00 | 0.26 | 0.26 | 63 | 1015.1 |
| 20260903180903 | 91 | 157 | 2.0 | 4.0 | 0.00 | 0.26 | 0.26 | 66 | 1014.9 |
| 20260903180824 | 90 | 151 | 2.0 | 4.0 | 0.00 | 0.26 | 0.26 | 66 | 1015.1 |
| 20260903180703 | 90 | 156 | 2.0 | 4.0 | 0.00 | 0.26 | 0.26 | 70 | 1015.0 |
| 20260903180624 | 91 | 158 | 2.0 | 4.0 | 0.00 | 0.26 | 0.26 | 68 | 1014.9 |
| 20260903180504 | 91 | 163 | 2.0 | 4.0 | 0.00 | 0.26 | 0.26 | 65 | 1014.9 |
| 20260903180403 | 91 | 163 | 2.0 | 4.0 | 0.00 | 0.26 | 0.26 | 65 | 1015.1 |
| 20260903180304 | 91 | 165 | 2.0 | 4.0 | 0.00 | 0.26 | 0.26 | 67 | 1014.8 |
| 20260903180203 | 90 | 163 | 1.0 | 4.0 | 0.00 | 0.26 | 0.26 | 66 | 1014.8 |
| 20260903180003 | 90 | 160 | 1.0 | 4.0 | 0.00 | 0.26 | 0.26 | 69 | 1014.9 |
| 20260903175903 | 91 | 161 | 1.0 | 4.0 | 0.00 | 0.26 | 0.26 | 68 | 1015.1 |
| 20260903175803 | 91 | 159 | 1.0 | 4.0 | 0.00 | 0.26 | 0.26 | 69 | 1014.9 |
| 20260903175704 | 91 | 140 | 1.0 | 2.0 | 0.00 | 0.26 | 0.26 | 68 | 1015.0 |
| 20260903175624 | 92 | 135 | 0.0 | 2.0 | 0.00 | 0.26 | 0.26 | 68 | 1015.0 |
| 20260903175504 | 92 | 130 | 0.0 | 2.0 | 0.00 | 0.26 | 0.26 | 69 | 1014.9 |
| 20260903175424 | 92 | 123 | 0.0 | 2.0 | 0.00 | 0.26 | 0.26 | 70 | 1014.9 |
| 20260903175306 | 91 | 122 | 0.0 | 2.0 | 0.00 | 0.26 | 0.26 | 70 | 1015.0 |
| 20260903175203 | 91 | 123 | 0.0 | 2.0 | 0.00 | 0.26 | 0.26 | 70 | 1015.1 |
| 20260903175103 | 91 | 123 | 0.0 | 2.0 | 0.00 | 0.26 | 0.26 | 70 | 1015.2 |
| 20260903175003 | 91 | 124 | 0.0 | 2.0 | 0.00 | 0.26 | 0.26 | 71 | 1015.0 |
| 20260903174904 | 91 | 122 | 0.0 | 2.0 | 0.00 | 0.26 | 0.26 | 69 | 1015.0 |
| 20260903174804 | 90 | 135 | 1.0 | 4.0 | 0.00 | 0.26 | 0.26 | 71 | 1015.3 |
| 20260903174703 | 90 | 163 | 1.0 | 6.0 | 0.00 | 0.26 | 0.26 | 70 | 1015.2 |
| 20260903174625 | 90 | 178 | 1.0 | 7.0 | 0.00 | 0.26 | 0.26 | 69 | 1015.2 |
| 20260903174504 | 90 | 222 | 2.0 | 7.0 | 0.00 | 0.26 | 0.26 | 69 | 1015.2 |
| 20260903174404 | 90 | 228 | 2.0 | 7.0 | 0.00 | 0.26 | 0.26 | 71 | 1015.0 |
| 20260903174304 | 90 | 224 | 2.0 | 7.0 | 0.00 | 0.26 | 0.26 | 71 | 1015.1 |
| 20260903174204 | 89 | 225 | 2.0 | 7.0 | 0.00 | 0.26 | 0.26 | 71 | 1015.2 |
| 20260903174104 | 89 | 224 | 2.0 | 7.0 | 0.00 | 0.26 | 0.26 | 72 | 1015.2 |
| 20260903174003 | 89 | 221 | 3.0 | 7.0 | 0.00 | 0.26 | 0.26 | 72 | 1015.1 |
| 20260903173903 | 89 | 224 | 2.0 | 7.0 | 0.00 | 0.26 | 0.26 | 72 | 1015.2 |
| 20260903173825 | 89 | 226 | 2.0 | 7.0 | 0.00 | 0.26 | 0.26 | 72 | 1015.3 |
| 20260903173704 | 90 | 224 | 2.0 | 7.0 | 0.00 | 0.26 | 0.26 | 71 | 1015.3 |
| 20260903173625 | 90 | 218 | 2.0 | 6.0 | 0.00 | 0.26 | 0.26 | 68 | 1015.4 |
| 20260903173503 | 90 | 194 | 1.0 | 6.0 | 0.00 | 0.26 | 0.26 | 67 | 1015.2 |
| 20260903173404 | 90 | 169 | 1.0 | 4.0 | 0.00 | 0.26 | 0.26 | 67 | 1015.3 |
| 20260903173303 | 90 | 171 | 1.0 | 3.0 | 0.00 | 0.26 | 0.26 | 68 | 1015.4 |
| 20260903173204 | 90 | 177 | 1.0 | 3.0 | 0.00 | 0.26 | 0.26 | 68 | 1015.4 |
| 20260903173104 | 90 | 170 | 1.0 | 3.0 | 0.00 | 0.26 | 0.26 | 68 | 1015.5 |
| 20260903173004 | 90 | 172 | 1.0 | 3.0 | 0.00 | 0.26 | 0.26 | 71 | 1015.5 |
| 20260903172904 | 90 | 171 | 1.0 | 3.0 | 0.00 | 0.26 | 0.26 | 71 | 1015.4 |
| 20260903172803 | 90 | 174 | 1.0 | 3.0 | 0.00 | 0.26 | 0.26 | 71 | 1015.6 |
| 20260903172703 | 90 | 173 | 1.0 | 3.0 | 0.00 | 0.26 | 0.26 | 69 | 1015.5 |
| 20260903172603 | 91 | 155 | 1.0 | 3.0 | 0.00 | 0.26 | 0.26 | 68 | 1015.5 |
| 20260903172504 | 91 | 157 | 1.0 | 3.0 | 0.00 | 0.26 | 0.26 | 68 | 1015.5 |
| 20260903172403 | 91 | 164 | 1.0 | 3.0 | 0.00 | 0.26 | 0.26 | 68 | 1015.6 |
| 20260903172306 | 91 | 162 | 1.0 | 4.0 | 0.00 | 0.26 | 0.26 | 67 | 1015.6 |
| 20260903172204 | 91 | 167 | 1.0 | 4.0 | 0.00 | 0.26 | 0.26 | 67 | 1015.6 |
| 20260903172103 | 91 | 170 | 1.0 | 4.0 | 0.00 | 0.26 | 0.26 | 66 | 1015.5 |
| 20260903172003 | 91 | 170 | 1.0 | 4.0 | 0.00 | 0.26 | 0.26 | 66 | 1015.7 |
| 20260903171903 | 90 | 176 | 1.0 | 4.0 | 0.00 | 0.26 | 0.26 | 68 | 1015.9 |
| 20260903171804 | 90 | 179 | 2.0 | 4.0 | 0.00 | 0.26 | 0.26 | 68 | 1015.6 |
| 20260903171703 | 90 | 177 | 2.0 | 4.0 | 0.00 | 0.26 | 0.26 | 69 | 1015.7 |
| 20260903171604 | 90 | 179 | 2.0 | 4.0 | 0.00 | 0.26 | 0.26 | 69 | 1015.9 |
| 20260903171525 | 90 | 179 | 2.0 | 6.0 | 0.00 | 0.26 | 0.26 | 68 | 1015.7 |
| 20260903171403 | 90 | 173 | 2.0 | 6.0 | 0.00 | 0.26 | 0.26 | 69 | 1015.7 |
| 20260903171324 | 90 | 171 | 2.0 | 6.0 | 0.00 | 0.26 | 0.26 | 69 | 1015.7 |
| 20260903171204 | 90 | 166 | 2.0 | 6.0 | 0.00 | 0.26 | 0.26 | 69 | 1015.7 |
| 20260903171124 | 90 | 165 | 2.0 | 6.0 | 0.00 | 0.26 | 0.26 | 70 | 1015.7 |
| 20260903171004 | 90 | 160 | 2.0 | 6.0 | 0.00 | 0.26 | 0.26 | 70 | 1015.6 |
| 20260903170904 | 90 | 154 | 2.0 | 6.0 | 0.00 | 0.26 | 0.26 | 69 | 1015.7 |
| 20260903170804 | 90 | 157 | 2.0 | 6.0 | 0.00 | 0.26 | 0.26 | 70 | 1015.7 |
| 20260903170703 | 90 | 162 | 2.0 | 6.0 | 0.00 | 0.26 | 0.26 | 70 | 1015.6 |
| 20260903170604 | 90 | 164 | 2.0 | 6.0 | 0.00 | 0.26 | 0.26 | 69 | 1015.7 |
| 20260903170504 | 90 | 163 | 2.0 | 6.0 | 0.00 | 0.26 | 0.26 | 68 | 1016.0 |
| 20260903170425 | 90 | 168 | 2.0 | 6.0 | 0.00 | 0.26 | 0.26 | 68 | 1016.0 |
| 20260903170304 | 90 | 169 | 2.0 | 7.0 | 0.00 | 0.26 | 0.26 | 69 | 1016.0 |
| 20260903170225 | 90 | 168 | 2.0 | 7.0 | 0.00 | 0.26 | 0.26 | 70 | 1016.0 |
| 20260903170103 | 89 | 170 | 2.0 | 7.0 | 0.00 | 0.26 | 0.26 | 70 | 1015.6 |
| 20260903170004 | 89 | 177 | 2.0 | 7.0 | 0.00 | 0.26 | 0.26 | 71 | 1015.6 |
| 20260903165924 | 89 | 179 | 2.0 | 7.0 | 0.00 | 0.26 | 0.26 | 70 | 1015.9 |
| 20260903165804 | 89 | 174 | 2.0 | 7.0 | 0.00 | 0.26 | 0.26 | 70 | 1015.9 |
| 20260903165703 | 89 | 172 | 3.0 | 7.0 | 0.00 | 0.26 | 0.26 | 71 | 1015.9 |
| 20260903165604 | 89 | 178 | 3.0 | 7.0 | 0.00 | 0.26 | 0.26 | 71 | 1015.9 |
| 20260903165504 | 89 | 178 | 2.0 | 7.0 | 0.00 | 0.26 | 0.26 | 70 | 1015.9 |
| 20260903165403 | 89 | 167 | 2.0 | 7.0 | 0.00 | 0.26 | 0.26 | 69 | 1015.9 |
| 20260903165305 | 89 | 171 | 2.0 | 7.0 | 0.00 | 0.26 | 0.26 | 70 | 1015.9 |
| 20260903165204 | 89 | 172 | 2.0 | 6.0 | 0.00 | 0.26 | 0.26 | 71 | 1015.9 |
| 20260903165124 | 89 | 175 | 2.0 | 6.0 | 0.00 | 0.26 | 0.26 | 73 | 1016.2 |
| 20260903165003 | 89 | 162 | 2.0 | 4.0 | 0.00 | 0.26 | 0.26 | 71 | 1016.1 |
| 20260903164903 | 89 | 167 | 2.0 | 4.0 | 0.00 | 0.26 | 0.26 | 71 | 1016.0 |
| 20260903164803 | 89 | 167 | 2.0 | 4.0 | 0.00 | 0.26 | 0.26 | 71 | 1015.7 |
| 20260903164704 | 89 | 166 | 2.0 | 4.0 | 0.00 | 0.26 | 0.26 | 71 | 1016.0 |
| 20260903164603 | 89 | 150 | 1.0 | 4.0 | 0.00 | 0.26 | 0.26 | 69 | 1016.1 |
| 20260903164504 | 89 | 149 | 1.0 | 4.0 | 0.00 | 0.26 | 0.26 | 70 | 1016.0 |
| 20260903164403 | 89 | 156 | 1.0 | 4.0 | 0.00 | 0.26 | 0.26 | 70 | 1015.9 |
| 20260903164304 | 89 | 168 | 1.0 | 4.0 | 0.00 | 0.26 | 0.26 | 70 | 1016.1 |
| 20260903164203 | 88 | 167 | 1.0 | 4.0 | 0.00 | 0.26 | 0.26 | 72 | 1016.1 |
| 20260903164125 | 88 | 162 | 1.0 | 4.0 | 0.00 | 0.26 | 0.26 | 72 | 1016.0 |
| 20260903164003 | 88 | 159 | 2.0 | 6.0 | 0.00 | 0.26 | 0.26 | 72 | 1016.2 |
| 20260903163904 | 88 | 154 | 2.0 | 6.0 | 0.00 | 0.26 | 0.26 | 72 | 1016.1 |
| 20260903163804 | 88 | 161 | 2.0 | 6.0 | 0.00 | 0.26 | 0.26 | 73 | 1016.1 |
| 20260903163703 | 87 | 163 | 2.0 | 6.0 | 0.00 | 0.26 | 0.26 | 73 | 1016.1 |
| 20260903163604 | 87 | 166 | 2.0 | 6.0 | 0.00 | 0.26 | 0.26 | 74 | 1016.1 |
| 20260903163503 | 87 | 172 | 2.0 | 6.0 | 0.00 | 0.26 | 0.26 | 73 | 1016.3 |
| 20260903163404 | 88 | 182 | 2.0 | 7.0 | 0.00 | 0.26 | 0.26 | 73 | 1016.3 |
| 20260903163303 | 88 | 172 | 2.0 | 7.0 | 0.00 | 0.26 | 0.26 | 73 | 1016.1 |
| 20260903163204 | 88 | 175 | 2.0 | 7.0 | 0.00 | 0.26 | 0.26 | 72 | 1016.2 |
| 20260903163103 | 87 | 190 | 2.0 | 7.0 | 0.00 | 0.26 | 0.26 | 72 | 1016.3 |
| 20260903163003 | 87 | 211 | 2.0 | 7.0 | 0.00 | 0.26 | 0.26 | 73 | 1016.1 |
| 20260903162903 | 87 | 212 | 2.0 | 7.0 | 0.00 | 0.26 | 0.26 | 74 | 1016.2 |
| 20260903162825 | 87 | 210 | 2.0 | 7.0 | 0.00 | 0.26 | 0.26 | 74 | 1016.1 |
| 20260903162704 | 87 | 206 | 2.0 | 7.0 | 0.00 | 0.26 | 0.26 | 75 | 1016.2 |
| 20260903162603 | 87 | 203 | 2.0 | 7.0 | 0.00 | 0.26 | 0.26 | 74 | 1016.3 |
| 20260903162504 | 87 | 198 | 2.0 | 7.0 | 0.00 | 0.26 | 0.26 | 75 | 1016.1 |
| 20260903162403 | 86 | 190 | 2.0 | 6.0 | 0.00 | 0.26 | 0.26 | 76 | 1016.3 |
| 20260903162324 | 86 | 192 | 2.0 | 6.0 | 0.00 | 0.26 | 0.26 | 75 | 1016.2 |
| 20260903162203 | 86 | 189 | 2.0 | 6.0 | 0.00 | 0.26 | 0.26 | 75 | 1016.1 |
| 20260903162103 | 87 | 174 | 2.0 | 6.0 | 0.00 | 0.26 | 0.26 | 74 | 1016.2 |
| 20260903162004 | 87 | 169 | 2.0 | 6.0 | 0.00 | 0.26 | 0.26 | 74 | 1016.2 |
| 20260903161904 | 87 | 176 | 2.0 | 7.0 | 0.00 | 0.26 | 0.26 | 72 | 1016.2 |
| 20260903161804 | 87 | 179 | 2.0 | 7.0 | 0.00 | 0.26 | 0.26 | 73 | 1016.2 |
| 20260903161704 | 87 | 183 | 3.0 | 7.0 | 0.00 | 0.26 | 0.26 | 74 | 1016.2 |
| 20260903161603 | 87 | 188 | 3.0 | 7.0 | 0.00 | 0.26 | 0.26 | 74 | 1016.3 |
| 20260903161503 | 87 | 185 | 3.0 | 8.0 | 0.00 | 0.26 | 0.26 | 74 | 1016.4 |
| 20260903161404 | 86 | 183 | 3.0 | 9.0 | 0.00 | 0.26 | 0.26 | 75 | 1016.1 |
| 20260903161304 | 86 | 182 | 3.0 | 9.0 | 0.00 | 0.26 | 0.26 | 74 | 1016.1 |
| 20260903161204 | 86 | 187 | 3.0 | 9.0 | 0.00 | 0.26 | 0.26 | 75 | 1016.2 |
| 20260903161103 | 86 | 191 | 3.0 | 9.0 | 0.00 | 0.26 | 0.26 | 75 | 1016.1 |
| 20260903161003 | 86 | 191 | 3.0 | 9.0 | 0.00 | 0.26 | 0.26 | 75 | 1016.0 |
| 20260903160924 | 85 | 185 | 3.0 | 9.0 | 0.00 | 0.26 | 0.26 | 76 | 1016.0 |
| 20260903160803 | 85 | 179 | 3.0 | 9.0 | 0.00 | 0.26 | 0.26 | 76 | 1016.2 |
| 20260903160703 | 85 | 177 | 3.0 | 9.0 | 0.00 | 0.26 | 0.26 | 75 | 1016.1 |
| 20260903160603 | 85 | 173 | 3.0 | 9.0 | 0.00 | 0.26 | 0.26 | 76 | 1016.2 |
| 20260903160503 | 86 | 176 | 3.0 | 9.0 | 0.00 | 0.26 | 0.26 | 75 | 1016.1 |
| 20260903160404 | 86 | 173 | 2.0 | 8.0 | 0.00 | 0.26 | 0.26 | 75 | 1016.1 |
| 20260903160303 | 86 | 176 | 2.0 | 8.0 | 0.00 | 0.26 | 0.26 | 75 | 1016.2 |
| 20260903160203 | 86 | 170 | 2.0 | 6.0 | 0.00 | 0.26 | 0.26 | 75 | 1016.1 |
| 20260903160124 | 86 | 175 | 2.0 | 6.0 | 0.00 | 0.26 | 0.26 | 75 | 1016.1 |
| 20260903160024 | 86 | 165 | 2.0 | 6.0 | 0.00 | 0.26 | 0.26 | 75 | 1016.2 |
| 20260903155903 | 86 | 164 | 2.0 | 6.0 | 0.00 | 0.26 | 0.26 | 74 | 1016.3 |
| 20260903155803 | 86 | 167 | 2.0 | 6.0 | 0.00 | 0.26 | 0.26 | 76 | 1016.2 |
| 20260903155704 | 86 | 165 | 2.0 | 6.0 | 0.00 | 0.26 | 0.26 | 75 | 1016.0 |
| 20260903155603 | 86 | 163 | 2.0 | 6.0 | 0.00 | 0.26 | 0.26 | 75 | 1016.2 |
| 20260903155503 | 85 | 165 | 2.0 | 7.0 | 0.00 | 0.26 | 0.26 | 75 | 1016.2 |
| 20260903155403 | 85 | 169 | 2.0 | 7.0 | 0.00 | 0.26 | 0.26 | 75 | 1016.1 |
| 20260903155306 | 85 | 170 | 3.0 | 7.0 | 0.00 | 0.26 | 0.26 | 76 | 1016.3 |
| 20260903155204 | 85 | 171 | 2.0 | 7.0 | 0.00 | 0.26 | 0.26 | 75 | 1016.2 |
| 20260903155103 | 86 | 168 | 3.0 | 7.0 | 0.00 | 0.26 | 0.26 | 76 | 1016.2 |
| 20260903155025 | 86 | 171 | 2.0 | 7.0 | 0.00 | 0.26 | 0.26 | 75 | 1016.2 |
| 20260903154904 | 86 | 174 | 2.0 | 7.0 | 0.00 | 0.26 | 0.26 | 75 | 1016.1 |
| 20260903154803 | 85 | 174 | 2.0 | 7.0 | 0.00 | 0.26 | 0.26 | 75 | 1016.2 |
| 20260903154703 | 85 | 178 | 2.0 | 7.0 | 0.00 | 0.26 | 0.26 | 76 | 1016.2 |
| 20260903154604 | 85 | 185 | 2.0 | 7.0 | 0.00 | 0.26 | 0.26 | 76 | 1016.1 |
| 20260903154503 | 85 | 191 | 2.0 | 6.0 | 0.00 | 0.26 | 0.26 | 76 | 1016.2 |
| 20260903154404 | 86 | 193 | 2.0 | 6.0 | 0.00 | 0.26 | 0.26 | 75 | 1016.0 |
| 20260903154324 | 86 | 196 | 2.0 | 6.0 | 0.00 | 0.26 | 0.26 | 76 | 1016.1 |
| 20260903154203 | 86 | 201 | 2.0 | 6.0 | 0.00 | 0.26 | 0.26 | 74 | 1016.1 |
| 20260903154104 | 85 | 205 | 2.0 | 6.0 | 0.00 | 0.26 | 0.26 | 75 | 1016.2 |
| 20260903154003 | 85 | 201 | 2.0 | 6.0 | 0.00 | 0.26 | 0.26 | 77 | 1016.3 |
| 20260903153904 | 85 | 199 | 2.0 | 6.0 | 0.00 | 0.26 | 0.26 | 77 | 1016.2 |
| 20260903153824 | 85 | 203 | 2.0 | 6.0 | 0.00 | 0.26 | 0.26 | 76 | 1016.3 |
| 20260903153704 | 85 | 208 | 2.0 | 6.0 | 0.00 | 0.26 | 0.26 | 76 | 1016.2 |
| 20260903153604 | 85 | 209 | 2.0 | 6.0 | 0.00 | 0.26 | 0.26 | 76 | 1016.3 |
| 20260903153524 | 85 | 205 | 2.0 | 6.0 | 0.00 | 0.26 | 0.26 | 76 | 1016.2 |
| 20260903153424 | 85 | 201 | 2.0 | 6.0 | 0.00 | 0.26 | 0.26 | 76 | 1016.1 |
| 20260903153304 | 85 | 195 | 2.0 | 7.0 | 0.00 | 0.26 | 0.26 | 75 | 1016.3 |
| 20260903153224 | 85 | 193 | 2.0 | 7.0 | 0.00 | 0.26 | 0.26 | 75 | 1016.3 |
| 20260903153103 | 85 | 186 | 2.0 | 7.0 | 0.00 | 0.26 | 0.26 | 76 | 1016.4 |
| 20260903153003 | 85 | 188 | 2.0 | 7.0 | 0.00 | 0.26 | 0.26 | 76 | 1016.2 |
| 20260903152903 | 85 | 184 | 2.0 | 7.0 | 0.00 | 0.26 | 0.26 | 76 | 1016.2 |
| 20260903152804 | 85 | 189 | 2.0 | 7.0 | 0.00 | 0.26 | 0.26 | 76 | 1016.1 |
| 20260903152703 | 85 | 175 | 2.0 | 7.0 | 0.00 | 0.26 | 0.26 | 75 | 1016.2 |
| 20260903152603 | 85 | 177 | 2.0 | 7.0 | 0.00 | 0.26 | 0.26 | 74 | 1016.2 |
| 20260903152503 | 85 | 178 | 2.0 | 7.0 | 0.00 | 0.26 | 0.26 | 75 | 1016.4 |
| 20260903152403 | 85 | 169 | 2.0 | 7.0 | 0.00 | 0.26 | 0.26 | 75 | 1016.4 |
| 20260903152306 | 85 | 163 | 2.0 | 6.0 | 0.00 | 0.26 | 0.26 | 75 | 1016.3 |
| 20260903152203 | 84 | 166 | 2.0 | 6.0 | 0.00 | 0.26 | 0.26 | 75 | 1016.4 |
| 20260903152103 | 84 | 173 | 2.0 | 6.0 | 0.00 | 0.26 | 0.26 | 78 | 1016.5 |
| 20260903152003 | 84 | 176 | 2.0 | 6.0 | 0.00 | 0.26 | 0.26 | 78 | 1016.4 |
| 20260903151904 | 85 | 181 | 2.0 | 6.0 | 0.00 | 0.26 | 0.26 | 77 | 1016.4 |
| 20260903151803 | 85 | 173 | 2.0 | 6.0 | 0.00 | 0.26 | 0.26 | 76 | 1016.1 |
| 20260903151703 | 85 | 174 | 2.0 | 6.0 | 0.00 | 0.26 | 0.26 | 74 | 1016.5 |
| 20260903151603 | 85 | 166 | 2.0 | 6.0 | 0.00 | 0.26 | 0.26 | 75 | 1016.3 |
| 20260903151525 | 85 | 169 | 2.0 | 6.0 | 0.00 | 0.26 | 0.26 | 77 | 1016.3 |
| 20260903151403 | 85 | 170 | 2.0 | 6.0 | 0.00 | 0.26 | 0.26 | 76 | 1016.2 |
| 20260903151304 | 85 | 172 | 2.0 | 6.0 | 0.00 | 0.26 | 0.26 | 76 | 1016.5 |
| 20260903151203 | 85 | 182 | 2.0 | 6.0 | 0.00 | 0.26 | 0.26 | 76 | 1016.3 |
| 20260903151104 | 85 | 178 | 2.0 | 6.0 | 0.00 | 0.26 | 0.26 | 77 | 1016.4 |
| 20260903151004 | 85 | 176 | 2.0 | 6.0 | 0.00 | 0.26 | 0.26 | 76 | 1016.4 |
| 20260903150924 | 84 | 174 | 2.0 | 6.0 | 0.00 | 0.26 | 0.26 | 76 | 1016.3 |
| 20260903150803 | 84 | 171 | 2.0 | 6.0 | 0.00 | 0.26 | 0.26 | 78 | 1016.2 |
| 20260903150704 | 84 | 169 | 2.0 | 6.0 | 0.00 | 0.26 | 0.26 | 78 | 1016.2 |
| 20260903150624 | 84 | 171 | 2.0 | 6.0 | 0.00 | 0.26 | 0.26 | 77 | 1016.4 |
| 20260903150505 | 84 | 165 | 2.0 | 6.0 | 0.00 | 0.26 | 0.26 | 78 | 1016.3 |
| 20260903150405 | 84 | 162 | 2.0 | 6.0 | 0.00 | 0.26 | 0.26 | 77 | 1016.3 |
| 20260903150327 | 84 | 159 | 2.0 | 6.0 | 0.00 | 0.26 | 0.26 | 78 | 1016.3 |
| 20260903150206 | 84 | 144 | 1.0 | 6.0 | 0.00 | 0.26 | 0.26 | 78 | 1016.5 |
| 20260903150105 | 84 | 132 | 1.0 | 6.0 | 0.00 | 0.26 | 0.26 | 78 | 1016.3 |
| 20260903150026 | 83 | 129 | 1.0 | 4.0 | 0.00 | 0.26 | 0.26 | 78 | 1016.2 |
| 20260903145905 | 83 | 137 | 1.0 | 4.0 | 0.00 | 0.26 | 0.26 | 79 | 1016.4 |
| 20260903145825 | 83 | 142 | 1.0 | 4.0 | 0.00 | 0.26 | 0.26 | 80 | 1016.5 |
| 20260903145704 | 83 | 144 | 1.0 | 4.0 | 0.00 | 0.26 | 0.26 | 80 | 1016.3 |
| 20260903145603 | 83 | 144 | 1.0 | 4.0 | 0.00 | 0.26 | 0.26 | 80 | 1016.5 |
| 20260903145503 | 83 | 154 | 1.0 | 7.0 | 0.00 | 0.26 | 0.26 | 78 | 1016.4 |
| 20260903145403 | 83 | 157 | 1.0 | 9.0 | 0.00 | 0.26 | 0.26 | 80 | 1016.4 |
| 20260903145306 | 82 | 154 | 1.0 | 9.0 | 0.00 | 0.26 | 0.26 | 81 | 1016.4 |
| 20260903145205 | 82 | 154 | 1.0 | 9.0 | 0.00 | 0.26 | 0.26 | 82 | 1016.3 |
| 20260903145103 | 82 | 150 | 2.0 | 9.0 | 0.00 | 0.26 | 0.26 | 81 | 1016.3 |
| 20260903145004 | 82 | 148 | 2.0 | 9.0 | 0.00 | 0.26 | 0.26 | 81 | 1016.4 |
| 20260903144904 | 82 | 144 | 2.0 | 9.0 | 0.00 | 0.26 | 0.26 | 81 | 1016.3 |
| 20260903144825 | 82 | 141 | 1.0 | 9.0 | 0.00 | 0.26 | 0.26 | 81 | 1016.6 |
| 20260903144724 | 82 | 136 | 2.0 | 9.0 | 0.00 | 0.26 | 0.26 | 81 | 1016.3 |
| 20260903144603 | 82 | 136 | 2.0 | 9.0 | 0.00 | 0.26 | 0.26 | 82 | 1016.3 |
| 20260903144503 | 82 | 130 | 1.0 | 9.0 | 0.00 | 0.26 | 0.26 | 80 | 1016.4 |
| 20260903144403 | 82 | 123 | 1.0 | 4.0 | 0.00 | 0.26 | 0.26 | 81 | 1016.4 |
| 20260903144304 | 82 | 125 | 1.0 | 4.0 | 0.00 | 0.26 | 0.26 | 81 | 1016.3 |
| 20260903144203 | 82 | 125 | 1.0 | 4.0 | 0.00 | 0.26 | 0.26 | 81 | 1016.3 |
| 20260903144104 | 82 | 127 | 1.0 | 4.0 | 0.00 | 0.26 | 0.26 | 82 | 1016.4 |
| 20260903144004 | 82 | 130 | 1.0 | 4.0 | 0.00 | 0.26 | 0.26 | 82 | 1016.4 |
| 20260903143904 | 82 | 129 | 1.0 | 4.0 | 0.00 | 0.26 | 0.26 | 82 | 1016.1 |
| 20260903143803 | 82 | 140 | 1.0 | 4.0 | 0.00 | 0.26 | 0.26 | 81 | 1016.4 |
| 20260903143725 | 82 | 143 | 1.0 | 3.0 | 0.00 | 0.26 | 0.26 | 82 | 1016.4 |
| 20260903143603 | 81 | 146 | 1.0 | 3.0 | 0.00 | 0.26 | 0.26 | 82 | 1016.4 |
| 20260903143504 | 81 | 144 | 1.0 | 3.0 | 0.00 | 0.26 | 0.26 | 82 | 1016.4 |
| 20260903143404 | 81 | 147 | 1.0 | 4.0 | 0.00 | 0.26 | 0.26 | 82 | 1016.5 |
| 20260903143303 | 81 | 148 | 1.0 | 4.0 | 0.00 | 0.26 | 0.26 | 82 | 1016.5 |
| 20260903143203 | 81 | 148 | 1.0 | 4.0 | 0.00 | 0.26 | 0.26 | 83 | 1016.5 |
| 20260903143124 | 81 | 151 | 1.0 | 4.0 | 0.00 | 0.26 | 0.26 | 83 | 1016.5 |
| 20260903143004 | 81 | 145 | 1.0 | 4.0 | 0.00 | 0.26 | 0.26 | 83 | 1016.3 |
| 20260903142904 | 80 | 144 | 1.0 | 4.0 | 0.00 | 0.26 | 0.26 | 83 | 1016.4 |
| 20260903142803 | 80 | 138 | 1.0 | 8.0 | 0.00 | 0.26 | 0.26 | 83 | 1016.3 |
| 20260903142703 | 80 | 137 | 1.0 | 8.0 | 0.00 | 0.26 | 0.26 | 84 | 1016.6 |
| 20260903142603 | 80 | 139 | 2.0 | 8.0 | 0.00 | 0.26 | 0.26 | 84 | 1016.3 |
| 20260903142503 | 80 | 140 | 1.0 | 8.0 | 0.00 | 0.26 | 0.26 | 83 | 1016.4 |
| 20260903142424 | 80 | 136 | 1.0 | 8.0 | 0.00 | 0.26 | 0.26 | 84 | 1016.4 |
| 20260903142306 | 80 | 136 | 1.0 | 8.0 | 0.00 | 0.26 | 0.26 | 85 | 1016.4 |
| 20260903142204 | 79 | 136 | 1.0 | 8.0 | 0.00 | 0.26 | 0.26 | 84 | 1016.5 |
| 20260903142103 | 79 | 133 | 1.0 | 8.0 | 0.00 | 0.26 | 0.26 | 85 | 1016.6 |
| 20260903142003 | 79 | 134 | 1.0 | 8.0 | 0.00 | 0.26 | 0.26 | 85 | 1016.7 |
| 20260903141903 | 79 | 134 | 1.0 | 8.0 | 0.00 | 0.26 | 0.26 | 85 | 1016.4 |
| 20260903141803 | 79 | 135 | 1.0 | 4.0 | 0.00 | 0.26 | 0.26 | 85 | 1016.5 |
| 20260903141703 | 79 | 138 | 1.0 | 4.0 | 0.00 | 0.26 | 0.26 | 86 | 1016.5 |
| 20260903141604 | 79 | 134 | 1.0 | 4.0 | 0.00 | 0.26 | 0.26 | 86 | 1016.4 |
| 20260903141504 | 78 | 134 | 1.0 | 4.0 | 0.00 | 0.26 | 0.26 | 86 | 1016.5 |
| 20260903141404 | 78 | 130 | 2.0 | 6.0 | 0.00 | 0.26 | 0.26 | 85 | 1016.4 |
| 20260903141303 | 78 | 127 | 2.0 | 6.0 | 0.00 | 0.26 | 0.26 | 86 | 1016.3 |
| 20260903141225 | 78 | 128 | 2.0 | 6.0 | 0.00 | 0.26 | 0.26 | 86 | 1016.5 |
| 20260903141103 | 78 | 133 | 2.0 | 7.0 | 0.00 | 0.26 | 0.26 | 87 | 1016.3 |
| 20260903141003 | 78 | 135 | 2.0 | 7.0 | 0.00 | 0.26 | 0.26 | 87 | 1016.4 |
| 20260903140903 | 78 | 135 | 2.0 | 7.0 | 0.00 | 0.26 | 0.26 | 88 | 1016.3 |
| 20260903140803 | 77 | 135 | 2.0 | 7.0 | 0.00 | 0.26 | 0.26 | 87 | 1016.3 |
| 20260903140724 | 77 | 134 | 2.0 | 7.0 | 0.00 | 0.26 | 0.26 | 88 | 1016.3 |
| 20260903140624 | 77 | 136 | 2.0 | 7.0 | 0.00 | 0.26 | 0.26 | 88 | 1016.3 |
| 20260903140503 | 77 | 138 | 3.0 | 7.0 | 0.00 | 0.26 | 0.26 | 88 | 1016.3 |
| 20260903140404 | 77 | 143 | 3.0 | 7.0 | 0.00 | 0.26 | 0.26 | 88 | 1016.3 |
| 20260903140303 | 77 | 145 | 3.0 | 7.0 | 0.00 | 0.26 | 0.26 | 88 | 1016.4 |
| 20260903140204 | 77 | 140 | 3.0 | 7.0 | 0.00 | 0.26 | 0.26 | 87 | 1016.3 |
| 20260903140104 | 77 | 143 | 3.0 | 7.0 | 0.00 | 0.26 | 0.26 | 89 | 1016.2 |
| 20260903140004 | 77 | 141 | 3.0 | 7.0 | 0.00 | 0.26 | 0.26 | 88 | 1016.5 |
| 20260903135903 | 77 | 140 | 3.0 | 7.0 | 0.00 | 0.26 | 0.26 | 88 | 1016.5 |
| 20260903135803 | 76 | 140 | 3.0 | 7.0 | 0.00 | 0.26 | 0.26 | 88 | 1016.4 |
| 20260903135703 | 76 | 138 | 3.0 | 7.0 | 0.00 | 0.26 | 0.26 | 88 | 1016.3 |
| 20260903135603 | 76 | 136 | 3.0 | 7.0 | 0.00 | 0.26 | 0.26 | 87 | 1016.3 |
| 20260903135503 | 76 | 134 | 3.0 | 7.0 | 0.00 | 0.26 | 0.26 | 88 | 1016.4 |
| 20260903135404 | 76 | 130 | 2.0 | 6.0 | 0.00 | 0.26 | 0.26 | 87 | 1016.3 |
| 20260903135306 | 76 | 133 | 2.0 | 6.0 | 0.00 | 0.26 | 0.26 | 88 | 1016.3 |
| 20260903135204 | 76 | 136 | 2.0 | 6.0 | 0.00 | 0.26 | 0.26 | 88 | 1016.2 |
| 20260903135104 | 76 | 133 | 2.0 | 4.0 | 0.00 | 0.26 | 0.26 | 88 | 1016.4 |
| 20260903135003 | 76 | 134 | 2.0 | 4.0 | 0.00 | 0.26 | 0.26 | 88 | 1016.5 |
| 20260903134903 | 76 | 134 | 2.0 | 4.0 | 0.00 | 0.26 | 0.26 | 88 | 1016.3 |
| 20260903134804 | 76 | 133 | 2.0 | 6.0 | 0.00 | 0.26 | 0.26 | 88 | 1016.3 |
| 20260903134724 | 76 | 133 | 2.0 | 6.0 | 0.00 | 0.26 | 0.26 | 88 | 1016.4 |
| 20260903134604 | 76 | 133 | 2.0 | 6.0 | 0.00 | 0.26 | 0.26 | 88 | 1016.5 |
| 20260903134503 | 76 | 132 | 2.0 | 6.0 | 0.00 | 0.26 | 0.26 | 88 | 1016.4 |
| 20260903134425 | 76 | 131 | 2.0 | 6.0 | 0.00 | 0.26 | 0.26 | 88 | 1016.3 |
| 20260903134303 | 76 | 126 | 2.0 | 6.0 | 0.00 | 0.26 | 0.26 | 88 | 1016.5 |
| 20260903134206 | 76 | 123 | 2.0 | 6.0 | 0.00 | 0.26 | 0.26 | 89 | 1016.4 |
| 20260903134104 | 75 | 123 | 2.0 | 6.0 | 0.00 | 0.26 | 0.26 | 89 | 1016.5 |
| 20260903134025 | 75 | 123 | 2.0 | 6.0 | 0.00 | 0.26 | 0.26 | 88 | 1016.5 |
| 20260903133904 | 76 | 121 | 1.0 | 6.0 | 0.00 | 0.26 | 0.26 | 89 | 1016.6 |
| 20260903133804 | 76 | 118 | 1.0 | 3.0 | 0.00 | 0.26 | 0.26 | 90 | 1016.5 |
| 20260903133725 | 76 | 120 | 1.0 | 6.0 | 0.00 | 0.26 | 0.26 | 89 | 1016.5 |
| 20260903133603 | 75 | 122 | 1.0 | 6.0 | 0.00 | 0.26 | 0.26 | 90 | 1016.6 |
| 20260903133503 | 75 | 122 | 1.0 | 6.0 | 0.00 | 0.26 | 0.26 | 90 | 1016.4 |
| 20260903133403 | 75 | 123 | 1.0 | 6.0 | 0.00 | 0.26 | 0.26 | 90 | 1016.4 |
| 20260903133304 | 75 | 124 | 1.0 | 6.0 | 0.00 | 0.26 | 0.26 | 90 | 1016.5 |
| 20260903133204 | 75 | 128 | 1.0 | 6.0 | 0.00 | 0.26 | 0.26 | 90 | 1016.5 |
| 20260903133103 | 75 | 129 | 1.0 | 6.0 | 0.00 | 0.26 | 0.26 | 90 | 1016.5 |
| 20260903133004 | 75 | 130 | 1.0 | 6.0 | 0.00 | 0.26 | 0.26 | 89 | 1016.5 |
| 20260903132903 | 74 | 135 | 1.0 | 6.0 | 0.00 | 0.26 | 0.26 | 90 | 1016.7 |
| 20260903132804 | 74 | 137 | 1.0 | 6.0 | 0.00 | 0.26 | 0.26 | 90 | 1016.7 |
| 20260903132704 | 74 | 141 | 1.0 | 3.0 | 0.00 | 0.26 | 0.26 | 90 | 1016.7 |
| 20260903132603 | 74 | 130 | 1.0 | 3.0 | 0.00 | 0.26 | 0.26 | 91 | 1016.6 |
| 20260903132506 | 74 | 130 | 1.0 | 3.0 | 0.00 | 0.26 | 0.26 | 91 | 1016.7 |
| 20260903132403 | 74 | 128 | 1.0 | 3.0 | 0.00 | 0.26 | 0.26 | 91 | 1016.5 |
| 20260903132324 | 74 | 128 | 1.0 | 3.0 | 0.00 | 0.26 | 0.26 | 91 | 1016.6 |
| 20260903132203 | 74 | 124 | 1.0 | 3.0 | 0.00 | 0.26 | 0.26 | 91 | 1016.6 |
| 20260903132103 | 74 | 128 | 1.0 | 3.0 | 0.00 | 0.26 | 0.26 | 91 | 1016.6 |
| 20260903132003 | 74 | 126 | 1.0 | 4.0 | 0.00 | 0.26 | 0.26 | 92 | 1016.6 |
| 20260903131904 | 74 | 133 | 1.0 | 4.0 | 0.00 | 0.26 | 0.26 | 92 | 1016.5 |
| 20260903131804 | 73 | 134 | 1.0 | 4.0 | 0.00 | 0.26 | 0.26 | 91 | 1016.5 |
| 20260903131704 | 73 | 134 | 1.0 | 4.0 | 0.00 | 0.26 | 0.26 | 91 | 1016.6 |
| 20260903131604 | 73 | 134 | 1.0 | 4.0 | 0.00 | 0.26 | 0.26 | 91 | 1016.4 |
| 20260903131504 | 73 | 132 | 1.0 | 4.0 | 0.00 | 0.26 | 0.26 | 91 | 1016.5 |
| 20260903131404 | 73 | 134 | 2.0 | 6.0 | 0.00 | 0.26 | 0.26 | 92 | 1016.6 |
| 20260903131303 | 73 | 133 | 2.0 | 6.0 | 0.00 | 0.26 | 0.26 | 92 | 1016.6 |
| 20260903131203 | 73 | 131 | 2.0 | 6.0 | 0.00 | 0.26 | 0.26 | 92 | 1016.7 |
| 20260903131104 | 73 | 130 | 2.0 | 6.0 | 0.00 | 0.26 | 0.26 | 92 | 1016.6 |
| 20260903131024 | 73 | 130 | 2.0 | 6.0 | 0.00 | 0.26 | 0.26 | 92 | 1016.6 |
| 20260903130903 | 73 | 127 | 2.0 | 7.0 | 0.00 | 0.26 | 0.26 | 92 | 1016.6 |
| 20260903130803 | 73 | 126 | 2.0 | 7.0 | 0.00 | 0.26 | 0.26 | 92 | 1016.8 |
| 20260903130703 | 72 | 127 | 2.0 | 7.0 | 0.00 | 0.26 | 0.26 | 92 | 1016.6 |
| 20260903130625 | 72 | 132 | 2.0 | 7.0 | 0.00 | 0.26 | 0.26 | 92 | 1016.7 |
| 20260903130504 | 72 | 130 | 2.0 | 7.0 | 0.00 | 0.26 | 0.26 | 92 | 1016.6 |
| 20260903130425 | 72 | 129 | 2.0 | 7.0 | 0.00 | 0.26 | 0.26 | 92 | 1016.7 |
| 20260903130304 | 72 | 129 | 2.0 | 7.0 | 0.00 | 0.26 | 0.26 | 93 | 1016.8 |
| 20260903130203 | 72 | 132 | 2.0 | 7.0 | 0.00 | 0.26 | 0.26 | 92 | 1016.6 |
| 20260903130124 | 72 | 131 | 2.0 | 7.0 | 0.00 | 0.26 | 0.26 | 92 | 1016.8 |
| 20260903130003 | 72 | 135 | 2.0 | 7.0 | 0.00 | 0.26 | 0.26 | 93 | 1016.7 |
| 20260903125903 | 72 | 134 | 1.0 | 4.0 | 0.00 | 0.26 | 0.26 | 93 | 1016.5 |
| 20260903125804 | 72 | 136 | 1.0 | 4.0 | 0.00 | 0.26 | 0.26 | 93 | 1016.6 |
| 20260903125703 | 72 | 134 | 1.0 | 4.0 | 0.00 | 0.26 | 0.26 | 93 | 1016.8 |
| 20260903125624 | 72 | 129 | 1.0 | 3.0 | 0.00 | 0.26 | 0.26 | 93 | 1016.6 |
| 20260903125503 | 72 | 133 | 1.0 | 3.0 | 0.00 | 0.26 | 0.26 | 93 | 1016.7 |
| 20260903125403 | 72 | 136 | 1.0 | 3.0 | 0.00 | 0.26 | 0.26 | 93 | 1016.6 |
| 20260903125305 | 72 | 137 | 1.0 | 3.0 | 0.00 | 0.26 | 0.26 | 94 | 1016.8 |
| 20260903125225 | 71 | 136 | 1.0 | 3.0 | 0.00 | 0.26 | 0.26 | 93 | 1016.6 |
| 20260903125103 | 71 | 138 | 1.0 | 3.0 | 0.00 | 0.26 | 0.26 | 94 | 1016.8 |
| 20260903125004 | 71 | 135 | 1.0 | 3.0 | 0.00 | 0.26 | 0.26 | 94 | 1016.7 |
| 20260903124904 | 71 | 135 | 1.0 | 3.0 | 0.00 | 0.26 | 0.26 | 94 | 1016.7 |
| 20260903124804 | 71 | 134 | 1.0 | 3.0 | 0.00 | 0.26 | 0.26 | 94 | 1016.6 |
| 20260903124725 | 71 | 134 | 1.0 | 3.0 | 0.00 | 0.26 | 0.26 | 94 | 1016.6 |
| 20260903124603 | 71 | 132 | 1.0 | 3.0 | 0.00 | 0.26 | 0.26 | 95 | 1016.7 |
| 20260903124504 | 71 | 131 | 1.0 | 3.0 | 0.00 | 0.26 | 0.26 | 95 | 1016.6 |
| 20260903124403 | 71 | 127 | 1.0 | 3.0 | 0.00 | 0.26 | 0.26 | 95 | 1016.8 |
| 20260903124303 | 71 | 128 | 1.0 | 3.0 | 0.00 | 0.26 | 0.26 | 95 | 1016.6 |
| 20260903124203 | 71 | 124 | 1.0 | 3.0 | 0.00 | 0.26 | 0.26 | 95 | 1016.8 |
| 20260903124124 | 71 | 124 | 1.0 | 3.0 | 0.00 | 0.26 | 0.26 | 95 | 1016.7 |
| 20260903124024 | 71 | 125 | 1.0 | 3.0 | 0.00 | 0.26 | 0.26 | 95 | 1016.7 |
| 20260903123903 | 71 | 124 | 1.0 | 3.0 | 0.00 | 0.26 | 0.26 | 96 | 1016.8 |
| 20260903123825 | 71 | 124 | 1.0 | 3.0 | 0.00 | 0.26 | 0.26 | 96 | 1016.5 |
| 20260903123705 | 70 | 124 | 2.0 | 3.0 | 0.00 | 0.26 | 0.26 | 96 | 1016.8 |
| 20260903123603 | 70 | 125 | 1.0 | 3.0 | 0.00 | 0.26 | 0.26 | 96 | 1016.7 |
| 20260903123525 | 70 | 125 | 1.0 | 3.0 | 0.00 | 0.26 | 0.26 | 96 | 1016.6 |
| 20260903123403 | 70 | 126 | 1.0 | 3.0 | 0.00 | 0.26 | 0.26 | 96 | 1016.6 |
| 20260903123324 | 70 | 126 | 1.0 | 3.0 | 0.00 | 0.26 | 0.26 | 96 | 1016.6 |
| 20260903123203 | 70 | 123 | 1.0 | 3.0 | 0.00 | 0.26 | 0.26 | 96 | 1016.7 |
| 20260903123103 | 70 | 122 | 1.0 | 3.0 | 0.00 | 0.26 | 0.26 | 96 | 1016.8 |
| 20260903123024 | 70 | 119 | 1.0 | 3.0 | 0.00 | 0.26 | 0.26 | 96 | 1016.8 |
| 20260903122903 | 70 | 116 | 1.0 | 3.0 | 0.00 | 0.26 | 0.26 | 96 | 1016.7 |
| 20260903122824 | 70 | 113 | 1.0 | 3.0 | 0.00 | 0.26 | 0.26 | 96 | 1016.7 |
| 20260903122703 | 70 | 109 | 0.0 | 3.0 | 0.00 | 0.26 | 0.26 | 97 | 1016.4 |
| 20260903122625 | 70 | 109 | 1.0 | 3.0 | 0.00 | 0.26 | 0.26 | 96 | 1016.4 |
| 20260903122504 | 70 | 110 | 1.0 | 3.0 | 0.00 | 0.26 | 0.26 | 96 | 1016.5 |
| 20260903122403 | 69 | 111 | 1.0 | 3.0 | 0.00 | 0.26 | 0.26 | 96 | 1016.7 |
| 20260903122305 | 69 | 111 | 1.0 | 3.0 | 0.00 | 0.26 | 0.26 | 96 | 1016.8 |
| 20260903122203 | 69 | 109 | 1.0 | 3.0 | 0.00 | 0.26 | 0.26 | 96 | 1016.5 |
| 20260903122104 | 69 | 109 | 1.0 | 3.0 | 0.00 | 0.26 | 0.26 | 96 | 1016.5 |
| 20260903122004 | 69 | 108 | 0.0 | 3.0 | 0.00 | 0.26 | 0.26 | 96 | 1016.6 |
| 20260903121904 | 69 | 108 | 0.0 | 3.0 | 0.00 | 0.26 | 0.26 | 96 | 1016.6 |
| 20260903121804 | 69 | 111 | 0.0 | 3.0 | 0.00 | 0.26 | 0.26 | 96 | 1016.5 |
| 20260903121704 | 69 | 115 | 1.0 | 4.0 | 0.00 | 0.26 | 0.26 | 96 | 1016.5 |
| 20260903121603 | 69 | 114 | 1.0 | 4.0 | 0.00 | 0.26 | 0.26 | 96 | 1016.5 |
| 20260903121524 | 69 | 117 | 1.0 | 4.0 | 0.00 | 0.26 | 0.26 | 97 | 1016.6 |
| 20260903121404 | 69 | 121 | 1.0 | 6.0 | 0.00 | 0.26 | 0.26 | 96 | 1016.6 |
| 20260903121303 | 69 | 124 | 1.0 | 6.0 | 0.00 | 0.26 | 0.26 | 96 | 1016.5 |
| 20260903121203 | 69 | 126 | 1.0 | 6.0 | 0.00 | 0.26 | 0.26 | 96 | 1016.6 |
| 20260903121104 | 69 | 129 | 1.0 | 6.0 | 0.00 | 0.26 | 0.26 | 96 | 1016.5 |
| 20260903121003 | 69 | 128 | 1.0 | 6.0 | 0.00 | 0.26 | 0.26 | 96 | 1016.6 |
| 20260903120903 | 69 | 127 | 1.0 | 6.0 | 0.00 | 0.26 | 0.26 | 96 | 1016.7 |
| 20260903120803 | 69 | 128 | 1.0 | 6.0 | 0.00 | 0.26 | 0.26 | 96 | 1016.8 |
| 20260903120725 | 69 | 126 | 1.0 | 6.0 | 0.00 | 0.26 | 0.26 | 96 | 1016.7 |
| 20260903120603 | 69 | 127 | 1.0 | 6.0 | 0.00 | 0.26 | 0.26 | 96 | 1016.6 |
| 20260903120525 | 69 | 129 | 1.0 | 6.0 | 0.00 | 0.26 | 0.26 | 96 | 1016.6 |
| 20260903120403 | 69 | 125 | 1.0 | 7.0 | 0.00 | 0.26 | 0.26 | 96 | 1016.6 |
| 20260903120303 | 69 | 128 | 1.0 | 7.0 | 0.00 | 0.26 | 0.26 | 96 | 1016.6 |
| 20260903120225 | 69 | 131 | 1.0 | 7.0 | 0.00 | 0.26 | 0.26 | 96 | 1016.7 |
| 20260903120103 | 69 | 128 | 1.0 | 7.0 | 0.00 | 0.26 | 0.26 | 96 | 1016.6 |
| 20260903120024 | 69 | 133 | 2.0 | 7.0 | 0.00 | 0.26 | 0.26 | 97 | 1016.6 |
| 20260903115924 | 69 | 135 | 2.0 | 7.0 | 0.00 | 0.26 | 0.26 | 96 | 1016.7 |
| 20260903115825 | 68 | 134 | 2.0 | 7.0 | 0.01 | 0.26 | 0.26 | 96 | 1016.6 |
| 20260903115704 | 68 | 142 | 2.0 | 7.0 | 0.02 | 0.26 | 0.26 | 96 | 1016.8 |
| 20260903115604 | 68 | 149 | 2.0 | 7.0 | 0.04 | 0.26 | 0.26 | 96 | 1016.7 |
| 20260903115503 | 68 | 151 | 2.0 | 7.0 | 0.08 | 0.26 | 0.26 | 96 | 1016.6 |
| 20260903115404 | 68 | 154 | 2.0 | 6.0 | 0.12 | 0.26 | 0.26 | 96 | 1016.7 |
| 20260903115305 | 68 | 152 | 2.0 | 4.0 | 0.16 | 0.26 | 0.26 | 96 | 1016.6 |
| 20260903115203 | 68 | 146 | 2.0 | 6.0 | 0.18 | 0.26 | 0.26 | 96 | 1016.5 |
| 20260903115103 | 68 | 148 | 2.0 | 6.0 | 0.20 | 0.26 | 0.26 | 96 | 1016.7 |
| 20260903115003 | 68 | 145 | 2.0 | 6.0 | 0.23 | 0.26 | 0.26 | 96 | 1016.7 |
| 20260903114903 | 68 | 145 | 1.0 | 6.0 | 0.25 | 0.26 | 0.26 | 96 | 1016.7 |
| 20260903114803 | 68 | 145 | 1.0 | 6.0 | 0.25 | 0.26 | 0.26 | 96 | 1016.6 |
| 20260903114725 | 68 | 146 | 1.0 | 6.0 | 0.26 | 0.26 | 0.26 | 96 | 1016.6 |
| 20260903114624 | 68 | 143 | 1.0 | 6.0 | 0.26 | 0.26 | 0.26 | 96 | 1016.6 |
| 20260903114503 | 68 | 140 | 1.0 | 6.0 | 0.26 | 0.26 | 0.26 | 96 | 1016.8 |
| 20260903114404 | 68 | 144 | 1.0 | 6.0 | 0.26 | 0.26 | 0.26 | 96 | 1016.6 |
| 20260903114303 | 68 | 146 | 1.0 | 6.0 | 0.26 | 0.26 | 0.26 | 96 | 1016.6 |
| 20260903114204 | 68 | 153 | 1.0 | 3.0 | 0.26 | 0.26 | 0.26 | 96 | 1016.8 |
| 20260903114124 | 68 | 150 | 1.0 | 3.0 | 0.26 | 0.26 | 0.26 | 96 | 1016.7 |
| 20260903114004 | 68 | 153 | 1.0 | 3.0 | 0.26 | 0.26 | 0.26 | 96 | 1016.7 |
| 20260903113904 | 68 | 154 | 1.0 | 3.0 | 0.26 | 0.26 | 0.26 | 96 | 1016.7 |
| 20260903113803 | 68 | 156 | 1.0 | 3.0 | 0.26 | 0.26 | 0.26 | 96 | 1016.6 |
| 20260903113704 | 68 | 155 | 1.0 | 3.0 | 0.26 | 0.26 | 0.26 | 96 | 1016.6 |
| 20260903113603 | 68 | 152 | 1.0 | 3.0 | 0.26 | 0.26 | 0.26 | 96 | 1016.6 |
| 20260903113504 | 68 | 152 | 1.0 | 3.0 | 0.26 | 0.26 | 0.26 | 96 | 1016.8 |
| 20260903113403 | 68 | 149 | 1.0 | 3.0 | 0.26 | 0.26 | 0.26 | 96 | 1016.7 |
| 20260903113304 | 68 | 145 | 0.0 | 3.0 | 0.26 | 0.26 | 0.26 | 96 | 1016.5 |
| 20260903113204 | 68 | 147 | 0.0 | 3.0 | 0.26 | 0.26 | 0.26 | 96 | 1016.5 |
| 20260903113104 | 68 | 146 | 0.0 | 3.0 | 0.26 | 0.26 | 0.26 | 96 | 1016.5 |
| 20260903113004 | 68 | 139 | 0.0 | 2.0 | 0.26 | 0.26 | 0.26 | 96 | 1016.5 |
| 20260903112924 | 68 | 132 | 0.0 | 2.0 | 0.26 | 0.26 | 0.26 | 96 | 1016.6 |
| 20260903112803 | 68 | 116 | 0.0 | 1.0 | 0.26 | 0.26 | 0.26 | 96 | 1016.5 |
| 20260903112703 | 68 | 115 | 0.0 | 1.0 | 0.26 | 0.26 | 0.26 | 96 | 1016.6 |
| 20260903112603 | 68 | 108 | 0.0 | 3.0 | 0.26 | 0.26 | 0.26 | 96 | 1016.5 |
| 20260903112504 | 68 | 99 | 1.0 | 3.0 | 0.26 | 0.26 | 0.26 | 96 | 1016.5 |
| 20260903112403 | 68 | 100 | 1.0 | 3.0 | 0.26 | 0.26 | 0.26 | 96 | 1016.5 |
| 20260903112305 | 68 | 100 | 1.0 | 3.0 | 0.26 | 0.26 | 0.26 | 96 | 1016.5 |
| 20260903112204 | 68 | 98 | 1.0 | 3.0 | 0.26 | 0.26 | 0.26 | 96 | 1016.5 |
| 20260903112103 | 68 | 92 | 1.0 | 3.0 | 0.26 | 0.26 | 0.26 | 96 | 1016.6 |
| 20260903112004 | 68 | 103 | 1.0 | 7.0 | 0.26 | 0.26 | 0.26 | 95 | 1016.6 |
| 20260903111903 | 68 | 111 | 1.0 | 7.0 | 0.26 | 0.26 | 0.26 | 95 | 1016.7 |
| 20260903111804 | 68 | 112 | 1.0 | 7.0 | 0.26 | 0.26 | 0.26 | 95 | 1016.6 |
| 20260903111703 | 68 | 113 | 1.0 | 7.0 | 0.26 | 0.26 | 0.26 | 95 | 1016.7 |
| 20260903111603 | 68 | 111 | 1.0 | 7.0 | 0.26 | 0.26 | 0.26 | 95 | 1016.7 |
| 20260903111503 | 68 | 113 | 2.0 | 7.0 | 0.26 | 0.26 | 0.26 | 95 | 1016.4 |
| 20260903111404 | 68 | 116 | 2.0 | 8.0 | 0.26 | 0.26 | 0.26 | 95 | 1016.6 |
| 20260903111303 | 68 | 125 | 2.0 | 9.0 | 0.26 | 0.26 | 0.26 | 95 | 1016.5 |
| 20260903111203 | 68 | 124 | 3.0 | 11.0 | 0.26 | 0.26 | 0.26 | 95 | 1016.4 |
| 20260903111104 | 68 | 128 | 3.0 | 11.0 | 0.26 | 0.26 | 0.26 | 95 | 1016.4 |
| 20260903111004 | 68 | 133 | 3.0 | 11.0 | 0.26 | 0.26 | 0.26 | 95 | 1016.5 |
| 20260903110904 | 68 | 133 | 4.0 | 11.0 | 0.26 | 0.26 | 0.26 | 95 | 1016.3 |
| 20260903110803 | 68 | 135 | 4.0 | 11.0 | 0.26 | 0.26 | 0.26 | 95 | 1016.1 |
| 20260903110703 | 68 | 135 | 4.0 | 11.0 | 0.26 | 0.26 | 0.26 | 95 | 1016.4 |
| 20260903110624 | 68 | 135 | 4.0 | 11.0 | 0.26 | 0.26 | 0.26 | 94 | 1016.5 |
| 20260903110503 | 68 | 136 | 4.0 | 11.0 | 0.26 | 0.26 | 0.26 | 94 | 1016.6 |
| 20260903110403 | 68 | 136 | 4.0 | 11.0 | 0.26 | 0.26 | 0.26 | 94 | 1016.6 |
| 20260903110303 | 68 | 133 | 3.0 | 11.0 | 0.26 | 0.26 | 0.26 | 95 | 1016.8 |
| 20260903110203 | 68 | 138 | 3.0 | 8.0 | 0.26 | 0.26 | 0.26 | 95 | 1016.9 |
| 20260903110103 | 68 | 131 | 3.0 | 8.0 | 0.26 | 0.26 | 0.26 | 95 | 1016.8 |
| 20260903110003 | 68 | 120 | 3.0 | 8.0 | 0.26 | 0.26 | 0.26 | 94 | 1016.4 |
| 20260903105924 | 68 | 120 | 2.0 | 6.0 | 0.26 | 0.26 | 0.26 | 94 | 1016.2 |
| 20260903105803 | 68 | 118 | 2.0 | 6.0 | 0.25 | 0.25 | 0.25 | 94 | 1016.1 |
| 20260903105724 | 68 | 123 | 3.0 | 6.0 | 0.24 | 0.24 | 0.25 | 94 | 1016.4 |
| 20260903105603 | 69 | 165 | 2.0 | 6.0 | 0.22 | 0.22 | 0.22 | 93 | 1016.8 |
| 20260903105503 | 69 | 199 | 2.0 | 4.0 | 0.18 | 0.18 | 0.18 | 93 | 1017.2 |
| 20260903105424 | 69 | 225 | 2.0 | 4.0 | 0.14 | 0.14 | 0.15 | 93 | 1017.7 |
| 20260903105306 | 69 | 217 | 2.0 | 4.0 | 0.10 | 0.10 | 0.10 | 93 | 1018.0 |
| 20260903105204 | 69 | 190 | 1.0 | 4.0 | 0.08 | 0.08 | 0.08 | 93 | 1018.3 |
| 20260903105103 | 69 | 176 | 1.0 | 4.0 | 0.06 | 0.06 | 0.06 | 92 | 1018.0 |
| 20260903105003 | 69 | 160 | 1.0 | 3.0 | 0.03 | 0.03 | 0.03 | 92 | 1017.7 |
| 20260903104903 | 69 | 153 | 1.0 | 3.0 | 0.01 | 0.01 | 0.01 | 92 | 1017.3 |
| 20260903104803 | 69 | 140 | 1.0 | 3.0 | 0.01 | 0.01 | 0.01 | 92 | 1017.3 |
| 20260903104703 | 69 | 133 | 1.0 | 3.0 | 0.00 | 0.00 | 0.00 | 92 | 1017.0 |
| 20260903104604 | 69 | 130 | 1.0 | 3.0 | 0.00 | 0.00 | 0.00 | 92 | 1016.8 |
| 20260903104504 | 69 | 131 | 1.0 | 3.0 | 0.00 | 0.00 | 0.00 | 92 | 1016.7 |
| 20260903104404 | 69 | 132 | 2.0 | 3.0 | 0.00 | 0.00 | 0.00 | 91 | 1016.5 |
| 20260903104324 | 69 | 131 | 2.0 | 3.0 | 0.00 | 0.00 | 0.00 | 91 | 1016.7 |
| 20260903104205 | 69 | 130 | 2.0 | 3.0 | 0.00 | 0.00 | 0.00 | 91 | 1016.4 |
| 20260903104103 | 69 | 130 | 2.0 | 3.0 | 0.00 | 0.00 | 0.00 | 91 | 1016.3 |
| 20260903104003 | 69 | 131 | 2.0 | 3.0 | 0.00 | 0.00 | 0.00 | 91 | 1016.3 |
| 20260903103903 | 69 | 132 | 1.0 | 3.0 | 0.00 | 0.00 | 0.00 | 91 | 1016.4 |
| 20260903103803 | 69 | 132 | 1.0 | 3.0 | 0.00 | 0.00 | 0.00 | 91 | 1016.5 |
| 20260903103704 | 69 | 131 | 1.0 | 3.0 | 0.00 | 0.00 | 0.00 | 91 | 1016.7 |
| 20260903103604 | 69 | 124 | 1.0 | 3.0 | 0.00 | 0.00 | 0.00 | 91 | 1016.7 |
| 20260903103503 | 69 | 101 | 1.0 | 6.0 | 0.00 | 0.00 | 0.00 | 90 | 1016.8 |
| 20260903103403 | 69 | 86 | 1.0 | 6.0 | 0.00 | 0.00 | 0.00 | 90 | 1016.8 |
| 20260903103303 | 70 | 69 | 1.0 | 6.0 | 0.00 | 0.00 | 0.00 | 90 | 1016.9 |
| 20260903103203 | 70 | 63 | 1.0 | 6.0 | 0.00 | 0.00 | 0.00 | 91 | 1016.9 |
| 20260903103103 | 70 | 61 | 1.0 | 6.0 | 0.00 | 0.00 | 0.00 | 90 | 1017.1 |
| 20260903103005 | 70 | 60 | 1.0 | 6.0 | 0.00 | 0.00 | 0.00 | 90 | 1017.1 |
| 20260903102904 | 70 | 61 | 1.0 | 6.0 | 0.00 | 0.00 | 0.00 | 90 | 1017.2 |
| 20260903102804 | 70 | 60 | 1.0 | 6.0 | 0.00 | 0.00 | 0.00 | 90 | 1017.1 |
| 20260903102703 | 70 | 65 | 1.0 | 6.0 | 0.00 | 0.00 | 0.00 | 89 | 1017.2 |
| 20260903102603 | 70 | 65 | 1.0 | 6.0 | 0.00 | 0.00 | 0.00 | 89 | 1017.2 |
| 20260903102503 | 70 | 80 | 1.0 | 4.0 | 0.00 | 0.00 | 0.00 | 89 | 1017.4 |
| 20260903102404 | 70 | 82 | 1.0 | 4.0 | 0.00 | 0.00 | 0.00 | 89 | 1017.3 |
| 20260903102305 | 71 | 85 | 0.0 | 4.0 | 0.00 | 0.00 | 0.00 | 88 | 1017.0 |
| 20260903102203 | 71 | 92 | 0.0 | 3.0 | 0.00 | 0.00 | 0.00 | 88 | 1017.1 |
| 20260903102103 | 71 | 92 | 1.0 | 3.0 | 0.00 | 0.00 | 0.00 | 87 | 1017.0 |
| 20260903102003 | 71 | 94 | 1.0 | 3.0 | 0.00 | 0.00 | 0.00 | 87 | 1017.2 |
| 20260903101903 | 71 | 92 | 1.0 | 3.0 | 0.00 | 0.00 | 0.00 | 86 | 1017.1 |
| 20260903101803 | 72 | 88 | 1.0 | 4.0 | 0.00 | 0.00 | 0.00 | 86 | 1017.4 |
| 20260903101704 | 72 | 81 | 1.0 | 4.0 | 0.00 | 0.00 | 0.00 | 85 | 1017.3 |
| 20260903101603 | 72 | 80 | 1.0 | 4.0 | 0.00 | 0.00 | 0.00 | 85 | 1017.1 |
| 20260903101504 | 72 | 82 | 1.0 | 4.0 | 0.00 | 0.00 | 0.00 | 84 | 1017.2 |
| 20260903101404 | 72 | 75 | 2.0 | 4.0 | 0.00 | 0.00 | 0.00 | 84 | 1017.0 |
| 20260903101304 | 72 | 74 | 2.0 | 4.0 | 0.00 | 0.00 | 0.00 | 83 | 1017.0 |
| 20260903101203 | 72 | 70 | 2.0 | 4.0 | 0.00 | 0.00 | 0.00 | 84 | 1017.0 |
| 20260903101103 | 72 | 66 | 2.0 | 4.0 | 0.00 | 0.00 | 0.00 | 83 | 1017.2 |
| 20260903101005 | 72 | 43 | 2.0 | 6.0 | 0.00 | 0.00 | 0.00 | 83 | 1017.2 |
| 20260903100903 | 72 | 30 | 2.0 | 6.0 | 0.00 | 0.00 | 0.00 | 84 | 1017.3 |
| 20260903100803 | 72 | 31 | 2.0 | 6.0 | 0.00 | 0.00 | 0.00 | 84 | 1017.6 |
| 20260903100704 | 72 | 36 | 2.0 | 6.0 | 0.00 | 0.00 | 0.00 | 84 | 1017.6 |
| 20260903100603 | 72 | 42 | 2.0 | 6.0 | 0.00 | 0.00 | 0.00 | 84 | 1017.7 |
| 20260903100503 | 72 | 42 | 2.0 | 6.0 | 0.00 | 0.00 | 0.00 | 84 | 1017.6 |
| 20260903100404 | 72 | 44 | 2.0 | 9.0 | 0.00 | 0.00 | 0.00 | 84 | 1017.7 |
| 20260903100303 | 72 | 43 | 2.0 | 11.0 | 0.00 | 0.00 | 0.00 | 84 | 1017.5 |
| 20260903100204 | 72 | 39 | 3.0 | 16.0 | 0.00 | 0.00 | 0.00 | 83 | 1017.5 |
| 20260903100104 | 72 | 44 | 3.0 | 16.0 | 0.00 | 0.00 | 0.00 | 83 | 1017.6 |
| 20260903100003 | 72 | 56 | 4.0 | 16.0 | 0.00 | 0.00 | 0.00 | 83 | 1017.5 |
| 20260903095904 | 72 | 61 | 4.0 | 16.0 | 0.00 | 0.00 | 0.00 | 83 | 1017.3 |
| 20260903095824 | 72 | 60 | 4.0 | 16.0 | 0.00 | 0.00 | 0.00 | 83 | 1017.3 |
| 20260903095703 | 72 | 55 | 4.0 | 16.0 | 0.00 | 0.00 | 0.00 | 83 | 1017.2 |
| 20260903095624 | 72 | 48 | 4.0 | 16.0 | 0.00 | 0.00 | 0.00 | 83 | 1017.5 |
| 20260903095503 | 73 | 42 | 5.0 | 16.0 | 0.00 | 0.00 | 0.00 | 82 | 1017.5 |
| 20260903095403 | 73 | 47 | 5.0 | 16.0 | 0.00 | 0.00 | 0.00 | 82 | 1017.6 |
| 20260903095306 | 73 | 44 | 5.0 | 21.0 | 0.00 | 0.00 | 0.00 | 81 | 1017.6 |
| 20260903095224 | 73 | 42 | 5.0 | 21.0 | 0.00 | 0.00 | 0.00 | 81 | 1017.5 |
| 20260903095104 | 74 | 44 | 5.0 | 21.0 | 0.00 | 0.00 | 0.00 | 81 | 1017.5 |
| 20260903095004 | 74 | 39 | 5.0 | 21.0 | 0.00 | 0.00 | 0.00 | 80 | 1017.5 |
| 20260903094903 | 74 | 40 | 5.0 | 21.0 | 0.00 | 0.00 | 0.00 | 81 | 1017.2 |
| 20260903094803 | 74 | 42 | 5.0 | 21.0 | 0.00 | 0.00 | 0.00 | 81 | 1017.2 |
| 20260903094703 | 75 | 43 | 4.0 | 21.0 | 0.00 | 0.00 | 0.00 | 81 | 1017.4 |
| 20260903094604 | 75 | 46 | 4.0 | 21.0 | 0.00 | 0.00 | 0.00 | 81 | 1017.5 |
| 20260903094524 | 75 | 46 | 4.0 | 21.0 | 0.00 | 0.00 | 0.00 | 81 | 1017.5 |
| 20260903094403 | 76 | 43 | 4.0 | 21.0 | 0.00 | 0.00 | 0.00 | 80 | 1017.4 |
| 20260903094324 | 76 | 41 | 3.0 | 17.0 | 0.00 | 0.00 | 0.00 | 80 | 1017.4 |
| 20260903094203 | 75 | 59 | 3.0 | 8.0 | 0.00 | 0.00 | 0.00 | 80 | 1017.4 |
| 20260903094103 | 75 | 57 | 3.0 | 8.0 | 0.00 | 0.00 | 0.00 | 80 | 1017.3 |
| 20260903094003 | 75 | 64 | 2.0 | 7.0 | 0.00 | 0.00 | 0.00 | 81 | 1017.1 |
| 20260903093904 | 75 | 64 | 2.0 | 7.0 | 0.00 | 0.00 | 0.00 | 81 | 1017.1 |
| 20260903093803 | 75 | 46 | 2.0 | 9.0 | 0.00 | 0.00 | 0.00 | 81 | 1017.0 |
| 20260903093704 | 75 | 29 | 3.0 | 9.0 | 0.00 | 0.00 | 0.00 | 81 | 1017.0 |
| 20260903093605 | 75 | 18 | 3.0 | 9.0 | 0.00 | 0.00 | 0.00 | 81 | 1017.1 |
| 20260903093503 | 75 | 22 | 3.0 | 9.0 | 0.00 | 0.00 | 0.00 | 81 | 1016.7 |
| 20260903093403 | 75 | 22 | 2.0 | 9.0 | 0.00 | 0.00 | 0.00 | 81 | 1016.5 |
| 20260903093304 | 75 | 16 | 2.0 | 9.0 | 0.00 | 0.00 | 0.00 | 81 | 1016.5 |
| 20260903093224 | 75 | 13 | 2.0 | 9.0 | 0.00 | 0.00 | 0.00 | 81 | 1016.4 |
| 20260903093103 | 75 | 16 | 2.0 | 9.0 | 0.00 | 0.00 | 0.00 | 81 | 1016.5 |
| 20260903093003 | 75 | 14 | 2.0 | 9.0 | 0.00 | 0.00 | 0.00 | 81 | 1016.7 |
| 20260903092905 | 75 | 10 | 2.0 | 9.0 | 0.00 | 0.00 | 0.00 | 81 | 1016.6 |
| 20260903092803 | 75 | 30 | 1.0 | 9.0 | 0.00 | 0.00 | 0.00 | 81 | 1016.3 |
| 20260903092703 | 75 | 77 | 1.0 | 7.0 | 0.00 | 0.00 | 0.00 | 80 | 1016.0 |
| 20260903092603 | 75 | 126 | 0.0 | 2.0 | 0.00 | 0.00 | 0.00 | 80 | 1015.6 |
| 20260903092503 | 75 | 127 | 0.0 | 2.0 | 0.00 | 0.00 | 0.00 | 80 | 1015.3 |
| 20260903092403 | 75 | 124 | 0.0 | 2.0 | 0.00 | 0.00 | 0.00 | 80 | 1015.1 |
| 20260903092306 | 75 | 125 | 0.0 | 2.0 | 0.00 | 0.00 | 0.00 | 80 | 1015.1 |
| 20260903092204 | 75 | 126 | 1.0 | 2.0 | 0.00 | 0.00 | 0.00 | 80 | 1015.1 |
| 20260903092103 | 75 | 129 | 1.0 | 2.0 | 0.00 | 0.00 | 0.00 | 80 | 1015.1 |
| 20260903092004 | 75 | 131 | 1.0 | 2.0 | 0.00 | 0.00 | 0.00 | 80 | 1015.0 |
| 20260903091903 | 75 | 131 | 1.0 | 2.0 | 0.00 | 0.00 | 0.00 | 80 | 1015.2 |
| 20260903091803 | 75 | 130 | 1.0 | 2.0 | 0.00 | 0.00 | 0.00 | 80 | 1015.2 |
| 20260903091703 | 75 | 131 | 1.0 | 4.0 | 0.00 | 0.00 | 0.00 | 80 | 1015.1 |
| 20260903091625 | 75 | 133 | 1.0 | 4.0 | 0.00 | 0.00 | 0.00 | 80 | 1015.2 |
| 20260903091503 | 75 | 133 | 1.0 | 4.0 | 0.00 | 0.00 | 0.00 | 80 | 1015.1 |
| 20260903091404 | 75 | 133 | 1.0 | 4.0 | 0.00 | 0.00 | 0.00 | 80 | 1015.2 |
| 20260903091324 | 75 | 133 | 1.0 | 4.0 | 0.00 | 0.00 | 0.00 | 80 | 1015.3 |
| 20260903091203 | 75 | 134 | 1.0 | 4.0 | 0.00 | 0.00 | 0.00 | 80 | 1015.3 |
| 20260903091103 | 75 | 132 | 1.0 | 4.0 | 0.00 | 0.00 | 0.00 | 80 | 1015.3 |
| 20260903091004 | 75 | 130 | 0.0 | 4.0 | 0.00 | 0.00 | 0.00 | 80 | 1015.4 |
| 20260903090903 | 75 | 130 | 1.0 | 4.0 | 0.00 | 0.00 | 0.00 | 80 | 1015.4 |
| 20260903090803 | 75 | 134 | 1.0 | 4.0 | 0.00 | 0.00 | 0.00 | 80 | 1015.4 |
| 20260903090704 | 75 | 132 | 0.0 | 3.0 | 0.00 | 0.00 | 0.00 | 80 | 1015.3 |
| 20260903090604 | 75 | 134 | 0.0 | 3.0 | 0.00 | 0.00 | 0.00 | 80 | 1015.3 |
| 20260903090525 | 75 | 134 | 0.0 | 3.0 | 0.00 | 0.00 | 0.00 | 80 | 1015.4 |
| 20260903090404 | 75 | 135 | 0.0 | 3.0 | 0.00 | 0.00 | 0.00 | 80 | 1015.4 |
| 20260903090324 | 75 | 138 | 0.0 | 3.0 | 0.00 | 0.00 | 0.00 | 80 | 1015.3 |
| 20260903090224 | 75 | 138 | 0.0 | 3.0 | 0.00 | 0.00 | 0.00 | 80 | 1015.5 |
| 20260903090003 | 75 | 133 | 0.0 | 3.0 | 0.00 | 0.00 | 0.00 | 80 | 1015.6 |
| 20260903085904 | 75 | 133 | 0.0 | 3.0 | 0.00 | 0.00 | 0.00 | 80 | 1015.4 |
| 20260903085803 | 75 | 122 | 0.0 | 2.0 | 0.00 | 0.00 | 0.00 | 80 | 1015.5 |
| 20260903085703 | 75 | 124 | 0.0 | 2.0 | 0.00 | 0.00 | 0.00 | 81 | 1015.5 |
| 20260903085605 | 75 | 124 | 0.0 | 2.0 | 0.00 | 0.00 | 0.00 | 80 | 1015.7 |
| 20260903085525 | 75 | 124 | 0.0 | 2.0 | 0.00 | 0.00 | 0.00 | 81 | 1015.5 |
| 20260903085424 | 75 | 129 | 0.0 | 3.0 | 0.00 | 0.00 | 0.00 | 81 | 1015.6 |
| 20260903085305 | 75 | 129 | 0.0 | 3.0 | 0.00 | 0.00 | 0.00 | 81 | 1015.3 |
| 20260903085203 | 75 | 125 | 0.0 | 3.0 | 0.00 | 0.00 | 0.00 | 81 | 1015.4 |
| 20260903085124 | 74 | 126 | 0.0 | 3.0 | 0.00 | 0.00 | 0.00 | 81 | 1015.2 |
| 20260903085004 | 74 | 128 | 0.0 | 3.0 | 0.00 | 0.00 | 0.00 | 81 | 1015.4 |
| 20260903084903 | 75 | 128 | 0.0 | 3.0 | 0.00 | 0.00 | 0.00 | 81 | 1015.3 |
| 20260903084803 | 75 | 129 | 0.0 | 3.0 | 0.00 | 0.00 | 0.00 | 81 | 1015.2 |
| 20260903084724 | 75 | 128 | 0.0 | 3.0 | 0.00 | 0.00 | 0.00 | 81 | 1015.5 |
| 20260903084604 | 74 | 131 | 1.0 | 3.0 | 0.00 | 0.00 | 0.00 | 81 | 1015.3 |
| 20260903084503 | 74 | 130 | 1.0 | 3.0 | 0.00 | 0.00 | 0.00 | 81 | 1015.2 |
| 20260903084403 | 74 | 128 | 1.0 | 3.0 | 0.00 | 0.00 | 0.00 | 81 | 1015.0 |
| 20260903084324 | 74 | 130 | 1.0 | 3.0 | 0.00 | 0.00 | 0.00 | 81 | 1015.1 |
| 20260903084224 | 74 | 132 | 1.0 | 3.0 | 0.00 | 0.00 | 0.00 | 81 | 1014.9 |
| 20260903084104 | 74 | 134 | 1.0 | 3.0 | 0.00 | 0.00 | 0.00 | 81 | 1015.1 |
| 20260903084004 | 74 | 133 | 0.0 | 3.0 | 0.00 | 0.00 | 0.00 | 82 | 1015.2 |
| 20260903083924 | 74 | 133 | 0.0 | 3.0 | 0.00 | 0.00 | 0.00 | 82 | 1015.2 |
| 20260903083804 | 74 | 133 | 0.0 | 3.0 | 0.00 | 0.00 | 0.00 | 82 | 1015.2 |
| 20260903083703 | 74 | 138 | 0.0 | 3.0 | 0.00 | 0.00 | 0.00 | 82 | 1015.1 |
| 20260903083604 | 74 | 129 | 0.0 | 2.0 | 0.00 | 0.00 | 0.00 | 82 | 1015.1 |
| 20260903083503 | 74 | 131 | 0.0 | 2.0 | 0.00 | 0.00 | 0.00 | 82 | 1015.2 |
| 20260903083404 | 74 | 132 | 0.0 | 2.0 | 0.00 | 0.00 | 0.00 | 82 | 1015.2 |
| 20260903083304 | 74 | 127 | 0.0 | 1.0 | 0.00 | 0.00 | 0.00 | 82 | 1015.2 |
| 20260903083204 | 74 | 125 | 0.0 | 1.0 | 0.00 | 0.00 | 0.00 | 82 | 1015.2 |
| 20260903083124 | 74 | 118 | 0.0 | 1.0 | 0.00 | 0.00 | 0.00 | 82 | 1015.3 |
| 20260903083004 | 74 | 118 | 0.0 | 1.0 | 0.00 | 0.00 | 0.00 | 82 | 1015.3 |
| 20260903082903 | 74 | 118 | 0.0 | 1.0 | 0.00 | 0.00 | 0.00 | 82 | 1015.2 |
| 20260903082803 | 74 | 118 | 0.0 | 1.0 | 0.00 | 0.00 | 0.00 | 82 | 1015.2 |
| 20260903082724 | 74 | 118 | 0.0 | 1.0 | 0.00 | 0.00 | 0.00 | 82 | 1015.2 |
| 20260903082603 | 73 | 0 | 0.0 | 0.0 | 0.00 | 0.00 | 0.00 | 83 | 1015.2 |
| 20260903082505 | 73 | 0 | 0.0 | 0.0 | 0.00 | 0.00 | 0.00 | 83 | 1015.3 |
| 20260903082424 | 73 | 0 | 0.0 | 0.0 | 0.00 | 0.00 | 0.00 | 83 | 1015.3 |
| 20260903082325 | 73 | 0 | 0.0 | 0.0 | 0.00 | 0.00 | 0.00 | 83 | 1015.3 |
| 20260903082225 | 73 | 0 | 0.0 | 0.0 | 0.00 | 0.00 | 0.00 | 83 | 1015.5 |
| 20260903082104 | 73 | 0 | 0.0 | 0.0 | 0.00 | 0.00 | 0.00 | 83 | 1015.5 |
| 20260903082025 | 73 | 0 | 0.0 | 0.0 | 0.00 | 0.00 | 0.00 | 84 | 1015.2 |
| 20260903081903 | 73 | 0 | 0.0 | 0.0 | 0.00 | 0.00 | 0.00 | 84 | 1015.4 |
| 20260903081803 | 73 | 0 | 0.0 | 0.0 | 0.00 | 0.00 | 0.00 | 83 | 1015.3 |
| 20260903081703 | 73 | 0 | 0.0 | 0.0 | 0.00 | 0.00 | 0.00 | 83 | 1015.2 |
| 20260903081603 | 73 | 0 | 0.0 | 0.0 | 0.00 | 0.00 | 0.00 | 83 | 1015.3 |
| 20260903081503 | 73 | 0 | 0.0 | 0.0 | 0.00 | 0.00 | 0.00 | 83 | 1015.3 |
| 20260903081424 | 73 | 0 | 0.0 | 0.0 | 0.00 | 0.00 | 0.00 | 84 | 1015.3 |
| 20260903081324 | 73 | 0 | 0.0 | 0.0 | 0.00 | 0.00 | 0.00 | 84 | 1015.3 |
| 20260903081203 | 73 | 0 | 0.0 | 0.0 | 0.00 | 0.00 | 0.00 | 84 | 1015.0 |
| 20260903081104 | 73 | 122 | 0.0 | 1.0 | 0.00 | 0.00 | 0.00 | 84 | 1015.2 |
| 20260903081003 | 73 | 122 | 0.0 | 1.0 | 0.00 | 0.00 | 0.00 | 84 | 1015.1 |
| 20260903080903 | 73 | 122 | 0.0 | 1.0 | 0.00 | 0.00 | 0.00 | 84 | 1015.1 |
| 20260903080803 | 73 | 122 | 0.0 | 1.0 | 0.00 | 0.00 | 0.00 | 85 | 1015.3 |
| 20260903080703 | 73 | 114 | 0.0 | 2.0 | 0.00 | 0.00 | 0.00 | 85 | 1015.3 |
| 20260903080603 | 73 | 115 | 0.0 | 2.0 | 0.00 | 0.00 | 0.00 | 85 | 1015.3 |
| 20260903080503 | 73 | 114 | 0.0 | 2.0 | 0.00 | 0.00 | 0.00 | 85 | 1015.3 |
| 20260903080403 | 73 | 114 | 0.0 | 2.0 | 0.00 | 0.00 | 0.00 | 84 | 1015.2 |
| 20260903080304 | 73 | 114 | 0.0 | 2.0 | 0.00 | 0.00 | 0.00 | 84 | 1015.5 |
| 20260903080203 | 73 | 114 | 0.0 | 2.0 | 0.00 | 0.00 | 0.00 | 84 | 1015.1 |
| 20260903080124 | 73 | 114 | 0.0 | 2.0 | 0.00 | 0.00 | 0.00 | 85 | 1015.3 |
| 20260903080025 | 73 | 114 | 0.0 | 2.0 | 0.00 | 0.00 | 0.00 | 85 | 1015.1 |
| 20260903075924 | 73 | 114 | 0.0 | 2.0 | 0.00 | 0.00 | 0.00 | 85 | 1015.3 |
| 20260903075803 | 73 | 114 | 0.0 | 2.0 | 0.00 | 0.00 | 0.00 | 85 | 1015.3 |
| 20260903075703 | 73 | 114 | 0.0 | 2.0 | 0.00 | 0.00 | 0.00 | 85 | 1015.4 |
| 20260903075603 | 73 | 118 | 0.0 | 1.0 | 0.00 | 0.00 | 0.00 | 85 | 1015.4 |
| 20260903075503 | 73 | 122 | 0.0 | 1.0 | 0.00 | 0.00 | 0.00 | 85 | 1015.6 |
| 20260903075424 | 73 | 124 | 0.0 | 1.0 | 0.00 | 0.00 | 0.00 | 85 | 1015.4 |
| 20260903075306 | 73 | 126 | 0.0 | 2.0 | 0.00 | 0.00 | 0.00 | 85 | 1015.5 |
| 20260903075224 | 73 | 127 | 0.0 | 2.0 | 0.00 | 0.00 | 0.00 | 85 | 1015.6 |
| 20260903075103 | 73 | 127 | 0.0 | 2.0 | 0.00 | 0.00 | 0.00 | 85 | 1015.7 |
| 20260903075003 | 73 | 127 | 0.0 | 2.0 | 0.00 | 0.00 | 0.00 | 85 | 1015.6 |
| 20260903074925 | 73 | 127 | 0.0 | 2.0 | 0.00 | 0.00 | 0.00 | 85 | 1015.5 |
| 20260903074804 | 73 | 127 | 0.0 | 2.0 | 0.00 | 0.00 | 0.00 | 85 | 1015.7 |
| 20260903074704 | 73 | 128 | 0.0 | 2.0 | 0.00 | 0.00 | 0.00 | 85 | 1015.7 |
| 20260903074624 | 73 | 128 | 0.0 | 2.0 | 0.00 | 0.00 | 0.00 | 85 | 1015.6 |
| 20260903074503 | 73 | 130 | 0.0 | 2.0 | 0.00 | 0.00 | 0.00 | 85 | 1015.7 |
| 20260903074404 | 73 | 134 | 0.0 | 2.0 | 0.00 | 0.00 | 0.00 | 85 | 1015.5 |
| 20260903074303 | 73 | 139 | 0.0 | 2.0 | 0.00 | 0.00 | 0.00 | 85 | 1015.7 |
| 20260903074203 | 73 | 0 | 0.0 | 0.0 | 0.00 | 0.00 | 0.00 | 85 | 1015.7 |
| 20260903074104 | 73 | 0 | 0.0 | 0.0 | 0.00 | 0.00 | 0.00 | 85 | 1015.6 |
| 20260903074003 | 73 | 0 | 0.0 | 0.0 | 0.00 | 0.00 | 0.00 | 85 | 1015.7 |
| 20260903073903 | 73 | 0 | 0.0 | 0.0 | 0.00 | 0.00 | 0.00 | 85 | 1015.6 |
| 20260903073824 | 73 | 0 | 0.0 | 0.0 | 0.00 | 0.00 | 0.00 | 85 | 1016.0 |
| 20260903073703 | 73 | 0 | 0.0 | 0.0 | 0.00 | 0.00 | 0.00 | 85 | 1015.9 |
| 20260903073625 | 73 | 0 | 0.0 | 0.0 | 0.00 | 0.00 | 0.00 | 85 | 1015.9 |
| 20260903073504 | 73 | 0 | 0.0 | 0.0 | 0.00 | 0.00 | 0.00 | 85 | 1016.0 |
| 20260903073425 | 73 | 0 | 0.0 | 0.0 | 0.00 | 0.00 | 0.00 | 85 | 1016.0 |
| 20260903073303 | 73 | 0 | 0.0 | 0.0 | 0.00 | 0.00 | 0.00 | 85 | 1015.7 |
| 20260903073224 | 73 | 0 | 0.0 | 0.0 | 0.00 | 0.00 | 0.00 | 85 | 1015.7 |
| 20260903073103 | 73 | 0 | 0.0 | 0.0 | 0.00 | 0.00 | 0.00 | 84 | 1015.5 |
| 20260903073004 | 73 | 0 | 0.0 | 0.0 | 0.00 | 0.00 | 0.00 | 84 | 1015.5 |
| 20260903072903 | 73 | 109 | 0.0 | 1.0 | 0.00 | 0.00 | 0.00 | 83 | 1015.6 |
| 20260903072803 | 74 | 113 | 0.0 | 1.0 | 0.00 | 0.00 | 0.00 | 83 | 1015.6 |
| 20260903072703 | 74 | 113 | 0.0 | 1.0 | 0.00 | 0.00 | 0.00 | 83 | 1015.4 |
| 20260903072603 | 74 | 113 | 0.0 | 1.0 | 0.00 | 0.00 | 0.00 | 83 | 1015.6 |
| 20260903072503 | 74 | 113 | 0.0 | 1.0 | 0.00 | 0.00 | 0.00 | 83 | 1015.6 |
| 20260903072404 | 74 | 113 | 0.0 | 1.0 | 0.00 | 0.00 | 0.00 | 83 | 1015.6 |
| 20260903072306 | 74 | 113 | 0.0 | 1.0 | 0.00 | 0.00 | 0.00 | 83 | 1015.5 |
| 20260903072203 | 74 | 113 | 0.0 | 1.0 | 0.00 | 0.00 | 0.00 | 83 | 1015.5 |
| 20260903072104 | 74 | 113 | 0.0 | 1.0 | 0.00 | 0.00 | 0.00 | 82 | 1015.5 |
| 20260903072003 | 74 | 117 | 0.0 | 1.0 | 0.00 | 0.00 | 0.00 | 83 | 1015.4 |
| 20260903071904 | 74 | 122 | 0.0 | 1.0 | 0.00 | 0.00 | 0.00 | 82 | 1015.5 |
| 20260903071803 | 74 | 125 | 0.0 | 1.0 | 0.00 | 0.00 | 0.00 | 82 | 1015.4 |
| 20260903071703 | 74 | 125 | 0.0 | 1.0 | 0.00 | 0.00 | 0.00 | 82 | 1015.5 |
| 20260903071604 | 74 | 125 | 0.0 | 1.0 | 0.00 | 0.00 | 0.00 | 82 | 1015.5 |
| 20260903071504 | 74 | 125 | 0.0 | 1.0 | 0.00 | 0.00 | 0.00 | 81 | 1015.4 |
| 20260903071403 | 74 | 125 | 0.0 | 1.0 | 0.00 | 0.00 | 0.00 | 81 | 1015.6 |
| 20260903071303 | 74 | 125 | 0.0 | 1.0 | 0.00 | 0.00 | 0.00 | 81 | 1015.9 |
| 20260903071203 | 74 | 125 | 0.0 | 1.0 | 0.00 | 0.00 | 0.00 | 81 | 1015.4 |
| 20260903071104 | 74 | 120 | 0.0 | 1.0 | 0.00 | 0.00 | 0.00 | 81 | 1015.6 |
| 20260903071003 | 74 | 119 | 0.0 | 1.0 | 0.00 | 0.00 | 0.00 | 81 | 1015.4 |
| 20260903070903 | 74 | 114 | 0.0 | 1.0 | 0.00 | 0.00 | 0.00 | 81 | 1015.3 |
| 20260903070803 | 75 | 97 | 0.0 | 1.0 | 0.00 | 0.00 | 0.00 | 81 | 1015.6 |
| 20260903070703 | 75 | 97 | 0.0 | 1.0 | 0.00 | 0.00 | 0.00 | 81 | 1015.6 |
| 20260903070604 | 75 | 97 | 0.0 | 1.0 | 0.00 | 0.00 | 0.00 | 80 | 1015.3 |
| 20260903070524 | 75 | 97 | 0.0 | 1.0 | 0.00 | 0.00 | 0.00 | 80 | 1015.5 |
| 20260903070404 | 75 | 97 | 0.0 | 1.0 | 0.00 | 0.00 | 0.00 | 80 | 1015.6 |
| 20260903070324 | 75 | 97 | 0.0 | 1.0 | 0.00 | 0.00 | 0.00 | 79 | 1015.5 |
| 20260903070224 | 75 | 97 | 0.0 | 1.0 | 0.00 | 0.00 | 0.00 | 79 | 1015.7 |
| 20260903070103 | 75 | 0 | 0.0 | 0.0 | 0.00 | 0.00 | 0.00 | 79 | 1015.4 |
| 20260903070026 | 75 | 0 | 0.0 | 0.0 | 0.00 | 0.00 | 0.00 | 79 | 1015.5 |
| 20260903065924 | 75 | 0 | 0.0 | 0.0 | 0.00 | 0.00 | 0.00 | 79 | 1016.0 |
| 20260903065804 | 75 | 0 | 0.0 | 0.0 | 0.00 | 0.00 | 0.00 | 79 | 1015.7 |
| 20260903065725 | 75 | 0 | 0.0 | 0.0 | 0.00 | 0.00 | 0.00 | 79 | 1015.9 |
| 20260903065603 | 75 | 144 | 0.0 | 1.0 | 0.00 | 0.00 | 0.00 | 79 | 1015.6 |
| 20260903065525 | 75 | 140 | 0.0 | 1.0 | 0.00 | 0.00 | 0.00 | 79 | 1015.5 |
| 20260903065403 | 75 | 140 | 0.0 | 1.0 | 0.00 | 0.00 | 0.00 | 79 | 1015.7 |
| 20260903065306 | 75 | 135 | 0.0 | 1.0 | 0.00 | 0.00 | 0.00 | 79 | 1015.7 |
| 20260903065203 | 75 | 134 | 0.0 | 2.0 | 0.00 | 0.00 | 0.00 | 79 | 1016.0 |
| 20260903065125 | 76 | 134 | 0.0 | 2.0 | 0.00 | 0.00 | 0.00 | 79 | 1015.9 |
| 20260903065004 | 76 | 134 | 0.0 | 2.0 | 0.00 | 0.00 | 0.00 | 78 | 1015.7 |
| 20260903064904 | 76 | 134 | 0.0 | 2.0 | 0.00 | 0.00 | 0.00 | 78 | 1016.1 |
| 20260903064803 | 76 | 134 | 0.0 | 2.0 | 0.00 | 0.00 | 0.00 | 78 | 1015.9 |
| 20260903064724 | 76 | 127 | 0.0 | 2.0 | 0.00 | 0.00 | 0.00 | 78 | 1016.0 |
| 20260903064625 | 76 | 123 | 0.0 | 2.0 | 0.00 | 0.00 | 0.00 | 78 | 1015.9 |
| 20260903064504 | 76 | 121 | 0.0 | 2.0 | 0.00 | 0.00 | 0.00 | 77 | 1016.0 |
| 20260903064403 | 76 | 120 | 1.0 | 2.0 | 0.00 | 0.00 | 0.00 | 77 | 1016.2 |
| 20260903064304 | 76 | 117 | 1.0 | 2.0 | 0.00 | 0.00 | 0.00 | 77 | 1016.0 |
| 20260903064204 | 76 | 114 | 1.0 | 2.0 | 0.00 | 0.00 | 0.00 | 77 | 1016.2 |
| 20260903064104 | 76 | 114 | 1.0 | 2.0 | 0.00 | 0.00 | 0.00 | 77 | 1016.0 |
| 20260903064003 | 76 | 114 | 1.0 | 2.0 | 0.00 | 0.00 | 0.00 | 77 | 1016.1 |
| 20260903063903 | 76 | 114 | 1.0 | 2.0 | 0.00 | 0.00 | 0.00 | 77 | 1016.2 |
| 20260903063803 | 76 | 114 | 1.0 | 2.0 | 0.00 | 0.00 | 0.00 | 77 | 1016.1 |
| 20260903063703 | 76 | 121 | 0.0 | 2.0 | 0.00 | 0.00 | 0.00 | 76 | 1016.1 |
| 20260903063603 | 76 | 125 | 0.0 | 2.0 | 0.00 | 0.00 | 0.00 | 76 | 1016.2 |
| 20260903063504 | 76 | 126 | 0.0 | 2.0 | 0.00 | 0.00 | 0.00 | 76 | 1016.1 |
| 20260903063403 | 76 | 120 | 0.0 | 3.0 | 0.00 | 0.00 | 0.00 | 76 | 1016.1 |
| 20260903063324 | 76 | 137 | 0.0 | 3.0 | 0.00 | 0.00 | 0.00 | 76 | 1016.4 |
| 20260903063204 | 77 | 120 | 0.0 | 3.0 | 0.00 | 0.00 | 0.00 | 76 | 1016.1 |
| 20260903063103 | 77 | 141 | 1.0 | 9.0 | 0.00 | 0.00 | 0.00 | 76 | 1016.3 |
| 20260903063003 | 77 | 122 | 1.0 | 9.0 | 0.00 | 0.00 | 0.00 | 76 | 1016.2 |
| 20260903062925 | 77 | 153 | 1.0 | 9.0 | 0.00 | 0.00 | 0.00 | 76 | 1016.3 |
| 20260903062803 | 77 | 287 | 2.0 | 9.0 | 0.00 | 0.00 | 0.00 | 76 | 1016.4 |
| 20260903062704 | 77 | 43 | 2.0 | 9.0 | 0.00 | 0.00 | 0.00 | 75 | 1016.3 |
| 20260903062603 | 77 | 7 | 2.0 | 9.0 | 0.00 | 0.00 | 0.00 | 75 | 1016.3 |
| 20260903062504 | 77 | 3 | 3.0 | 9.0 | 0.00 | 0.00 | 0.00 | 75 | 1016.4 |
| 20260903062403 | 77 | 358 | 3.0 | 9.0 | 0.00 | 0.00 | 0.00 | 75 | 1016.4 |
| 20260903062306 | 77 | 12 | 3.0 | 9.0 | 0.00 | 0.00 | 0.00 | 75 | 1016.4 |
| 20260903062204 | 77 | 2 | 3.0 | 9.0 | 0.00 | 0.00 | 0.00 | 74 | 1016.4 |
| 20260903062104 | 78 | 10 | 2.0 | 9.0 | 0.00 | 0.00 | 0.00 | 74 | 1016.6 |
| 20260903062004 | 78 | 15 | 2.0 | 9.0 | 0.00 | 0.00 | 0.00 | 74 | 1016.5 |
| 20260903061903 | 78 | 14 | 2.0 | 9.0 | 0.00 | 0.00 | 0.00 | 74 | 1016.6 |
| 20260903061824 | 78 | 24 | 2.0 | 9.0 | 0.00 | 0.00 | 0.00 | 74 | 1016.4 |
| 20260903061704 | 78 | 32 | 2.0 | 7.0 | 0.00 | 0.00 | 0.00 | 74 | 1016.5 |
| 20260903061603 | 78 | 34 | 2.0 | 4.0 | 0.00 | 0.00 | 0.00 | 74 | 1016.7 |
| 20260903061525 | 78 | 39 | 1.0 | 4.0 | 0.00 | 0.00 | 0.00 | 74 | 1016.6 |
| 20260903061403 | 78 | 57 | 1.0 | 8.0 | 0.00 | 0.00 | 0.00 | 74 | 1016.6 |
| 20260903061304 | 78 | 48 | 2.0 | 8.0 | 0.00 | 0.00 | 0.00 | 75 | 1016.4 |
| 20260903061204 | 78 | 57 | 2.0 | 8.0 | 0.00 | 0.00 | 0.00 | 74 | 1016.4 |
| 20260903061105 | 79 | 55 | 2.0 | 8.0 | 0.00 | 0.00 | 0.00 | 74 | 1016.6 |
| 20260903061003 | 79 | 53 | 2.0 | 8.0 | 0.00 | 0.00 | 0.00 | 73 | 1016.8 |
| 20260903060904 | 79 | 57 | 2.0 | 8.0 | 0.00 | 0.00 | 0.00 | 74 | 1016.5 |
| 20260903060803 | 79 | 57 | 2.0 | 8.0 | 0.00 | 0.00 | 0.00 | 74 | 1016.6 |
| 20260903060703 | 79 | 63 | 2.0 | 8.0 | 0.00 | 0.00 | 0.00 | 74 | 1016.7 |
| 20260903060604 | 79 | 76 | 2.0 | 8.0 | 0.00 | 0.00 | 0.00 | 74 | 1016.6 |
| 20260903060504 | 79 | 70 | 2.0 | 8.0 | 0.00 | 0.00 | 0.00 | 74 | 1016.4 |
| 20260903060425 | 79 | 68 | 2.0 | 8.0 | 0.00 | 0.00 | 0.00 | 74 | 1016.6 |
| 20260903060303 | 80 | 71 | 2.0 | 6.0 | 0.00 | 0.00 | 0.00 | 75 | 1016.8 |
| 20260903060205 | 80 | 56 | 3.0 | 7.0 | 0.00 | 0.00 | 0.00 | 75 | 1016.6 |
| 20260903060104 | 80 | 62 | 3.0 | 9.0 | 0.00 | 0.00 | 0.00 | 74 | 1016.4 |
| 20260903060003 | 80 | 24 | 3.0 | 9.0 | 0.00 | 0.00 | 0.00 | 74 | 1016.4 |
| 20260903055903 | 80 | 42 | 3.0 | 10.0 | 0.00 | 0.00 | 0.00 | 75 | 1016.4 |
| 20260903055803 | 80 | 28 | 4.0 | 11.0 | 0.00 | 0.00 | 0.00 | 76 | 1016.3 |
| 20260903055703 | 81 | 9 | 4.0 | 11.0 | 0.00 | 0.00 | 0.00 | 76 | 1016.4 |
| 20260903055604 | 81 | 1 | 4.0 | 11.0 | 0.00 | 0.00 | 0.00 | 76 | 1016.3 |
| 20260903055503 | 81 | 356 | 4.0 | 11.0 | 0.00 | 0.00 | 0.00 | 77 | 1016.5 |
| 20260903055403 | 81 | 344 | 5.0 | 11.0 | 0.00 | 0.00 | 0.00 | 77 | 1016.6 |
| 20260903055306 | 81 | 339 | 5.0 | 11.0 | 0.00 | 0.00 | 0.00 | 77 | 1016.5 |
| 20260903055204 | 82 | 321 | 5.0 | 11.0 | 0.00 | 0.00 | 0.00 | 77 | 1016.6 |
| 20260903055104 | 82 | 331 | 4.0 | 11.0 | 0.00 | 0.00 | 0.00 | 77 | 1016.6 |
| 20260903055003 | 82 | 331 | 4.0 | 11.0 | 0.00 | 0.00 | 0.00 | 77 | 1016.5 |
| 20260903054903 | 82 | 313 | 4.0 | 11.0 | 0.00 | 0.00 | 0.00 | 77 | 1016.7 |
| 20260903054824 | 82 | 310 | 3.0 | 9.0 | 0.00 | 0.00 | 0.00 | 77 | 1016.6 |
| 20260903054724 | 82 | 285 | 3.0 | 9.0 | 0.00 | 0.00 | 0.00 | 78 | 1016.4 |
| 20260903054603 | 82 | 263 | 3.0 | 8.0 | 0.00 | 0.00 | 0.00 | 77 | 1016.3 |
| 20260903054505 | 82 | 242 | 3.0 | 8.0 | 0.00 | 0.00 | 0.00 | 77 | 1016.2 |
| 20260903054403 | 82 | 245 | 3.0 | 8.0 | 0.00 | 0.00 | 0.00 | 77 | 1015.9 |
| 20260903054324 | 82 | 241 | 3.0 | 8.0 | 0.00 | 0.00 | 0.00 | 77 | 1015.6 |
| 20260903054203 | 82 | 230 | 3.0 | 7.0 | 0.00 | 0.00 | 0.00 | 77 | 1015.6 |
| 20260903054103 | 82 | 234 | 3.0 | 7.0 | 0.00 | 0.00 | 0.00 | 77 | 1015.6 |
| 20260903054003 | 83 | 234 | 3.0 | 7.0 | 0.00 | 0.00 | 0.00 | 77 | 1015.5 |
| 20260903053903 | 83 | 236 | 3.0 | 7.0 | 0.00 | 0.00 | 0.00 | 77 | 1015.7 |
| 20260903053803 | 83 | 236 | 3.0 | 7.0 | 0.00 | 0.00 | 0.00 | 76 | 1015.5 |
| 20260903053724 | 83 | 235 | 3.0 | 7.0 | 0.00 | 0.00 | 0.00 | 76 | 1015.5 |
| 20260903053603 | 83 | 233 | 3.0 | 7.0 | 0.00 | 0.00 | 0.00 | 76 | 1015.4 |
| 20260903053504 | 83 | 233 | 2.0 | 7.0 | 0.00 | 0.00 | 0.00 | 76 | 1015.6 |
| 20260903053403 | 82 | 224 | 2.0 | 7.0 | 0.00 | 0.00 | 0.00 | 76 | 1015.3 |
| 20260903053325 | 82 | 218 | 2.0 | 7.0 | 0.00 | 0.00 | 0.00 | 76 | 1015.5 |
| 20260903053225 | 82 | 227 | 2.0 | 7.0 | 0.00 | 0.00 | 0.00 | 76 | 1015.4 |
| 20260903053103 | 82 | 225 | 2.0 | 7.0 | 0.00 | 0.00 | 0.00 | 77 | 1015.4 |
| 20260903053025 | 82 | 224 | 2.0 | 7.0 | 0.00 | 0.00 | 0.00 | 77 | 1015.5 |
| 20260903052903 | 82 | 212 | 2.0 | 7.0 | 0.00 | 0.00 | 0.00 | 77 | 1015.3 |
| 20260903052803 | 82 | 211 | 2.0 | 7.0 | 0.00 | 0.00 | 0.00 | 76 | 1015.2 |
| 20260903052703 | 83 | 214 | 2.0 | 7.0 | 0.00 | 0.00 | 0.00 | 76 | 1015.3 |
| 20260903052603 | 83 | 221 | 2.0 | 7.0 | 0.00 | 0.00 | 0.00 | 76 | 1015.5 |
| 20260903052504 | 83 | 220 | 2.0 | 7.0 | 0.00 | 0.00 | 0.00 | 76 | 1015.5 |
| 20260903052403 | 83 | 213 | 3.0 | 7.0 | 0.00 | 0.00 | 0.00 | 76 | 1015.5 |
| 20260903052306 | 83 | 217 | 3.0 | 7.0 | 0.00 | 0.00 | 0.00 | 76 | 1015.3 |
| 20260903052205 | 83 | 225 | 3.0 | 9.0 | 0.00 | 0.00 | 0.00 | 76 | 1015.3 |
| 20260903052104 | 83 | 230 | 3.0 | 9.0 | 0.00 | 0.00 | 0.00 | 76 | 1015.4 |
| 20260903052004 | 83 | 237 | 3.0 | 9.0 | 0.00 | 0.00 | 0.00 | 76 | 1015.4 |
| 20260903051903 | 83 | 233 | 3.0 | 9.0 | 0.00 | 0.00 | 0.00 | 76 | 1015.2 |
| 20260903051824 | 83 | 236 | 3.0 | 9.0 | 0.00 | 0.00 | 0.00 | 76 | 1015.2 |
| 20260903051704 | 83 | 235 | 3.0 | 9.0 | 0.00 | 0.00 | 0.00 | 76 | 1015.4 |
| 20260903051604 | 83 | 220 | 3.0 | 9.0 | 0.00 | 0.00 | 0.00 | 75 | 1015.2 |
| 20260903051503 | 83 | 227 | 3.0 | 9.0 | 0.00 | 0.00 | 0.00 | 75 | 1015.3 |
| 20260903051404 | 83 | 232 | 2.0 | 9.0 | 0.00 | 0.00 | 0.00 | 75 | 1015.2 |
| 20260903051303 | 83 | 233 | 2.0 | 9.0 | 0.00 | 0.00 | 0.00 | 75 | 1015.3 |
| 20260903051204 | 83 | 204 | 2.0 | 7.0 | 0.00 | 0.00 | 0.00 | 75 | 1015.3 |
| 20260903051125 | 83 | 199 | 2.0 | 8.0 | 0.00 | 0.00 | 0.00 | 76 | 1015.3 |
| 20260903051003 | 83 | 202 | 2.0 | 8.0 | 0.00 | 0.00 | 0.00 | 76 | 1015.1 |
| 20260903050903 | 83 | 208 | 2.0 | 8.0 | 0.00 | 0.00 | 0.00 | 76 | 1015.2 |
| 20260903050803 | 83 | 209 | 2.0 | 8.0 | 0.00 | 0.00 | 0.00 | 76 | 1015.1 |
| 20260903050704 | 83 | 207 | 2.0 | 8.0 | 0.00 | 0.00 | 0.00 | 75 | 1015.2 |
| 20260903050604 | 83 | 206 | 2.0 | 8.0 | 0.00 | 0.00 | 0.00 | 76 | 1015.0 |
| 20260903050503 | 83 | 207 | 3.0 | 8.0 | 0.00 | 0.00 | 0.00 | 75 | 1015.0 |
| 20260903050424 | 83 | 207 | 3.0 | 8.0 | 0.00 | 0.00 | 0.00 | 75 | 1015.1 |
| 20260903050303 | 83 | 203 | 3.0 | 8.0 | 0.00 | 0.00 | 0.00 | 75 | 1015.1 |
| 20260903050224 | 83 | 203 | 3.0 | 8.0 | 0.00 | 0.00 | 0.00 | 75 | 1015.0 |
| 20260903050026 | 83 | 196 | 2.0 | 6.0 | 0.00 | 0.00 | 0.00 | 75 | 1015.1 |
| 20260903045904 | 83 | 187 | 2.0 | 6.0 | 0.00 | 0.00 | 0.00 | 75 | 1015.0 |
| 20260903045803 | 83 | 181 | 2.0 | 6.0 | 0.00 | 0.00 | 0.00 | 75 | 1014.9 |
| 20260903045705 | 83 | 179 | 2.0 | 6.0 | 0.00 | 0.00 | 0.00 | 75 | 1014.9 |
| 20260903045625 | 83 | 162 | 2.0 | 6.0 | 0.00 | 0.00 | 0.00 | 75 | 1015.0 |
| 20260903045503 | 83 | 176 | 2.0 | 8.0 | 0.00 | 0.00 | 0.00 | 76 | 1015.0 |
| 20260903045403 | 82 | 173 | 2.0 | 8.0 | 0.00 | 0.00 | 0.00 | 76 | 1014.8 |
| 20260903045306 | 82 | 173 | 2.0 | 8.0 | 0.00 | 0.00 | 0.00 | 76 | 1015.0 |
| 20260903045204 | 82 | 175 | 2.0 | 8.0 | 0.00 | 0.00 | 0.00 | 76 | 1014.9 |
| 20260903045124 | 82 | 174 | 2.0 | 8.0 | 0.00 | 0.00 | 0.00 | 76 | 1014.9 |
| 20260903045003 | 82 | 164 | 2.0 | 8.0 | 0.00 | 0.00 | 0.00 | 76 | 1014.8 |
| 20260903044903 | 82 | 175 | 2.0 | 8.0 | 0.00 | 0.00 | 0.00 | 76 | 1014.8 |
| 20260903044825 | 82 | 177 | 2.0 | 8.0 | 0.00 | 0.00 | 0.00 | 76 | 1014.7 |
| 20260903044704 | 82 | 187 | 2.0 | 8.0 | 0.00 | 0.00 | 0.00 | 76 | 1015.0 |
| 20260903044603 | 82 | 180 | 2.0 | 8.0 | 0.00 | 0.00 | 0.00 | 76 | 1014.7 |
| 20260903044503 | 82 | 173 | 2.0 | 7.0 | 0.00 | 0.00 | 0.00 | 76 | 1014.7 |
| 20260903044404 | 82 | 174 | 2.0 | 7.0 | 0.00 | 0.00 | 0.00 | 76 | 1014.7 |
| 20260903044304 | 82 | 178 | 2.0 | 7.0 | 0.00 | 0.00 | 0.00 | 76 | 1014.9 |
| 20260903044204 | 82 | 172 | 2.0 | 7.0 | 0.00 | 0.00 | 0.00 | 76 | 1014.7 |
| 20260903044104 | 82 | 172 | 2.0 | 7.0 | 0.00 | 0.00 | 0.00 | 76 | 1014.8 |
| 20260903044004 | 82 | 169 | 2.0 | 7.0 | 0.00 | 0.00 | 0.00 | 76 | 1014.6 |
| 20260903043904 | 82 | 161 | 2.0 | 9.0 | 0.00 | 0.00 | 0.00 | 76 | 1014.6 |
| 20260903043803 | 82 | 153 | 2.0 | 9.0 | 0.00 | 0.00 | 0.00 | 76 | 1014.6 |
| 20260903043704 | 82 | 145 | 2.0 | 9.0 | 0.00 | 0.00 | 0.00 | 77 | 1014.7 |
| 20260903043625 | 82 | 147 | 1.0 | 9.0 | 0.00 | 0.00 | 0.00 | 77 | 1014.9 |
| 20260903043503 | 82 | 149 | 1.0 | 9.0 | 0.00 | 0.00 | 0.00 | 77 | 1014.6 |
| 20260903043403 | 82 | 146 | 1.0 | 9.0 | 0.00 | 0.00 | 0.00 | 77 | 1014.8 |
| 20260903043304 | 82 | 144 | 1.0 | 9.0 | 0.00 | 0.00 | 0.00 | 77 | 1014.8 |
| 20260903043204 | 82 | 144 | 2.0 | 9.0 | 0.00 | 0.00 | 0.00 | 76 | 1014.6 |
| 20260903043103 | 82 | 139 | 2.0 | 9.0 | 0.00 | 0.00 | 0.00 | 76 | 1014.7 |
| 20260903043003 | 82 | 140 | 1.0 | 9.0 | 0.00 | 0.00 | 0.00 | 76 | 1014.7 |
| 20260903042903 | 82 | 143 | 2.0 | 6.0 | 0.00 | 0.00 | 0.00 | 77 | 1014.9 |
| 20260903042824 | 82 | 146 | 2.0 | 6.0 | 0.00 | 0.00 | 0.00 | 77 | 1014.7 |
| 20260903042703 | 82 | 147 | 2.0 | 6.0 | 0.00 | 0.00 | 0.00 | 77 | 1014.7 |
| 20260903042604 | 82 | 152 | 2.0 | 6.0 | 0.00 | 0.00 | 0.00 | 77 | 1014.7 |
| 20260903042504 | 82 | 151 | 2.0 | 6.0 | 0.00 | 0.00 | 0.00 | 76 | 1014.6 |
| 20260903042403 | 82 | 153 | 2.0 | 6.0 | 0.00 | 0.00 | 0.00 | 76 | 1014.9 |
| 20260903042306 | 82 | 156 | 2.0 | 6.0 | 0.00 | 0.00 | 0.00 | 76 | 1014.6 |
| 20260903042203 | 82 | 160 | 2.0 | 6.0 | 0.00 | 0.00 | 0.00 | 76 | 1014.7 |
| 20260903042104 | 82 | 165 | 2.0 | 6.0 | 0.00 | 0.00 | 0.00 | 76 | 1014.9 |
| 20260903042003 | 82 | 167 | 2.0 | 6.0 | 0.00 | 0.00 | 0.00 | 76 | 1014.6 |
| 20260903041903 | 82 | 168 | 2.0 | 6.0 | 0.00 | 0.00 | 0.00 | 76 | 1014.6 |
| 20260903041824 | 82 | 166 | 2.0 | 6.0 | 0.00 | 0.00 | 0.00 | 76 | 1014.6 |
| 20260903041704 | 82 | 165 | 2.0 | 6.0 | 0.00 | 0.00 | 0.00 | 76 | 1014.6 |
| 20260903041604 | 82 | 156 | 1.0 | 6.0 | 0.00 | 0.00 | 0.00 | 77 | 1014.5 |
| 20260903041504 | 82 | 155 | 1.0 | 6.0 | 0.00 | 0.00 | 0.00 | 77 | 1014.4 |
| 20260903041403 | 82 | 152 | 1.0 | 6.0 | 0.00 | 0.00 | 0.00 | 77 | 1014.6 |
| 20260903041305 | 82 | 148 | 1.0 | 6.0 | 0.00 | 0.00 | 0.00 | 77 | 1014.6 |
| 20260903041203 | 81 | 141 | 1.0 | 6.0 | 0.00 | 0.00 | 0.00 | 77 | 1014.5 |
| 20260903041104 | 81 | 135 | 1.0 | 6.0 | 0.00 | 0.00 | 0.00 | 78 | 1014.6 |
| 20260903041025 | 81 | 137 | 1.0 | 6.0 | 0.00 | 0.00 | 0.00 | 78 | 1014.5 |
| 20260903040905 | 81 | 144 | 1.0 | 6.0 | 0.00 | 0.00 | 0.00 | 78 | 1014.4 |
| 20260903040805 | 81 | 146 | 1.0 | 6.0 | 0.00 | 0.00 | 0.00 | 78 | 1014.5 |
| 20260903040726 | 81 | 145 | 1.0 | 6.0 | 0.00 | 0.00 | 0.00 | 78 | 1014.5 |
| 20260903040605 | 81 | 147 | 1.0 | 6.0 | 0.00 | 0.00 | 0.00 | 78 | 1014.5 |
| 20260903040504 | 81 | 148 | 1.0 | 6.0 | 0.00 | 0.00 | 0.00 | 78 | 1014.4 |
| 20260903040404 | 81 | 150 | 1.0 | 4.0 | 0.00 | 0.00 | 0.00 | 78 | 1014.3 |
| 20260903040304 | 81 | 150 | 1.0 | 4.0 | 0.00 | 0.00 | 0.00 | 78 | 1014.5 |
| 20260903040205 | 81 | 148 | 1.0 | 4.0 | 0.00 | 0.00 | 0.00 | 78 | 1014.4 |
| 20260903040125 | 81 | 147 | 1.0 | 4.0 | 0.00 | 0.00 | 0.00 | 78 | 1014.2 |
| 20260903040009 | 81 | 140 | 1.0 | 3.0 | 0.00 | 0.00 | 0.00 | 79 | 1014.4 |
| 20260903035925 | 80 | 141 | 1.0 | 3.0 | 0.00 | 0.00 | 0.00 | 79 | 1014.5 |
| 20260903035805 | 80 | 141 | 1.0 | 3.0 | 0.00 | 0.00 | 0.00 | 80 | 1014.4 |
| 20260903035726 | 81 | 142 | 1.0 | 3.0 | 0.00 | 0.00 | 0.00 | 80 | 1014.5 |
| 20260903035603 | 80 | 139 | 1.0 | 3.0 | 0.00 | 0.00 | 0.00 | 80 | 1014.5 |
| 20260903035506 | 81 | 141 | 1.0 | 3.0 | 0.00 | 0.00 | 0.00 | 79 | 1014.5 |
| 20260903035405 | 81 | 141 | 1.0 | 3.0 | 0.00 | 0.00 | 0.00 | 80 | 1014.5 |
| 20260903035306 | 81 | 141 | 1.0 | 3.0 | 0.00 | 0.00 | 0.00 | 80 | 1014.4 |
| 20260903035203 | 80 | 142 | 1.0 | 3.0 | 0.00 | 0.00 | 0.00 | 79 | 1014.5 |
| 20260903035106 | 80 | 137 | 1.0 | 3.0 | 0.00 | 0.00 | 0.00 | 80 | 1014.3 |
| 20260903035005 | 80 | 141 | 1.0 | 4.0 | 0.00 | 0.00 | 0.00 | 80 | 1014.5 |
| 20260903034905 | 80 | 132 | 1.0 | 4.0 | 0.00 | 0.00 | 0.00 | 81 | 1014.3 |
| 20260903034826 | 80 | 132 | 1.0 | 4.0 | 0.00 | 0.00 | 0.00 | 81 | 1014.3 |
| 20260903034705 | 80 | 130 | 1.0 | 4.0 | 0.00 | 0.00 | 0.00 | 81 | 1014.2 |
| 20260903034625 | 80 | 131 | 1.0 | 4.0 | 0.00 | 0.00 | 0.00 | 81 | 1014.1 |
| 20260903034525 | 80 | 129 | 1.0 | 4.0 | 0.00 | 0.00 | 0.00 | 81 | 1014.3 |
| 20260903034404 | 80 | 129 | 1.0 | 4.0 | 0.00 | 0.00 | 0.00 | 81 | 1014.2 |
| 20260903034325 | 80 | 129 | 1.0 | 4.0 | 0.00 | 0.00 | 0.00 | 81 | 1014.1 |
| 20260903034205 | 80 | 127 | 1.0 | 4.0 | 0.00 | 0.00 | 0.00 | 80 | 1014.1 |
| 20260903034105 | 80 | 130 | 1.0 | 4.0 | 0.00 | 0.00 | 0.00 | 80 | 1014.1 |
| 20260903034005 | 80 | 125 | 1.0 | 4.0 | 0.00 | 0.00 | 0.00 | 81 | 1014.0 |
| 20260903033904 | 80 | 125 | 1.0 | 3.0 | 0.00 | 0.00 | 0.00 | 81 | 1014.2 |
| 20260903033804 | 80 | 124 | 1.0 | 3.0 | 0.00 | 0.00 | 0.00 | 81 | 1014.0 |
| 20260903033703 | 80 | 126 | 1.0 | 3.0 | 0.00 | 0.00 | 0.00 | 81 | 1013.9 |
| 20260903033627 | 80 | 126 | 1.0 | 3.0 | 0.00 | 0.00 | 0.00 | 81 | 1013.9 |
| 20260903033504 | 80 | 125 | 1.0 | 3.0 | 0.00 | 0.00 | 0.00 | 81 | 1014.0 |
| 20260903033404 | 80 | 125 | 1.0 | 3.0 | 0.00 | 0.00 | 0.00 | 81 | 1014.0 |
| 20260903033327 | 80 | 125 | 1.0 | 3.0 | 0.00 | 0.00 | 0.00 | 81 | 1014.0 |
| 20260903033224 | 80 | 126 | 1.0 | 4.0 | 0.00 | 0.00 | 0.00 | 81 | 1014.0 |
| 20260903033103 | 80 | 127 | 2.0 | 4.0 | 0.00 | 0.00 | 0.00 | 81 | 1014.0 |
| 20260903033006 | 80 | 127 | 2.0 | 4.0 | 0.00 | 0.00 | 0.00 | 81 | 1013.9 |
| 20260903032906 | 80 | 125 | 2.0 | 4.0 | 0.00 | 0.00 | 0.00 | 81 | 1014.0 |
| 20260903032803 | 80 | 124 | 2.0 | 4.0 | 0.00 | 0.00 | 0.00 | 81 | 1014.0 |
| 20260903032705 | 80 | 123 | 2.0 | 4.0 | 0.00 | 0.00 | 0.00 | 81 | 1014.1 |
| 20260903032605 | 80 | 123 | 2.0 | 4.0 | 0.00 | 0.00 | 0.00 | 81 | 1014.1 |
| 20260903032503 | 80 | 125 | 2.0 | 4.0 | 0.00 | 0.00 | 0.00 | 81 | 1013.9 |
| 20260903032403 | 80 | 123 | 2.0 | 4.0 | 0.00 | 0.00 | 0.00 | 80 | 1014.1 |
| 20260903032325 | 80 | 122 | 2.0 | 4.0 | 0.00 | 0.00 | 0.00 | 80 | 1014.2 |
| 20260903032204 | 80 | 119 | 1.0 | 4.0 | 0.00 | 0.00 | 0.00 | 80 | 1014.1 |
| 20260903032105 | 80 | 117 | 1.0 | 3.0 | 0.00 | 0.00 | 0.00 | 81 | 1014.1 |
| 20260903032006 | 80 | 116 | 1.0 | 3.0 | 0.00 | 0.00 | 0.00 | 81 | 1014.0 |
| 20260903031903 | 80 | 117 | 1.0 | 3.0 | 0.00 | 0.00 | 0.00 | 81 | 1014.1 |
| 20260903031807 | 80 | 118 | 1.0 | 3.0 | 0.00 | 0.00 | 0.00 | 81 | 1014.1 |
| 20260903031703 | 80 | 116 | 1.0 | 3.0 | 0.00 | 0.00 | 0.00 | 81 | 1014.0 |
| 20260903031604 | 80 | 115 | 1.0 | 3.0 | 0.00 | 0.00 | 0.00 | 81 | 1014.2 |
| 20260903031503 | 80 | 114 | 1.0 | 3.0 | 0.00 | 0.00 | 0.00 | 81 | 1014.2 |
| 20260903031405 | 80 | 114 | 1.0 | 3.0 | 0.00 | 0.00 | 0.00 | 81 | 1014.2 |
| 20260903031308 | 80 | 115 | 1.0 | 3.0 | 0.00 | 0.00 | 0.00 | 81 | 1014.2 |
| 20260903031206 | 80 | 115 | 1.0 | 3.0 | 0.00 | 0.00 | 0.00 | 81 | 1014.2 |
| 20260903031104 | 80 | 115 | 1.0 | 3.0 | 0.00 | 0.00 | 0.00 | 81 | 1014.2 |
| 20260903031026 | 80 | 115 | 1.0 | 3.0 | 0.00 | 0.00 | 0.00 | 81 | 1014.3 |
| 20260903030905 | 80 | 118 | 1.0 | 3.0 | 0.00 | 0.00 | 0.00 | 81 | 1014.3 |
| 20260903030804 | 80 | 117 | 1.0 | 3.0 | 0.00 | 0.00 | 0.00 | 81 | 1014.5 |
| 20260903030725 | 80 | 118 | 1.0 | 3.0 | 0.00 | 0.00 | 0.00 | 81 | 1014.4 |
| 20260903030604 | 80 | 119 | 1.0 | 3.0 | 0.00 | 0.00 | 0.00 | 81 | 1014.6 |
| 20260903030526 | 80 | 119 | 1.0 | 3.0 | 0.00 | 0.00 | 0.00 | 81 | 1014.5 |
| 20260903030405 | 80 | 121 | 1.0 | 3.0 | 0.00 | 0.00 | 0.00 | 81 | 1014.6 |
| 20260903030304 | 80 | 125 | 1.0 | 3.0 | 0.00 | 0.00 | 0.00 | 81 | 1014.6 |
| 20260903030203 | 80 | 125 | 1.0 | 3.0 | 0.00 | 0.00 | 0.00 | 81 | 1014.5 |
| 20260903030108 | 80 | 126 | 1.0 | 3.0 | 0.00 | 0.00 | 0.00 | 81 | 1014.6 |
| 20260903030006 | 81 | 127 | 1.0 | 3.0 | 0.00 | 0.00 | 0.00 | 81 | 1014.6 |
| 20260903025905 | 81 | 126 | 1.0 | 3.0 | 0.00 | 0.00 | 0.00 | 81 | 1014.5 |
| 20260903025804 | 81 | 127 | 1.0 | 3.0 | 0.00 | 0.00 | 0.00 | 80 | 1014.7 |
| 20260903025705 | 81 | 126 | 1.0 | 4.0 | 0.00 | 0.00 | 0.00 | 81 | 1014.7 |
| 20260903025604 | 81 | 127 | 2.0 | 4.0 | 0.00 | 0.00 | 0.00 | 81 | 1014.7 |
| 20260903025504 | 81 | 126 | 2.0 | 4.0 | 0.00 | 0.00 | 0.00 | 80 | 1014.9 |
| 20260903025403 | 81 | 126 | 2.0 | 4.0 | 0.00 | 0.00 | 0.00 | 80 | 1014.7 |
| 20260903025325 | 81 | 124 | 2.0 | 4.0 | 0.00 | 0.00 | 0.00 | 80 | 1014.9 |
| 20260903025204 | 81 | 124 | 2.0 | 4.0 | 0.00 | 0.00 | 0.00 | 80 | 1014.9 |
| 20260903025104 | 81 | 123 | 1.0 | 4.0 | 0.00 | 0.00 | 0.00 | 80 | 1014.8 |
| 20260903025003 | 81 | 121 | 1.0 | 4.0 | 0.00 | 0.00 | 0.00 | 80 | 1014.8 |
| 20260903024924 | 81 | 121 | 1.0 | 4.0 | 0.00 | 0.00 | 0.00 | 80 | 1014.9 |
| 20260903024803 | 81 | 119 | 1.0 | 4.0 | 0.00 | 0.00 | 0.00 | 80 | 1014.9 |
| 20260903024703 | 81 | 120 | 1.0 | 3.0 | 0.00 | 0.00 | 0.00 | 80 | 1015.2 |
| 20260903024603 | 80 | 119 | 1.0 | 3.0 | 0.00 | 0.00 | 0.00 | 81 | 1015.1 |
| 20260903024525 | 80 | 119 | 1.0 | 3.0 | 0.00 | 0.00 | 0.00 | 81 | 1014.9 |
| 20260903024424 | 80 | 117 | 0.0 | 2.0 | 0.00 | 0.00 | 0.00 | 82 | 1015.0 |
| 20260903024324 | 80 | 116 | 0.0 | 2.0 | 0.00 | 0.00 | 0.00 | 82 | 1015.0 |
| 20260903024203 | 80 | 115 | 0.0 | 2.0 | 0.00 | 0.00 | 0.00 | 82 | 1015.0 |
| 20260903024104 | 80 | 115 | 1.0 | 2.0 | 0.00 | 0.00 | 0.00 | 82 | 1014.9 |
| 20260903024003 | 80 | 117 | 1.0 | 2.0 | 0.00 | 0.00 | 0.00 | 82 | 1015.1 |
| 20260903023904 | 80 | 118 | 1.0 | 3.0 | 0.00 | 0.00 | 0.00 | 82 | 1015.2 |
| 20260903023824 | 80 | 117 | 1.0 | 3.0 | 0.00 | 0.00 | 0.00 | 81 | 1015.1 |
| 20260903023703 | 80 | 116 | 1.0 | 3.0 | 0.00 | 0.00 | 0.00 | 82 | 1015.1 |
| 20260903023603 | 80 | 114 | 0.0 | 3.0 | 0.00 | 0.00 | 0.00 | 82 | 1014.8 |
| 20260903023504 | 80 | 113 | 0.0 | 3.0 | 0.00 | 0.00 | 0.00 | 82 | 1015.1 |
| 20260903023404 | 80 | 113 | 0.0 | 3.0 | 0.00 | 0.00 | 0.00 | 82 | 1015.1 |
| 20260903023304 | 80 | 114 | 0.0 | 3.0 | 0.00 | 0.00 | 0.00 | 82 | 1015.2 |
| 20260903023203 | 80 | 115 | 0.0 | 3.0 | 0.00 | 0.00 | 0.00 | 82 | 1015.1 |
| 20260903023103 | 80 | 117 | 0.0 | 3.0 | 0.00 | 0.00 | 0.00 | 82 | 1015.1 |
| 20260903023003 | 80 | 114 | 0.0 | 3.0 | 0.00 | 0.00 | 0.00 | 83 | 1015.2 |
| 20260903022903 | 80 | 114 | 0.0 | 2.0 | 0.00 | 0.00 | 0.00 | 83 | 1015.1 |
| 20260903022803 | 80 | 109 | 0.0 | 1.0 | 0.00 | 0.00 | 0.00 | 83 | 1014.9 |
| 20260903022703 | 80 | 112 | 0.0 | 1.0 | 0.00 | 0.00 | 0.00 | 84 | 1015.0 |
| 20260903022625 | 80 | 112 | 0.0 | 1.0 | 0.00 | 0.00 | 0.00 | 84 | 1015.1 |
| 20260903022504 | 80 | 112 | 0.0 | 1.0 | 0.00 | 0.00 | 0.00 | 84 | 1015.2 |
| 20260903022404 | 80 | 116 | 0.0 | 1.0 | 0.00 | 0.00 | 0.00 | 84 | 1015.2 |
| 20260903022306 | 79 | 116 | 0.0 | 1.0 | 0.00 | 0.00 | 0.00 | 84 | 1015.2 |
| 20260903022204 | 79 | 116 | 0.0 | 1.0 | 0.00 | 0.00 | 0.00 | 84 | 1015.2 |
| 20260903022104 | 79 | 116 | 0.0 | 1.0 | 0.00 | 0.00 | 0.00 | 84 | 1015.1 |
| 20260903022003 | 80 | 116 | 0.0 | 1.0 | 0.00 | 0.00 | 0.00 | 84 | 1015.2 |
| 20260903021903 | 79 | 116 | 0.0 | 1.0 | 0.00 | 0.00 | 0.00 | 84 | 1015.2 |
| 20260903021824 | 79 | 116 | 0.0 | 1.0 | 0.00 | 0.00 | 0.00 | 84 | 1015.4 |
| 20260903021710 | 80 | 0 | 0.0 | 0.0 | 0.00 | 0.00 | 0.00 | 85 | 1015.3 |
| 20260903021604 | 80 | 0 | 0.0 | 0.0 | 0.00 | 0.00 | 0.00 | 84 | 1015.3 |
| 20260903021503 | 80 | 120 | 0.0 | 1.0 | 0.00 | 0.00 | 0.00 | 84 | 1015.3 |
| 20260903021404 | 80 | 120 | 0.0 | 1.0 | 0.00 | 0.00 | 0.00 | 84 | 1015.3 |
| 20260903021304 | 80 | 120 | 0.0 | 1.0 | 0.00 | 0.00 | 0.00 | 84 | 1015.3 |
| 20260903021203 | 80 | 120 | 0.0 | 1.0 | 0.00 | 0.00 | 0.00 | 84 | 1015.2 |
| 20260903021104 | 80 | 120 | 0.0 | 1.0 | 0.00 | 0.00 | 0.00 | 83 | 1015.2 |
| 20260903021003 | 80 | 120 | 0.0 | 1.0 | 0.00 | 0.00 | 0.00 | 83 | 1015.3 |
| 20260903020904 | 80 | 120 | 0.0 | 1.0 | 0.00 | 0.00 | 0.00 | 84 | 1015.2 |
| 20260903020803 | 80 | 120 | 0.0 | 1.0 | 0.00 | 0.00 | 0.00 | 83 | 1015.1 |
| 20260903020703 | 80 | 120 | 0.0 | 1.0 | 0.00 | 0.00 | 0.00 | 83 | 1015.1 |
| 20260903020603 | 80 | 120 | 0.0 | 1.0 | 0.00 | 0.00 | 0.00 | 83 | 1015.2 |
| 20260903020524 | 80 | 120 | 0.0 | 1.0 | 0.00 | 0.00 | 0.00 | 82 | 1015.2 |
| 20260903020403 | 80 | 0 | 0.0 | 0.0 | 0.00 | 0.00 | 0.00 | 83 | 1015.0 |
| 20260903020303 | 80 | 0 | 0.0 | 0.0 | 0.00 | 0.00 | 0.00 | 83 | 1015.1 |
| 20260903020224 | 80 | 0 | 0.0 | 0.0 | 0.00 | 0.00 | 0.00 | 83 | 1015.0 |
| 20260903020104 | 80 | 0 | 0.0 | 0.0 | 0.00 | 0.00 | 0.00 | 82 | 1015.0 |
| 20260903020004 | 80 | 0 | 0.0 | 0.0 | 0.00 | 0.00 | 0.00 | 83 | 1015.1 |
| 20260903015903 | 80 | 0 | 0.0 | 0.0 | 0.00 | 0.00 | 0.00 | 82 | 1015.0 |
| 20260903015803 | 80 | 0 | 0.0 | 0.0 | 0.00 | 0.00 | 0.00 | 83 | 1015.1 |
| 20260903015703 | 80 | 0 | 0.0 | 0.0 | 0.00 | 0.00 | 0.00 | 82 | 1015.1 |
| 20260903015626 | 80 | 0 | 0.0 | 0.0 | 0.00 | 0.00 | 0.00 | 82 | 1015.1 |
| 20260903015504 | 81 | 0 | 0.0 | 0.0 | 0.00 | 0.00 | 0.00 | 82 | 1014.9 |
| 20260903015403 | 81 | 119 | 0.0 | 1.0 | 0.00 | 0.00 | 0.00 | 82 | 1015.1 |
| 20260903015325 | 81 | 119 | 0.0 | 1.0 | 0.00 | 0.00 | 0.00 | 82 | 1015.3 |
| 20260903015204 | 81 | 124 | 0.0 | 1.0 | 0.00 | 0.00 | 0.00 | 82 | 1015.0 |
| 20260903015124 | 81 | 124 | 0.0 | 1.0 | 0.00 | 0.00 | 0.00 | 81 | 1015.0 |
| 20260903015004 | 81 | 124 | 0.0 | 1.0 | 0.00 | 0.00 | 0.00 | 81 | 1015.1 |
| 20260903014903 | 81 | 124 | 0.0 | 1.0 | 0.00 | 0.00 | 0.00 | 82 | 1015.0 |
| 20260903014824 | 81 | 124 | 0.0 | 1.0 | 0.00 | 0.00 | 0.00 | 82 | 1015.0 |
| 20260903014724 | 81 | 124 | 0.0 | 1.0 | 0.00 | 0.00 | 0.00 | 82 | 1015.1 |
| 20260903014624 | 81 | 124 | 0.0 | 1.0 | 0.00 | 0.00 | 0.00 | 82 | 1015.0 |
| 20260903014504 | 81 | 124 | 0.0 | 1.0 | 0.00 | 0.00 | 0.00 | 82 | 1015.1 |
| 20260903014403 | 81 | 128 | 0.0 | 1.0 | 0.00 | 0.00 | 0.00 | 82 | 1015.1 |
| 20260903014303 | 81 | 133 | 0.0 | 1.0 | 0.00 | 0.00 | 0.00 | 81 | 1015.3 |
| 20260903014203 | 81 | 131 | 0.0 | 1.0 | 0.00 | 0.00 | 0.00 | 82 | 1015.0 |
| 20260903014103 | 81 | 131 | 0.0 | 1.0 | 0.00 | 0.00 | 0.00 | 82 | 1015.2 |
| 20260903014004 | 81 | 131 | 0.0 | 1.0 | 0.00 | 0.00 | 0.00 | 81 | 1015.2 |
| 20260903013903 | 81 | 131 | 0.0 | 1.0 | 0.00 | 0.00 | 0.00 | 81 | 1015.2 |
| 20260903013803 | 81 | 131 | 0.0 | 1.0 | 0.00 | 0.00 | 0.00 | 81 | 1015.2 |
| 20260903013704 | 81 | 131 | 0.0 | 1.0 | 0.00 | 0.00 | 0.00 | 81 | 1015.2 |
| 20260903013603 | 81 | 131 | 0.0 | 1.0 | 0.00 | 0.00 | 0.00 | 81 | 1015.2 |
| 20260903013503 | 81 | 131 | 0.0 | 1.0 | 0.00 | 0.00 | 0.00 | 81 | 1015.3 |
| 20260903013403 | 80 | 118 | 0.0 | 2.0 | 0.00 | 0.00 | 0.00 | 81 | 1015.2 |
| 20260903013303 | 80 | 118 | 0.0 | 2.0 | 0.00 | 0.00 | 0.00 | 82 | 1015.2 |
| 20260903013203 | 80 | 118 | 0.0 | 2.0 | 0.00 | 0.00 | 0.00 | 82 | 1015.4 |
| 20260903013105 | 80 | 118 | 0.0 | 2.0 | 0.00 | 0.00 | 0.00 | 82 | 1015.4 |
| 20260903013004 | 80 | 118 | 0.0 | 2.0 | 0.00 | 0.00 | 0.00 | 82 | 1015.2 |
| 20260903012924 | 80 | 118 | 0.0 | 2.0 | 0.00 | 0.00 | 0.00 | 82 | 1015.2 |
| 20260903012804 | 81 | 118 | 0.0 | 2.0 | 0.00 | 0.00 | 0.00 | 81 | 1015.4 |
| 20260903012703 | 81 | 118 | 0.0 | 2.0 | 0.00 | 0.00 | 0.00 | 81 | 1015.3 |
| 20260903012604 | 80 | 118 | 0.0 | 2.0 | 0.00 | 0.00 | 0.00 | 81 | 1015.3 |
| 20260903012503 | 80 | 118 | 0.0 | 2.0 | 0.00 | 0.00 | 0.00 | 81 | 1015.3 |
| 20260903012403 | 80 | 121 | 0.0 | 1.0 | 0.00 | 0.00 | 0.00 | 82 | 1015.3 |
| 20260903012306 | 80 | 121 | 0.0 | 1.0 | 0.00 | 0.00 | 0.00 | 82 | 1015.3 |
| 20260903012203 | 80 | 121 | 0.0 | 1.0 | 0.00 | 0.00 | 0.00 | 81 | 1015.3 |
| 20260903012103 | 80 | 121 | 0.0 | 1.0 | 0.00 | 0.00 | 0.00 | 81 | 1015.2 |
| 20260903012003 | 80 | 121 | 0.0 | 1.0 | 0.00 | 0.00 | 0.00 | 81 | 1015.3 |
| 20260903011903 | 80 | 121 | 0.0 | 1.0 | 0.00 | 0.00 | 0.00 | 82 | 1015.2 |
| 20260903011804 | 80 | 121 | 0.0 | 1.0 | 0.00 | 0.00 | 0.00 | 81 | 1015.3 |
| 20260903011703 | 80 | 0 | 0.0 | 0.0 | 0.00 | 0.00 | 0.00 | 82 | 1015.4 |
| 20260903011603 | 80 | 0 | 0.0 | 0.0 | 0.00 | 0.00 | 0.00 | 82 | 1015.3 |
| 20260903011504 | 80 | 0 | 0.0 | 0.0 | 0.00 | 0.00 | 0.00 | 81 | 1015.3 |
| 20260903011425 | 80 | 0 | 0.0 | 0.0 | 0.00 | 0.00 | 0.00 | 81 | 1015.4 |
| 20260903011303 | 80 | 0 | 0.0 | 0.0 | 0.00 | 0.00 | 0.00 | 81 | 1015.2 |
| 20260903011203 | 80 | 0 | 0.0 | 0.0 | 0.00 | 0.00 | 0.00 | 81 | 1015.5 |
| 20260903011104 | 80 | 0 | 0.0 | 0.0 | 0.00 | 0.00 | 0.00 | 81 | 1015.4 |
| 20260903011024 | 80 | 0 | 0.0 | 0.0 | 0.00 | 0.00 | 0.00 | 81 | 1015.4 |
| 20260903010925 | 81 | 0 | 0.0 | 0.0 | 0.00 | 0.00 | 0.00 | 81 | 1015.5 |
| 20260903010803 | 81 | 0 | 0.0 | 0.0 | 0.00 | 0.00 | 0.00 | 80 | 1015.2 |
| 20260903010703 | 81 | 0 | 0.0 | 0.0 | 0.00 | 0.00 | 0.00 | 80 | 1015.3 |
| 20260903010604 | 81 | 0 | 0.0 | 0.0 | 0.00 | 0.00 | 0.00 | 80 | 1015.4 |
| 20260903010504 | 81 | 0 | 0.0 | 0.0 | 0.00 | 0.00 | 0.00 | 80 | 1015.3 |
| 20260903010403 | 81 | 0 | 0.0 | 0.0 | 0.00 | 0.00 | 0.00 | 79 | 1015.4 |
| 20260903010303 | 82 | 0 | 0.0 | 0.0 | 0.00 | 0.00 | 0.00 | 79 | 1015.2 |
| 20260903010204 | 82 | 0 | 0.0 | 0.0 | 0.00 | 0.00 | 0.00 | 79 | 1015.2 |
| 20260903010005 | 82 | 0 | 0.0 | 0.0 | 0.00 | 0.00 | 0.00 | 77 | 1015.4 |
| 20260903005903 | 82 | 0 | 0.0 | 0.0 | 0.00 | 0.00 | 0.00 | 77 | 1015.3 |
| 20260903005803 | 82 | 0 | 0.0 | 0.0 | 0.00 | 0.00 | 0.00 | 78 | 1015.2 |
| 20260903005725 | 82 | 0 | 0.0 | 0.0 | 0.00 | 0.00 | 0.00 | 77 | 1015.1 |
| 20260903005605 | 82 | 0 | 0.0 | 0.0 | 0.00 | 0.00 | 0.00 | 77 | 1015.2 |
| 20260903005503 | 83 | 121 | 0.0 | 1.0 | 0.00 | 0.00 | 0.00 | 76 | 1015.3 |
| 20260903005403 | 83 | 119 | 0.0 | 1.0 | 0.00 | 0.00 | 0.00 | 76 | 1015.2 |
| 20260903005306 | 83 | 120 | 0.0 | 1.0 | 0.00 | 0.00 | 0.00 | 76 | 1015.3 |
| 20260903005203 | 83 | 120 | 0.0 | 1.0 | 0.00 | 0.00 | 0.00 | 75 | 1015.1 |
| 20260903005105 | 83 | 123 | 0.0 | 1.0 | 0.00 | 0.00 | 0.00 | 75 | 1015.0 |
| 20260903005004 | 83 | 123 | 0.0 | 1.0 | 0.00 | 0.00 | 0.00 | 74 | 1015.1 |
| 20260903004903 | 83 | 123 | 0.0 | 1.0 | 0.00 | 0.00 | 0.00 | 74 | 1015.1 |
| 20260903004804 | 83 | 129 | 0.0 | 3.0 | 0.00 | 0.00 | 0.00 | 74 | 1015.2 |
| 20260903004703 | 83 | 129 | 0.0 | 3.0 | 0.00 | 0.00 | 0.00 | 74 | 1015.0 |
| 20260903004603 | 83 | 129 | 0.0 | 3.0 | 0.00 | 0.00 | 0.00 | 74 | 1015.0 |
| 20260903004504 | 83 | 129 | 0.0 | 3.0 | 0.00 | 0.00 | 0.00 | 74 | 1015.0 |
| 20260903004404 | 83 | 130 | 0.0 | 3.0 | 0.00 | 0.00 | 0.00 | 74 | 1015.2 |
| 20260903004324 | 84 | 130 | 0.0 | 3.0 | 0.00 | 0.00 | 0.00 | 74 | 1015.1 |
| 20260903004203 | 84 | 130 | 0.0 | 3.0 | 0.00 | 0.00 | 0.00 | 73 | 1015.3 |
| 20260903004104 | 84 | 131 | 0.0 | 3.0 | 0.00 | 0.00 | 0.00 | 73 | 1015.2 |
| 20260903004004 | 84 | 131 | 0.0 | 3.0 | 0.00 | 0.00 | 0.00 | 73 | 1015.1 |
| 20260903003904 | 83 | 133 | 0.0 | 3.0 | 0.00 | 0.00 | 0.00 | 72 | 1015.2 |
| 20260903003825 | 83 | 135 | 0.0 | 2.0 | 0.00 | 0.00 | 0.00 | 73 | 1015.1 |
| 20260903003703 | 83 | 127 | 0.0 | 2.0 | 0.00 | 0.00 | 0.00 | 73 | 1015.0 |
| 20260903003603 | 83 | 123 | 0.0 | 2.0 | 0.00 | 0.00 | 0.00 | 74 | 1015.0 |
| 20260903003504 | 83 | 0 | 0.0 | 0.0 | 0.00 | 0.00 | 0.00 | 74 | 1014.9 |
| 20260903003403 | 83 | 0 | 0.0 | 0.0 | 0.00 | 0.00 | 0.00 | 75 | 1015.1 |
| 20260903003304 | 83 | 0 | 0.0 | 0.0 | 0.00 | 0.00 | 0.00 | 76 | 1015.0 |
| 20260903003224 | 83 | 0 | 0.0 | 0.0 | 0.00 | 0.00 | 0.00 | 75 | 1014.9 |
| 20260903003103 | 83 | 0 | 0.0 | 0.0 | 0.00 | 0.00 | 0.00 | 73 | 1015.0 |
| 20260903003003 | 83 | 0 | 0.0 | 0.0 | 0.00 | 0.00 | 0.00 | 73 | 1015.0 |
| 20260903002903 | 83 | 0 | 0.0 | 0.0 | 0.00 | 0.00 | 0.00 | 73 | 1015.0 |
| 20260903002804 | 83 | 0 | 0.0 | 0.0 | 0.00 | 0.00 | 0.00 | 73 | 1015.2 |
| 20260903002703 | 84 | 0 | 0.0 | 0.0 | 0.00 | 0.00 | 0.00 | 73 | 1015.0 |
| 20260903002603 | 84 | 131 | 0.0 | 1.0 | 0.00 | 0.00 | 0.00 | 73 | 1015.0 |
| 20260903002502 | 84 | 131 | 0.0 | 1.0 | 0.00 | 0.00 | 0.00 | 73 | 1014.8 |
| 20260903002402 | 84 | 131 | 0.0 | 1.0 | 0.00 | 0.00 | 0.00 | 73 | 1015.0 |
| 20260903002301 | 84 | 131 | 0.0 | 1.0 | 0.00 | 0.00 | 0.00 | 72 | 1014.9 |
| 20260903002201 | 84 | 131 | 0.0 | 1.0 | 0.00 | 0.00 | 0.00 | 72 | 1014.9 |
| 20260903002101 | 84 | 131 | 0.0 | 1.0 | 0.00 | 0.00 | 0.00 | 72 | 1014.9 |
| 20260903002001 | 84 | 131 | 0.0 | 1.0 | 0.00 | 0.00 | 0.00 | 72 | 1014.9 |
| 20260903001901 | 84 | 131 | 0.0 | 1.0 | 0.00 | 0.00 | 0.00 | 72 | 1014.9 |
| 20260903001822 | 84 | 131 | 0.0 | 1.0 | 0.00 | 0.00 | 0.00 | 72 | 1014.8 |
| 20260903001701 | 84 | 131 | 0.0 | 1.0 | 0.00 | 0.00 | 0.00 | 72 | 1014.8 |
| 20260903001623 | 84 | 137 | 0.0 | 1.0 | 0.00 | 0.00 | 0.00 | 71 | 1014.9 |
| 20260903001502 | 85 | 0 | 0.0 | 0.0 | 0.00 | 0.00 | 0.00 | 72 | 1015.0 |
| 20260903001422 | 85 | 0 | 0.0 | 0.0 | 0.00 | 0.00 | 0.00 | 72 | 1014.9 |
| 20260903001302 | 85 | 0 | 0.0 | 0.0 | 0.00 | 0.00 | 0.00 | 71 | 1014.8 |
| 20260903001223 | 85 | 0 | 0.0 | 0.0 | 0.00 | 0.00 | 0.00 | 72 | 1014.9 |
| 20260903001102 | 85 | 0 | 0.0 | 0.0 | 0.00 | 0.00 | 0.00 | 71 | 1014.7 |
| 20260903001002 | 85 | 0 | 0.0 | 0.0 | 0.00 | 0.00 | 0.00 | 72 | 1014.9 |
| 20260903000901 | 85 | 0 | 0.0 | 0.0 | 0.00 | 0.00 | 0.00 | 71 | 1014.6 |
| 20260903000823 | 85 | 0 | 0.0 | 0.0 | 0.00 | 0.00 | 0.00 | 70 | 1014.6 |
| 20260903000701 | 86 | 0 | 0.0 | 0.0 | 0.00 | 0.00 | 0.00 | 70 | 1014.7 |
| 20260903000622 | 86 | 0 | 0.0 | 0.0 | 0.00 | 0.00 | 0.00 | 69 | 1014.7 |
| 20260903000501 | 86 | 0 | 0.0 | 0.0 | 0.00 | 0.00 | 0.00 | 70 | 1014.5 |
| 20260903000402 | 86 | 0 | 0.0 | 0.0 | 0.00 | 0.00 | 0.00 | 68 | 1014.6 |
| 20260903000303 | 86 | 0 | 0.0 | 0.0 | 0.00 | 0.00 | 0.00 | 68 | 1014.6 |
| 20260903000204 | 87 | 0 | 0.0 | 0.0 | 0.00 | 0.00 | 0.00 | 68 | 1014.7 |
| 20260903000001 | 87 | 0 | 0.0 | 0.0 | 0.00 | 0.00 | 0.00 | 67 | 1014.8 |
| 20260902235901 | 87 | 0 | 0.0 | 0.0 | 0.00 | 0.00 | 0.00 | 67 | 1014.8 |
| 20260902235801 | 87 | 140 | 0.0 | 1.0 | 0.00 | 0.00 | 0.00 | 66 | 1014.7 |
| 20260902235702 | 87 | 138 | 0.0 | 1.0 | 0.00 | 0.00 | 0.00 | 66 | 1014.7 |
| 20260902235601 | 87 | 147 | 0.0 | 2.0 | 0.00 | 0.00 | 0.00 | 66 | 1014.7 |
| 20260902235502 | 87 | 144 | 0.0 | 2.0 | 0.00 | 0.00 | 0.00 | 65 | 1014.7 |
| 20260902235401 | 87 | 140 | 0.0 | 2.0 | 0.00 | 0.00 | 0.00 | 65 | 1014.9 |